<?xml version="1.0" encoding="UTF-8"?>
<gpx version="1.1" creator="Endomondo.com" xsi:schemaLocation="http://www.topografix.com/GPX/1/1 http://www.topografix.com/GPX/1/1/gpx.xsd http://www.garmin.com/xmlschemas/GpxExtensions/v3 http://www.garmin.com/xmlschemas/GpxExtensionsv3.xsd http://www.garmin.com/xmlschemas/TrackPointExtension/v1 http://www.garmin.com/xmlschemas/TrackPointExtensionv1.xsd" xmlns="http://www.topografix.com/GPX/1/1" xmlns:gpxtpx="http://www.garmin.com/xmlschemas/TrackPointExtension/v1" xmlns:gpxx="http://www.garmin.com/xmlschemas/GpxExtensions/v3" xmlns:xsi="http://www.w3.org/2001/XMLSchema-instance">
 <metadata>
 <author>
 <name>Jan-Philippe Schilt</name>
 <email id="jp.schilt" domain="gmail.com"/>
 </author>
 <link href="http://www.endomondo.com">
 <text>Endomondo</text>
 </link>
 <time>2014-08-14T21:38:49Z</time>
 </metadata>
 <trk>
 <name>DDorf - L-Park Duisburg</name>
 <src>http://www.endomondo.com/</src>
 <link href="https://www.endomondo.com/workouts/352867399/1055794">
 <text>DDorf - L-Park Duisburg</text>
 </link>
 <type>CYCLING_SPORT</type>
 <trkseg>
 <trkpt lat="51.229299" lon="6.798226">
 <time>2014-06-06T18:12:59Z</time>
 </trkpt>
 <trkpt lat="51.229299" lon="6.798226">
 <ele>100.0</ele>
 <time>2014-06-06T18:13:03Z</time>
 </trkpt>
 <trkpt lat="51.229434" lon="6.798208">
 <ele>97.0</ele>
 <time>2014-06-06T18:13:12Z</time>
 </trkpt>
 <trkpt lat="51.229671" lon="6.798101">
 <ele>104.0</ele>
 <time>2014-06-06T18:13:23Z</time>
 </trkpt>
 <trkpt lat="51.229741" lon="6.797922">
 <ele>97.0</ele>
 <time>2014-06-06T18:13:40Z</time>
 </trkpt>
 <trkpt lat="51.229761" lon="6.797837">
 <ele>95.0</ele>
 <time>2014-06-06T18:13:45Z</time>
 </trkpt>
 <trkpt lat="51.229761" lon="6.797837">
 <time>2014-06-06T18:13:52Z</time>
 </trkpt>
 </trkseg>
 <trkseg>
 <trkpt lat="51.229709" lon="6.797736">
 <ele>94.0</ele>
 <time>2014-06-06T18:13:57Z</time>
 </trkpt>
 <trkpt lat="51.229709" lon="6.797736">
 <time>2014-06-06T18:13:57Z</time>
 </trkpt>
 <trkpt lat="51.229709" lon="6.797736">
 <ele>94.0</ele>
 <time>2014-06-06T18:14:05Z</time>
 </trkpt>
 <trkpt lat="51.229709" lon="6.797736">
 <time>2014-06-06T18:14:05Z</time>
 </trkpt>
 </trkseg>
 <trkseg>
 <trkpt lat="51.229782" lon="6.79797">
 <ele>89.0</ele>
 <time>2014-06-06T18:14:19Z</time>
 </trkpt>
 <trkpt lat="51.229782" lon="6.79797">
 <time>2014-06-06T18:14:19Z</time>
 </trkpt>
 <trkpt lat="51.229901" lon="6.798505">
 <ele>91.0</ele>
 <time>2014-06-06T18:14:26Z</time>
 </trkpt>
 <trkpt lat="51.230051" lon="6.799083">
 <ele>91.0</ele>
 <time>2014-06-06T18:14:32Z</time>
 </trkpt>
 <trkpt lat="51.23012" lon="6.799567">
 <ele>89.0</ele>
 <time>2014-06-06T18:14:37Z</time>
 </trkpt>
 <trkpt lat="51.230272" lon="6.800189">
 <ele>90.0</ele>
 <time>2014-06-06T18:14:43Z</time>
 </trkpt>
 <trkpt lat="51.230343" lon="6.80061">
 <ele>92.0</ele>
 <time>2014-06-06T18:14:46Z</time>
 </trkpt>
 <trkpt lat="51.230541" lon="6.80132">
 <ele>95.0</ele>
 <time>2014-06-06T18:14:51Z</time>
 </trkpt>
 <trkpt lat="51.230602" lon="6.801294">
 <ele>95.0</ele>
 <time>2014-06-06T18:14:52Z</time>
 </trkpt>
 <trkpt lat="51.230602" lon="6.801294">
 <time>2014-06-06T18:14:58Z</time>
 </trkpt>
 </trkseg>
 <trkseg>
 <trkpt lat="51.230602" lon="6.801294">
 <time>2014-06-06T18:15:21Z</time>
 </trkpt>
 <trkpt lat="51.230664" lon="6.801784">
 <ele>92.0</ele>
 <time>2014-06-06T18:15:21Z</time>
 </trkpt>
 <trkpt lat="51.230775" lon="6.802377">
 <ele>88.0</ele>
 <time>2014-06-06T18:15:27Z</time>
 </trkpt>
 <trkpt lat="51.230942" lon="6.803171">
 <ele>91.0</ele>
 <time>2014-06-06T18:15:34Z</time>
 </trkpt>
 <trkpt lat="51.231032" lon="6.803831">
 <ele>94.0</ele>
 <time>2014-06-06T18:15:40Z</time>
 </trkpt>
 <trkpt lat="51.231103" lon="6.804389">
 <ele>93.0</ele>
 <time>2014-06-06T18:15:45Z</time>
 </trkpt>
 <trkpt lat="51.231245" lon="6.805162">
 <ele>93.0</ele>
 <time>2014-06-06T18:15:52Z</time>
 </trkpt>
 <trkpt lat="51.231272" lon="6.805684">
 <ele>95.0</ele>
 <time>2014-06-06T18:15:57Z</time>
 </trkpt>
 <trkpt lat="51.231289" lon="6.806171">
 <ele>98.0</ele>
 <time>2014-06-06T18:16:02Z</time>
 </trkpt>
 <trkpt lat="51.231357" lon="6.806833">
 <ele>100.0</ele>
 <time>2014-06-06T18:16:08Z</time>
 </trkpt>
 <trkpt lat="51.23145" lon="6.80742">
 <ele>101.0</ele>
 <time>2014-06-06T18:16:14Z</time>
 </trkpt>
 <trkpt lat="51.231574" lon="6.807739">
 <ele>96.0</ele>
 <time>2014-06-06T18:16:17Z</time>
 </trkpt>
 <trkpt lat="51.231775" lon="6.808236">
 <ele>93.0</ele>
 <time>2014-06-06T18:16:22Z</time>
 </trkpt>
 <trkpt lat="51.231776" lon="6.80859">
 <ele>95.0</ele>
 <time>2014-06-06T18:16:29Z</time>
 </trkpt>
 <trkpt lat="51.231728" lon="6.808595">
 <ele>96.0</ele>
 <time>2014-06-06T18:16:32Z</time>
 </trkpt>
 <trkpt lat="51.231728" lon="6.808595">
 <time>2014-06-06T18:16:38Z</time>
 </trkpt>
 </trkseg>
 <trkseg>
 <trkpt lat="51.231728" lon="6.808595">
 <time>2014-06-06T18:17:08Z</time>
 </trkpt>
 <trkpt lat="51.231734" lon="6.809011">
 <ele>93.0</ele>
 <time>2014-06-06T18:17:08Z</time>
 </trkpt>
 <trkpt lat="51.232009" lon="6.809728">
 <ele>96.0</ele>
 <time>2014-06-06T18:17:15Z</time>
 </trkpt>
 <trkpt lat="51.232288" lon="6.810413">
 <ele>94.0</ele>
 <time>2014-06-06T18:17:21Z</time>
 </trkpt>
 <trkpt lat="51.232446" lon="6.811205">
 <ele>94.0</ele>
 <time>2014-06-06T18:17:27Z</time>
 </trkpt>
 <trkpt lat="51.232571" lon="6.811695">
 <ele>94.0</ele>
 <time>2014-06-06T18:17:33Z</time>
 </trkpt>
 <trkpt lat="51.232624" lon="6.811866">
 <ele>91.0</ele>
 <time>2014-06-06T18:17:39Z</time>
 </trkpt>
 <trkpt lat="51.232701" lon="6.812267">
 <ele>90.0</ele>
 <time>2014-06-06T18:17:44Z</time>
 </trkpt>
 <trkpt lat="51.232844" lon="6.812816">
 <ele>86.0</ele>
 <time>2014-06-06T18:17:50Z</time>
 </trkpt>
 <trkpt lat="51.232839" lon="6.813425">
 <ele>83.0</ele>
 <time>2014-06-06T18:17:56Z</time>
 </trkpt>
 <trkpt lat="51.233039" lon="6.813877">
 <ele>85.0</ele>
 <time>2014-06-06T18:18:01Z</time>
 </trkpt>
 <trkpt lat="51.23318" lon="6.814435">
 <ele>84.0</ele>
 <time>2014-06-06T18:18:07Z</time>
 </trkpt>
 <trkpt lat="51.233368" lon="6.814927">
 <ele>85.0</ele>
 <time>2014-06-06T18:18:12Z</time>
 </trkpt>
 <trkpt lat="51.233492" lon="6.815686">
 <ele>86.0</ele>
 <time>2014-06-06T18:18:19Z</time>
 </trkpt>
 <trkpt lat="51.233642" lon="6.816286">
 <ele>87.0</ele>
 <time>2014-06-06T18:18:25Z</time>
 </trkpt>
 <trkpt lat="51.233698" lon="6.816615">
 <ele>88.0</ele>
 <time>2014-06-06T18:18:32Z</time>
 </trkpt>
 <trkpt lat="51.233698" lon="6.816615">
 <ele>88.0</ele>
 <time>2014-06-06T18:18:38Z</time>
 </trkpt>
 <trkpt lat="51.233698" lon="6.816615">
 <time>2014-06-06T18:18:38Z</time>
 </trkpt>
 </trkseg>
 <trkseg>
 <trkpt lat="51.233698" lon="6.816615">
 <time>2014-06-06T18:19:03Z</time>
 </trkpt>
 <trkpt lat="51.233842" lon="6.816945">
 <ele>90.0</ele>
 <time>2014-06-06T18:19:03Z</time>
 </trkpt>
 <trkpt lat="51.234048" lon="6.817421">
 <ele>94.0</ele>
 <time>2014-06-06T18:19:08Z</time>
 </trkpt>
 <trkpt lat="51.234309" lon="6.817895">
 <ele>89.0</ele>
 <time>2014-06-06T18:19:14Z</time>
 </trkpt>
 <trkpt lat="51.234647" lon="6.818352">
 <ele>85.0</ele>
 <time>2014-06-06T18:19:20Z</time>
 </trkpt>
 <trkpt lat="51.234904" lon="6.818718">
 <ele>88.0</ele>
 <time>2014-06-06T18:19:25Z</time>
 </trkpt>
 <trkpt lat="51.235162" lon="6.819065">
 <ele>90.0</ele>
 <time>2014-06-06T18:19:30Z</time>
 </trkpt>
 <trkpt lat="51.235459" lon="6.819521">
 <ele>90.0</ele>
 <time>2014-06-06T18:19:36Z</time>
 </trkpt>
 <trkpt lat="51.235665" lon="6.819835">
 <ele>95.0</ele>
 <time>2014-06-06T18:19:40Z</time>
 </trkpt>
 <trkpt lat="51.235944" lon="6.820102">
 <ele>96.0</ele>
 <time>2014-06-06T18:19:45Z</time>
 </trkpt>
 <trkpt lat="51.236309" lon="6.820493">
 <ele>102.0</ele>
 <time>2014-06-06T18:19:51Z</time>
 </trkpt>
 <trkpt lat="51.236625" lon="6.820852">
 <ele>98.0</ele>
 <time>2014-06-06T18:19:57Z</time>
 </trkpt>
 <trkpt lat="51.236833" lon="6.821068">
 <ele>100.0</ele>
 <time>2014-06-06T18:20:01Z</time>
 </trkpt>
 <trkpt lat="51.237172" lon="6.821489">
 <ele>96.0</ele>
 <time>2014-06-06T18:20:08Z</time>
 </trkpt>
 <trkpt lat="51.237508" lon="6.821778">
 <ele>93.0</ele>
 <time>2014-06-06T18:20:14Z</time>
 </trkpt>
 <trkpt lat="51.2377" lon="6.821961">
 <ele>94.0</ele>
 <time>2014-06-06T18:20:18Z</time>
 </trkpt>
 <trkpt lat="51.237864" lon="6.82206">
 <ele>97.0</ele>
 <time>2014-06-06T18:20:21Z</time>
 </trkpt>
 <trkpt lat="51.238111" lon="6.822398">
 <ele>96.0</ele>
 <time>2014-06-06T18:20:27Z</time>
 </trkpt>
 <trkpt lat="51.238446" lon="6.822733">
 <ele>95.0</ele>
 <time>2014-06-06T18:20:33Z</time>
 </trkpt>
 <trkpt lat="51.238716" lon="6.823015">
 <ele>97.0</ele>
 <time>2014-06-06T18:20:38Z</time>
 </trkpt>
 <trkpt lat="51.239033" lon="6.82333">
 <ele>100.0</ele>
 <time>2014-06-06T18:20:44Z</time>
 </trkpt>
 <trkpt lat="51.239337" lon="6.823576">
 <ele>98.0</ele>
 <time>2014-06-06T18:20:49Z</time>
 </trkpt>
 <trkpt lat="51.239681" lon="6.823967">
 <ele>98.0</ele>
 <time>2014-06-06T18:20:55Z</time>
 </trkpt>
 <trkpt lat="51.239859" lon="6.824211">
 <ele>97.0</ele>
 <time>2014-06-06T18:21:00Z</time>
 </trkpt>
 <trkpt lat="51.24004" lon="6.824593">
 <ele>99.0</ele>
 <time>2014-06-06T18:21:06Z</time>
 </trkpt>
 <trkpt lat="51.240347" lon="6.825005">
 <ele>99.0</ele>
 <time>2014-06-06T18:21:12Z</time>
 </trkpt>
 <trkpt lat="51.240565" lon="6.825379">
 <ele>100.0</ele>
 <time>2014-06-06T18:21:17Z</time>
 </trkpt>
 <trkpt lat="51.240797" lon="6.825738">
 <ele>100.0</ele>
 <time>2014-06-06T18:21:23Z</time>
 </trkpt>
 <trkpt lat="51.241084" lon="6.826177">
 <ele>101.0</ele>
 <time>2014-06-06T18:21:29Z</time>
 </trkpt>
 <trkpt lat="51.241297" lon="6.826524">
 <ele>106.0</ele>
 <time>2014-06-06T18:21:34Z</time>
 </trkpt>
 <trkpt lat="51.24149" lon="6.826992">
 <ele>103.0</ele>
 <time>2014-06-06T18:21:41Z</time>
 </trkpt>
 <trkpt lat="51.241582" lon="6.82744">
 <ele>98.0</ele>
 <time>2014-06-06T18:21:46Z</time>
 </trkpt>
 <trkpt lat="51.241381" lon="6.827764">
 <ele>98.0</ele>
 <time>2014-06-06T18:21:53Z</time>
 </trkpt>
 <trkpt lat="51.241173" lon="6.827952">
 <ele>97.0</ele>
 <time>2014-06-06T18:21:59Z</time>
 </trkpt>
 <trkpt lat="51.241012" lon="6.82809">
 <ele>98.0</ele>
 <time>2014-06-06T18:22:03Z</time>
 </trkpt>
 <trkpt lat="51.240698" lon="6.828199">
 <ele>97.0</ele>
 <time>2014-06-06T18:22:08Z</time>
 </trkpt>
 <trkpt lat="51.240388" lon="6.828379">
 <ele>98.0</ele>
 <time>2014-06-06T18:22:13Z</time>
 </trkpt>
 <trkpt lat="51.240045" lon="6.828553">
 <ele>96.0</ele>
 <time>2014-06-06T18:22:19Z</time>
 </trkpt>
 <trkpt lat="51.239659" lon="6.828749">
 <ele>97.0</ele>
 <time>2014-06-06T18:22:25Z</time>
 </trkpt>
 <trkpt lat="51.239251" lon="6.828961">
 <ele>97.0</ele>
 <time>2014-06-06T18:22:31Z</time>
 </trkpt>
 <trkpt lat="51.238993" lon="6.829213">
 <ele>93.0</ele>
 <time>2014-06-06T18:22:37Z</time>
 </trkpt>
 <trkpt lat="51.238666" lon="6.829405">
 <ele>97.0</ele>
 <time>2014-06-06T18:22:43Z</time>
 </trkpt>
 <trkpt lat="51.238239" lon="6.829621">
 <ele>94.0</ele>
 <time>2014-06-06T18:22:50Z</time>
 </trkpt>
 <trkpt lat="51.237895" lon="6.829809">
 <ele>95.0</ele>
 <time>2014-06-06T18:22:56Z</time>
 </trkpt>
 <trkpt lat="51.237704" lon="6.829902">
 <ele>94.0</ele>
 <time>2014-06-06T18:22:59Z</time>
 </trkpt>
 <trkpt lat="51.237437" lon="6.830043">
 <ele>98.0</ele>
 <time>2014-06-06T18:23:03Z</time>
 </trkpt>
 <trkpt lat="51.237102" lon="6.830242">
 <ele>98.0</ele>
 <time>2014-06-06T18:23:08Z</time>
 </trkpt>
 <trkpt lat="51.23675" lon="6.830455">
 <ele>95.0</ele>
 <time>2014-06-06T18:23:14Z</time>
 </trkpt>
 <trkpt lat="51.236412" lon="6.830717">
 <ele>96.0</ele>
 <time>2014-06-06T18:23:20Z</time>
 </trkpt>
 <trkpt lat="51.23616" lon="6.830767">
 <ele>99.0</ele>
 <time>2014-06-06T18:23:24Z</time>
 </trkpt>
 <trkpt lat="51.235843" lon="6.830935">
 <ele>97.0</ele>
 <time>2014-06-06T18:23:29Z</time>
 </trkpt>
 <trkpt lat="51.235532" lon="6.831116">
 <ele>96.0</ele>
 <time>2014-06-06T18:23:34Z</time>
 </trkpt>
 <trkpt lat="51.235237" lon="6.831329">
 <ele>98.0</ele>
 <time>2014-06-06T18:23:39Z</time>
 </trkpt>
 <trkpt lat="51.23482" lon="6.831565">
 <ele>98.0</ele>
 <time>2014-06-06T18:23:46Z</time>
 </trkpt>
 <trkpt lat="51.234522" lon="6.831787">
 <ele>97.0</ele>
 <time>2014-06-06T18:23:52Z</time>
 </trkpt>
 <trkpt lat="51.23418" lon="6.831951">
 <ele>96.0</ele>
 <time>2014-06-06T18:23:57Z</time>
 </trkpt>
 <trkpt lat="51.233804" lon="6.832192">
 <ele>93.0</ele>
 <time>2014-06-06T18:24:04Z</time>
 </trkpt>
 <trkpt lat="51.233444" lon="6.832373">
 <ele>89.0</ele>
 <time>2014-06-06T18:24:10Z</time>
 </trkpt>
 <trkpt lat="51.233048" lon="6.832599">
 <ele>84.0</ele>
 <time>2014-06-06T18:24:16Z</time>
 </trkpt>
 <trkpt lat="51.232689" lon="6.832879">
 <ele>84.0</ele>
 <time>2014-06-06T18:24:22Z</time>
 </trkpt>
 <trkpt lat="51.2323" lon="6.833049">
 <ele>81.0</ele>
 <time>2014-06-06T18:24:28Z</time>
 </trkpt>
 <trkpt lat="51.231994" lon="6.83321">
 <ele>85.0</ele>
 <time>2014-06-06T18:24:33Z</time>
 </trkpt>
 <trkpt lat="51.231661" lon="6.833399">
 <ele>86.0</ele>
 <time>2014-06-06T18:24:38Z</time>
 </trkpt>
 <trkpt lat="51.231306" lon="6.833608">
 <ele>89.0</ele>
 <time>2014-06-06T18:24:44Z</time>
 </trkpt>
 <trkpt lat="51.230805" lon="6.833881">
 <ele>89.0</ele>
 <time>2014-06-06T18:24:52Z</time>
 </trkpt>
 <trkpt lat="51.230411" lon="6.83406">
 <ele>91.0</ele>
 <time>2014-06-06T18:24:58Z</time>
 </trkpt>
 <trkpt lat="51.230019" lon="6.834329">
 <ele>92.0</ele>
 <time>2014-06-06T18:25:04Z</time>
 </trkpt>
 <trkpt lat="51.229748" lon="6.834424">
 <ele>90.0</ele>
 <time>2014-06-06T18:25:09Z</time>
 </trkpt>
 <trkpt lat="51.229407" lon="6.834572">
 <ele>90.0</ele>
 <time>2014-06-06T18:25:14Z</time>
 </trkpt>
 <trkpt lat="51.229032" lon="6.83479">
 <ele>85.0</ele>
 <time>2014-06-06T18:25:20Z</time>
 </trkpt>
 <trkpt lat="51.228761" lon="6.834964">
 <ele>85.0</ele>
 <time>2014-06-06T18:25:25Z</time>
 </trkpt>
 <trkpt lat="51.22847" lon="6.835122">
 <ele>85.0</ele>
 <time>2014-06-06T18:25:30Z</time>
 </trkpt>
 <trkpt lat="51.228119" lon="6.83531">
 <ele>84.0</ele>
 <time>2014-06-06T18:25:36Z</time>
 </trkpt>
 <trkpt lat="51.227831" lon="6.835507">
 <ele>84.0</ele>
 <time>2014-06-06T18:25:42Z</time>
 </trkpt>
 <trkpt lat="51.227564" lon="6.83562">
 <ele>83.0</ele>
 <time>2014-06-06T18:25:47Z</time>
 </trkpt>
 <trkpt lat="51.227369" lon="6.836007">
 <ele>84.0</ele>
 <time>2014-06-06T18:25:54Z</time>
 </trkpt>
 <trkpt lat="51.227362" lon="6.836486">
 <ele>84.0</ele>
 <time>2014-06-06T18:25:59Z</time>
 </trkpt>
 <trkpt lat="51.227436" lon="6.836833">
 <ele>81.0</ele>
 <time>2014-06-06T18:26:04Z</time>
 </trkpt>
 <trkpt lat="51.227445" lon="6.83708">
 <ele>84.0</ele>
 <time>2014-06-06T18:26:09Z</time>
 </trkpt>
 <trkpt lat="51.22745" lon="6.837416">
 <ele>81.0</ele>
 <time>2014-06-06T18:26:18Z</time>
 </trkpt>
 <trkpt lat="51.227529" lon="6.837824">
 <ele>83.0</ele>
 <time>2014-06-06T18:26:26Z</time>
 </trkpt>
 <trkpt lat="51.227573" lon="6.838219">
 <ele>87.0</ele>
 <time>2014-06-06T18:26:35Z</time>
 </trkpt>
 <trkpt lat="51.227592" lon="6.83854">
 <ele>94.0</ele>
 <time>2014-06-06T18:26:44Z</time>
 </trkpt>
 <trkpt lat="51.22762" lon="6.83879">
 <ele>96.0</ele>
 <time>2014-06-06T18:26:54Z</time>
 </trkpt>
 <trkpt lat="51.227655" lon="6.839106">
 <ele>95.0</ele>
 <time>2014-06-06T18:27:08Z</time>
 </trkpt>
 <trkpt lat="51.22766" lon="6.839271">
 <ele>95.0</ele>
 <time>2014-06-06T18:27:16Z</time>
 </trkpt>
 <trkpt lat="51.227711" lon="6.839393">
 <ele>89.0</ele>
 <time>2014-06-06T18:27:34Z</time>
 </trkpt>
 <trkpt lat="51.227662" lon="6.838978">
 <ele>86.0</ele>
 <time>2014-06-06T18:27:41Z</time>
 </trkpt>
 <trkpt lat="51.227626" lon="6.838543">
 <ele>86.0</ele>
 <time>2014-06-06T18:27:48Z</time>
 </trkpt>
 <trkpt lat="51.227575" lon="6.838126">
 <ele>85.0</ele>
 <time>2014-06-06T18:27:54Z</time>
 </trkpt>
 <trkpt lat="51.227579" lon="6.837859">
 <ele>80.0</ele>
 <time>2014-06-06T18:27:59Z</time>
 </trkpt>
 <trkpt lat="51.22746" lon="6.837292">
 <ele>85.0</ele>
 <time>2014-06-06T18:28:07Z</time>
 </trkpt>
 <trkpt lat="51.227439" lon="6.836881">
 <ele>85.0</ele>
 <time>2014-06-06T18:28:12Z</time>
 </trkpt>
 <trkpt lat="51.227412" lon="6.836522">
 <ele>87.0</ele>
 <time>2014-06-06T18:28:17Z</time>
 </trkpt>
 <trkpt lat="51.227371" lon="6.836081">
 <ele>87.0</ele>
 <time>2014-06-06T18:28:22Z</time>
 </trkpt>
 <trkpt lat="51.227442" lon="6.835649">
 <ele>92.0</ele>
 <time>2014-06-06T18:28:29Z</time>
 </trkpt>
 <trkpt lat="51.227651" lon="6.835484">
 <ele>89.0</ele>
 <time>2014-06-06T18:28:34Z</time>
 </trkpt>
 <trkpt lat="51.227892" lon="6.835427">
 <ele>87.0</ele>
 <time>2014-06-06T18:28:39Z</time>
 </trkpt>
 <trkpt lat="51.228126" lon="6.83532">
 <ele>87.0</ele>
 <time>2014-06-06T18:28:45Z</time>
 </trkpt>
 <trkpt lat="51.228488" lon="6.835107">
 <ele>87.0</ele>
 <time>2014-06-06T18:28:54Z</time>
 </trkpt>
 <trkpt lat="51.228775" lon="6.834941">
 <ele>89.0</ele>
 <time>2014-06-06T18:29:00Z</time>
 </trkpt>
 <trkpt lat="51.229193" lon="6.834731">
 <ele>87.0</ele>
 <time>2014-06-06T18:29:06Z</time>
 </trkpt>
 <trkpt lat="51.22978" lon="6.834425">
 <ele>87.0</ele>
 <time>2014-06-06T18:29:15Z</time>
 </trkpt>
 <trkpt lat="51.230117" lon="6.834237">
 <ele>86.0</ele>
 <time>2014-06-06T18:29:20Z</time>
 </trkpt>
 <trkpt lat="51.23048" lon="6.834017">
 <ele>85.0</ele>
 <time>2014-06-06T18:29:25Z</time>
 </trkpt>
 <trkpt lat="51.230944" lon="6.833823">
 <ele>87.0</ele>
 <time>2014-06-06T18:29:31Z</time>
 </trkpt>
 <trkpt lat="51.23137" lon="6.833505">
 <ele>87.0</ele>
 <time>2014-06-06T18:29:38Z</time>
 </trkpt>
 <trkpt lat="51.231778" lon="6.833302">
 <ele>86.0</ele>
 <time>2014-06-06T18:29:44Z</time>
 </trkpt>
 <trkpt lat="51.232056" lon="6.833151">
 <ele>86.0</ele>
 <time>2014-06-06T18:29:48Z</time>
 </trkpt>
 <trkpt lat="51.23242" lon="6.833101">
 <ele>81.0</ele>
 <time>2014-06-06T18:29:53Z</time>
 </trkpt>
 <trkpt lat="51.232782" lon="6.832889">
 <ele>82.0</ele>
 <time>2014-06-06T18:29:58Z</time>
 </trkpt>
 <trkpt lat="51.233091" lon="6.832698">
 <ele>81.0</ele>
 <time>2014-06-06T18:30:04Z</time>
 </trkpt>
 <trkpt lat="51.233409" lon="6.832421">
 <ele>84.0</ele>
 <time>2014-06-06T18:30:10Z</time>
 </trkpt>
 <trkpt lat="51.233768" lon="6.83218">
 <ele>88.0</ele>
 <time>2014-06-06T18:30:16Z</time>
 </trkpt>
 <trkpt lat="51.234159" lon="6.831905">
 <ele>87.0</ele>
 <time>2014-06-06T18:30:22Z</time>
 </trkpt>
 <trkpt lat="51.234525" lon="6.831623">
 <ele>89.0</ele>
 <time>2014-06-06T18:30:28Z</time>
 </trkpt>
 <trkpt lat="51.234861" lon="6.831537">
 <ele>88.0</ele>
 <time>2014-06-06T18:30:34Z</time>
 </trkpt>
 <trkpt lat="51.235165" lon="6.831343">
 <ele>87.0</ele>
 <time>2014-06-06T18:30:39Z</time>
 </trkpt>
 <trkpt lat="51.235517" lon="6.831116">
 <ele>90.0</ele>
 <time>2014-06-06T18:30:45Z</time>
 </trkpt>
 <trkpt lat="51.235759" lon="6.830925">
 <ele>87.0</ele>
 <time>2014-06-06T18:30:51Z</time>
 </trkpt>
 <trkpt lat="51.236108" lon="6.830799">
 <ele>85.0</ele>
 <time>2014-06-06T18:30:57Z</time>
 </trkpt>
 <trkpt lat="51.236422" lon="6.830608">
 <ele>87.0</ele>
 <time>2014-06-06T18:31:02Z</time>
 </trkpt>
 <trkpt lat="51.236776" lon="6.8303">
 <ele>90.0</ele>
 <time>2014-06-06T18:31:08Z</time>
 </trkpt>
 <trkpt lat="51.23736" lon="6.830163">
 <ele>84.0</ele>
 <time>2014-06-06T18:31:15Z</time>
 </trkpt>
 <trkpt lat="51.237736" lon="6.829897">
 <ele>86.0</ele>
 <time>2014-06-06T18:31:21Z</time>
 </trkpt>
 <trkpt lat="51.238118" lon="6.829745">
 <ele>88.0</ele>
 <time>2014-06-06T18:31:27Z</time>
 </trkpt>
 <trkpt lat="51.238473" lon="6.829416">
 <ele>85.0</ele>
 <time>2014-06-06T18:31:33Z</time>
 </trkpt>
 <trkpt lat="51.238821" lon="6.829128">
 <ele>88.0</ele>
 <time>2014-06-06T18:31:39Z</time>
 </trkpt>
 <trkpt lat="51.239109" lon="6.828941">
 <ele>89.0</ele>
 <time>2014-06-06T18:31:44Z</time>
 </trkpt>
 <trkpt lat="51.239555" lon="6.828798">
 <ele>88.0</ele>
 <time>2014-06-06T18:31:50Z</time>
 </trkpt>
 <trkpt lat="51.239899" lon="6.82857">
 <ele>88.0</ele>
 <time>2014-06-06T18:31:55Z</time>
 </trkpt>
 <trkpt lat="51.240233" lon="6.828298">
 <ele>83.0</ele>
 <time>2014-06-06T18:32:00Z</time>
 </trkpt>
 <trkpt lat="51.240577" lon="6.82814">
 <ele>82.0</ele>
 <time>2014-06-06T18:32:05Z</time>
 </trkpt>
 <trkpt lat="51.240959" lon="6.827977">
 <ele>81.0</ele>
 <time>2014-06-06T18:32:11Z</time>
 </trkpt>
 <trkpt lat="51.24128" lon="6.827807">
 <ele>84.0</ele>
 <time>2014-06-06T18:32:16Z</time>
 </trkpt>
 <trkpt lat="51.241784" lon="6.827695">
 <ele>86.0</ele>
 <time>2014-06-06T18:32:23Z</time>
 </trkpt>
 <trkpt lat="51.242136" lon="6.827304">
 <ele>88.0</ele>
 <time>2014-06-06T18:32:29Z</time>
 </trkpt>
 <trkpt lat="51.242387" lon="6.827292">
 <ele>90.0</ele>
 <time>2014-06-06T18:32:34Z</time>
 </trkpt>
 <trkpt lat="51.242607" lon="6.827389">
 <ele>92.0</ele>
 <time>2014-06-06T18:32:40Z</time>
 </trkpt>
 <trkpt lat="51.242848" lon="6.827466">
 <ele>90.0</ele>
 <time>2014-06-06T18:32:46Z</time>
 </trkpt>
 <trkpt lat="51.243098" lon="6.827386">
 <ele>89.0</ele>
 <time>2014-06-06T18:32:51Z</time>
 </trkpt>
 <trkpt lat="51.243393" lon="6.827143">
 <ele>91.0</ele>
 <time>2014-06-06T18:32:57Z</time>
 </trkpt>
 <trkpt lat="51.243679" lon="6.826965">
 <ele>91.0</ele>
 <time>2014-06-06T18:33:02Z</time>
 </trkpt>
 <trkpt lat="51.243842" lon="6.826858">
 <ele>93.0</ele>
 <time>2014-06-06T18:33:05Z</time>
 </trkpt>
 <trkpt lat="51.244167" lon="6.826656">
 <ele>93.0</ele>
 <time>2014-06-06T18:33:11Z</time>
 </trkpt>
 <trkpt lat="51.244386" lon="6.826321">
 <ele>87.0</ele>
 <time>2014-06-06T18:33:17Z</time>
 </trkpt>
 <trkpt lat="51.244606" lon="6.826042">
 <ele>88.0</ele>
 <time>2014-06-06T18:33:22Z</time>
 </trkpt>
 <trkpt lat="51.244873" lon="6.825831">
 <ele>89.0</ele>
 <time>2014-06-06T18:33:27Z</time>
 </trkpt>
 <trkpt lat="51.245238" lon="6.825584">
 <ele>89.0</ele>
 <time>2014-06-06T18:33:33Z</time>
 </trkpt>
 <trkpt lat="51.24553" lon="6.825407">
 <ele>91.0</ele>
 <time>2014-06-06T18:33:38Z</time>
 </trkpt>
 <trkpt lat="51.245908" lon="6.82527">
 <ele>89.0</ele>
 <time>2014-06-06T18:33:44Z</time>
 </trkpt>
 <trkpt lat="51.246115" lon="6.825022">
 <ele>89.0</ele>
 <time>2014-06-06T18:33:49Z</time>
 </trkpt>
 <trkpt lat="51.246393" lon="6.824915">
 <ele>91.0</ele>
 <time>2014-06-06T18:33:53Z</time>
 </trkpt>
 <trkpt lat="51.246794" lon="6.824719">
 <ele>89.0</ele>
 <time>2014-06-06T18:33:58Z</time>
 </trkpt>
 <trkpt lat="51.247256" lon="6.82449">
 <ele>88.0</ele>
 <time>2014-06-06T18:34:04Z</time>
 </trkpt>
 <trkpt lat="51.247695" lon="6.824248">
 <ele>86.0</ele>
 <time>2014-06-06T18:34:10Z</time>
 </trkpt>
 <trkpt lat="51.248057" lon="6.82409">
 <ele>85.0</ele>
 <time>2014-06-06T18:34:15Z</time>
 </trkpt>
 <trkpt lat="51.248471" lon="6.823934">
 <ele>86.0</ele>
 <time>2014-06-06T18:34:21Z</time>
 </trkpt>
 <trkpt lat="51.248836" lon="6.823829">
 <ele>87.0</ele>
 <time>2014-06-06T18:34:27Z</time>
 </trkpt>
 <trkpt lat="51.249086" lon="6.823751">
 <ele>86.0</ele>
 <time>2014-06-06T18:34:31Z</time>
 </trkpt>
 <trkpt lat="51.249422" lon="6.82366">
 <ele>86.0</ele>
 <time>2014-06-06T18:34:36Z</time>
 </trkpt>
 <trkpt lat="51.249805" lon="6.823601">
 <ele>88.0</ele>
 <time>2014-06-06T18:34:42Z</time>
 </trkpt>
 <trkpt lat="51.250187" lon="6.823582">
 <ele>91.0</ele>
 <time>2014-06-06T18:34:48Z</time>
 </trkpt>
 <trkpt lat="51.250545" lon="6.823567">
 <ele>91.0</ele>
 <time>2014-06-06T18:34:54Z</time>
 </trkpt>
 <trkpt lat="51.250877" lon="6.82359">
 <ele>91.0</ele>
 <time>2014-06-06T18:34:59Z</time>
 </trkpt>
 <trkpt lat="51.251189" lon="6.823717">
 <ele>90.0</ele>
 <time>2014-06-06T18:35:06Z</time>
 </trkpt>
 <trkpt lat="51.251293" lon="6.82389">
 <ele>89.0</ele>
 <time>2014-06-06T18:35:14Z</time>
 </trkpt>
 <trkpt lat="51.25151" lon="6.823966">
 <ele>88.0</ele>
 <time>2014-06-06T18:35:23Z</time>
 </trkpt>
 <trkpt lat="51.251691" lon="6.824135">
 <ele>91.0</ele>
 <time>2014-06-06T18:35:28Z</time>
 </trkpt>
 <trkpt lat="51.25197" lon="6.824198">
 <ele>90.0</ele>
 <time>2014-06-06T18:35:34Z</time>
 </trkpt>
 <trkpt lat="51.252172" lon="6.824234">
 <ele>91.0</ele>
 <time>2014-06-06T18:35:38Z</time>
 </trkpt>
 <trkpt lat="51.252458" lon="6.824181">
 <ele>96.0</ele>
 <time>2014-06-06T18:35:44Z</time>
 </trkpt>
 <trkpt lat="51.252714" lon="6.824285">
 <ele>91.0</ele>
 <time>2014-06-06T18:35:49Z</time>
 </trkpt>
 <trkpt lat="51.253" lon="6.824388">
 <ele>92.0</ele>
 <time>2014-06-06T18:35:55Z</time>
 </trkpt>
 <trkpt lat="51.253336" lon="6.82448">
 <ele>94.0</ele>
 <time>2014-06-06T18:36:01Z</time>
 </trkpt>
 <trkpt lat="51.253527" lon="6.8245">
 <ele>95.0</ele>
 <time>2014-06-06T18:36:04Z</time>
 </trkpt>
 <trkpt lat="51.253788" lon="6.824521">
 <ele>96.0</ele>
 <time>2014-06-06T18:36:08Z</time>
 </trkpt>
 <trkpt lat="51.254255" lon="6.824618">
 <ele>96.0</ele>
 <time>2014-06-06T18:36:15Z</time>
 </trkpt>
 <trkpt lat="51.254584" lon="6.824666">
 <ele>98.0</ele>
 <time>2014-06-06T18:36:20Z</time>
 </trkpt>
 <trkpt lat="51.254959" lon="6.824704">
 <ele>99.0</ele>
 <time>2014-06-06T18:36:26Z</time>
 </trkpt>
 <trkpt lat="51.255161" lon="6.824735">
 <ele>100.0</ele>
 <time>2014-06-06T18:36:29Z</time>
 </trkpt>
 <trkpt lat="51.255409" lon="6.824745">
 <ele>98.0</ele>
 <time>2014-06-06T18:36:33Z</time>
 </trkpt>
 <trkpt lat="51.255763" lon="6.824662">
 <ele>97.0</ele>
 <time>2014-06-06T18:36:39Z</time>
 </trkpt>
 <trkpt lat="51.255954" lon="6.82466">
 <ele>96.0</ele>
 <time>2014-06-06T18:36:42Z</time>
 </trkpt>
 <trkpt lat="51.256248" lon="6.824577">
 <ele>95.0</ele>
 <time>2014-06-06T18:36:47Z</time>
 </trkpt>
 <trkpt lat="51.256577" lon="6.824525">
 <ele>94.0</ele>
 <time>2014-06-06T18:36:52Z</time>
 </trkpt>
 <trkpt lat="51.25679" lon="6.824447">
 <ele>94.0</ele>
 <time>2014-06-06T18:36:55Z</time>
 </trkpt>
 <trkpt lat="51.257185" lon="6.824268">
 <ele>92.0</ele>
 <time>2014-06-06T18:37:01Z</time>
 </trkpt>
 <trkpt lat="51.257537" lon="6.824174">
 <ele>89.0</ele>
 <time>2014-06-06T18:37:06Z</time>
 </trkpt>
 <trkpt lat="51.257951" lon="6.823905">
 <ele>90.0</ele>
 <time>2014-06-06T18:37:12Z</time>
 </trkpt>
 <trkpt lat="51.258271" lon="6.823686">
 <ele>91.0</ele>
 <time>2014-06-06T18:37:17Z</time>
 </trkpt>
 <trkpt lat="51.258643" lon="6.823489">
 <ele>90.0</ele>
 <time>2014-06-06T18:37:22Z</time>
 </trkpt>
 <trkpt lat="51.258986" lon="6.823475">
 <ele>95.0</ele>
 <time>2014-06-06T18:37:27Z</time>
 </trkpt>
 <trkpt lat="51.259358" lon="6.823375">
 <ele>95.0</ele>
 <time>2014-06-06T18:37:32Z</time>
 </trkpt>
 <trkpt lat="51.259753" lon="6.823388">
 <ele>93.0</ele>
 <time>2014-06-06T18:37:38Z</time>
 </trkpt>
 <trkpt lat="51.260112" lon="6.823555">
 <ele>95.0</ele>
 <time>2014-06-06T18:37:45Z</time>
 </trkpt>
 <trkpt lat="51.260286" lon="6.823643">
 <ele>94.0</ele>
 <time>2014-06-06T18:37:51Z</time>
 </trkpt>
 <trkpt lat="51.260462" lon="6.823737">
 <ele>95.0</ele>
 <time>2014-06-06T18:37:57Z</time>
 </trkpt>
 <trkpt lat="51.26064" lon="6.823927">
 <ele>98.0</ele>
 <time>2014-06-06T18:38:05Z</time>
 </trkpt>
 <trkpt lat="51.260868" lon="6.824154">
 <ele>102.0</ele>
 <time>2014-06-06T18:38:14Z</time>
 </trkpt>
 <trkpt lat="51.261244" lon="6.824423">
 <ele>102.0</ele>
 <time>2014-06-06T18:38:23Z</time>
 </trkpt>
 <trkpt lat="51.261485" lon="6.824589">
 <ele>101.0</ele>
 <time>2014-06-06T18:38:28Z</time>
 </trkpt>
 <trkpt lat="51.261767" lon="6.824773">
 <ele>99.0</ele>
 <time>2014-06-06T18:38:34Z</time>
 </trkpt>
 <trkpt lat="51.262086" lon="6.82501">
 <ele>101.0</ele>
 <time>2014-06-06T18:38:40Z</time>
 </trkpt>
 <trkpt lat="51.262374" lon="6.825303">
 <ele>100.0</ele>
 <time>2014-06-06T18:38:46Z</time>
 </trkpt>
 <trkpt lat="51.262745" lon="6.825556">
 <ele>98.0</ele>
 <time>2014-06-06T18:38:52Z</time>
 </trkpt>
 <trkpt lat="51.263029" lon="6.825775">
 <ele>96.0</ele>
 <time>2014-06-06T18:38:57Z</time>
 </trkpt>
 <trkpt lat="51.263207" lon="6.825905">
 <ele>97.0</ele>
 <time>2014-06-06T18:39:00Z</time>
 </trkpt>
 <trkpt lat="51.263603" lon="6.826156">
 <ele>101.0</ele>
 <time>2014-06-06T18:39:06Z</time>
 </trkpt>
 <trkpt lat="51.263885" lon="6.826338">
 <ele>99.0</ele>
 <time>2014-06-06T18:39:11Z</time>
 </trkpt>
 <trkpt lat="51.264213" lon="6.826483">
 <ele>99.0</ele>
 <time>2014-06-06T18:39:17Z</time>
 </trkpt>
 <trkpt lat="51.26458" lon="6.826583">
 <ele>103.0</ele>
 <time>2014-06-06T18:39:23Z</time>
 </trkpt>
 <trkpt lat="51.264871" lon="6.826829">
 <ele>104.0</ele>
 <time>2014-06-06T18:39:29Z</time>
 </trkpt>
 <trkpt lat="51.265117" lon="6.827005">
 <ele>104.0</ele>
 <time>2014-06-06T18:39:34Z</time>
 </trkpt>
 <trkpt lat="51.265538" lon="6.827254">
 <ele>98.0</ele>
 <time>2014-06-06T18:39:40Z</time>
 </trkpt>
 <trkpt lat="51.265737" lon="6.827625">
 <ele>97.0</ele>
 <time>2014-06-06T18:39:46Z</time>
 </trkpt>
 <trkpt lat="51.265831" lon="6.827868">
 <ele>96.0</ele>
 <time>2014-06-06T18:39:53Z</time>
 </trkpt>
 <trkpt lat="51.266094" lon="6.82787">
 <ele>95.0</ele>
 <time>2014-06-06T18:39:59Z</time>
 </trkpt>
 <trkpt lat="51.266378" lon="6.82787">
 <ele>96.0</ele>
 <time>2014-06-06T18:40:05Z</time>
 </trkpt>
 <trkpt lat="51.266459" lon="6.828139">
 <ele>96.0</ele>
 <time>2014-06-06T18:40:11Z</time>
 </trkpt>
 <trkpt lat="51.266492" lon="6.828447">
 <ele>96.0</ele>
 <time>2014-06-06T18:40:17Z</time>
 </trkpt>
 <trkpt lat="51.266555" lon="6.828687">
 <ele>99.0</ele>
 <time>2014-06-06T18:40:23Z</time>
 </trkpt>
 <trkpt lat="51.266635" lon="6.82897">
 <ele>101.0</ele>
 <time>2014-06-06T18:40:29Z</time>
 </trkpt>
 <trkpt lat="51.266685" lon="6.829283">
 <ele>100.0</ele>
 <time>2014-06-06T18:40:35Z</time>
 </trkpt>
 <trkpt lat="51.266761" lon="6.829481">
 <ele>100.0</ele>
 <time>2014-06-06T18:40:40Z</time>
 </trkpt>
 <trkpt lat="51.266901" lon="6.829752">
 <ele>105.0</ele>
 <time>2014-06-06T18:40:49Z</time>
 </trkpt>
 <trkpt lat="51.267074" lon="6.830124">
 <ele>106.0</ele>
 <time>2014-06-06T18:41:02Z</time>
 </trkpt>
 <trkpt lat="51.267401" lon="6.830639">
 <ele>107.0</ele>
 <time>2014-06-06T18:41:12Z</time>
 </trkpt>
 <trkpt lat="51.267662" lon="6.831016">
 <ele>110.0</ele>
 <time>2014-06-06T18:41:19Z</time>
 </trkpt>
 <trkpt lat="51.267813" lon="6.831335">
 <ele>111.0</ele>
 <time>2014-06-06T18:41:24Z</time>
 </trkpt>
 <trkpt lat="51.268" lon="6.83171">
 <ele>110.0</ele>
 <time>2014-06-06T18:41:30Z</time>
 </trkpt>
 <trkpt lat="51.268139" lon="6.831935">
 <ele>111.0</ele>
 <time>2014-06-06T18:41:35Z</time>
 </trkpt>
 <trkpt lat="51.26816" lon="6.832251">
 <ele>107.0</ele>
 <time>2014-06-06T18:41:42Z</time>
 </trkpt>
 <trkpt lat="51.268186" lon="6.832696">
 <ele>101.0</ele>
 <time>2014-06-06T18:41:50Z</time>
 </trkpt>
 <trkpt lat="51.26818" lon="6.832895">
 <ele>104.0</ele>
 <time>2014-06-06T18:41:55Z</time>
 </trkpt>
 <trkpt lat="51.268155" lon="6.833121">
 <ele>105.0</ele>
 <time>2014-06-06T18:42:01Z</time>
 </trkpt>
 <trkpt lat="51.26809" lon="6.833315">
 <ele>104.0</ele>
 <time>2014-06-06T18:42:06Z</time>
 </trkpt>
 <trkpt lat="51.268152" lon="6.833648">
 <ele>109.0</ele>
 <time>2014-06-06T18:42:15Z</time>
 </trkpt>
 <trkpt lat="51.268148" lon="6.833833">
 <ele>112.0</ele>
 <time>2014-06-06T18:42:20Z</time>
 </trkpt>
 <trkpt lat="51.26811" lon="6.834208">
 <ele>117.0</ele>
 <time>2014-06-06T18:42:29Z</time>
 </trkpt>
 <trkpt lat="51.268094" lon="6.83447">
 <ele>119.0</ele>
 <time>2014-06-06T18:42:35Z</time>
 </trkpt>
 <trkpt lat="51.268087" lon="6.834701">
 <ele>123.0</ele>
 <time>2014-06-06T18:42:43Z</time>
 </trkpt>
 <trkpt lat="51.268091" lon="6.834973">
 <ele>124.0</ele>
 <time>2014-06-06T18:42:52Z</time>
 </trkpt>
 <trkpt lat="51.268049" lon="6.835275">
 <ele>127.0</ele>
 <time>2014-06-06T18:43:01Z</time>
 </trkpt>
 <trkpt lat="51.268085" lon="6.835466">
 <ele>128.0</ele>
 <time>2014-06-06T18:43:07Z</time>
 </trkpt>
 <trkpt lat="51.268072" lon="6.8358">
 <ele>121.0</ele>
 <time>2014-06-06T18:43:17Z</time>
 </trkpt>
 <trkpt lat="51.268045" lon="6.83615">
 <ele>123.0</ele>
 <time>2014-06-06T18:43:26Z</time>
 </trkpt>
 <trkpt lat="51.267929" lon="6.836508">
 <ele>122.0</ele>
 <time>2014-06-06T18:43:35Z</time>
 </trkpt>
 <trkpt lat="51.267884" lon="6.836836">
 <ele>127.0</ele>
 <time>2014-06-06T18:43:43Z</time>
 </trkpt>
 <trkpt lat="51.267723" lon="6.83706">
 <ele>128.0</ele>
 <time>2014-06-06T18:43:53Z</time>
 </trkpt>
 <trkpt lat="51.267544" lon="6.837287">
 <ele>125.0</ele>
 <time>2014-06-06T18:44:06Z</time>
 </trkpt>
 <trkpt lat="51.267317" lon="6.837627">
 <ele>121.0</ele>
 <time>2014-06-06T18:44:17Z</time>
 </trkpt>
 <trkpt lat="51.267203" lon="6.837858">
 <ele>121.0</ele>
 <time>2014-06-06T18:44:24Z</time>
 </trkpt>
 <trkpt lat="51.267118" lon="6.83824">
 <ele>128.0</ele>
 <time>2014-06-06T18:44:34Z</time>
 </trkpt>
 <trkpt lat="51.266942" lon="6.838607">
 <ele>130.0</ele>
 <time>2014-06-06T18:44:45Z</time>
 </trkpt>
 <trkpt lat="51.266846" lon="6.838849">
 <ele>133.0</ele>
 <time>2014-06-06T18:44:52Z</time>
 </trkpt>
 <trkpt lat="51.266754" lon="6.839167">
 <ele>140.0</ele>
 <time>2014-06-06T18:45:02Z</time>
 </trkpt>
 <trkpt lat="51.266688" lon="6.83944">
 <ele>147.0</ele>
 <time>2014-06-06T18:45:12Z</time>
 </trkpt>
 <trkpt lat="51.266581" lon="6.839708">
 <ele>149.0</ele>
 <time>2014-06-06T18:45:21Z</time>
 </trkpt>
 <trkpt lat="51.266459" lon="6.839905">
 <ele>149.0</ele>
 <time>2014-06-06T18:45:28Z</time>
 </trkpt>
 <trkpt lat="51.26627" lon="6.840148">
 <ele>148.0</ele>
 <time>2014-06-06T18:45:38Z</time>
 </trkpt>
 <trkpt lat="51.266115" lon="6.840407">
 <ele>148.0</ele>
 <time>2014-06-06T18:45:48Z</time>
 </trkpt>
 <trkpt lat="51.265952" lon="6.840662">
 <ele>147.0</ele>
 <time>2014-06-06T18:45:58Z</time>
 </trkpt>
 <trkpt lat="51.265884" lon="6.84092">
 <ele>150.0</ele>
 <time>2014-06-06T18:46:04Z</time>
 </trkpt>
 <trkpt lat="51.265723" lon="6.841221">
 <ele>154.0</ele>
 <time>2014-06-06T18:46:11Z</time>
 </trkpt>
 <trkpt lat="51.265586" lon="6.84144">
 <ele>151.0</ele>
 <time>2014-06-06T18:46:16Z</time>
 </trkpt>
 <trkpt lat="51.265394" lon="6.841783">
 <ele>147.0</ele>
 <time>2014-06-06T18:46:22Z</time>
 </trkpt>
 <trkpt lat="51.26518" lon="6.842177">
 <ele>143.0</ele>
 <time>2014-06-06T18:46:28Z</time>
 </trkpt>
 <trkpt lat="51.264992" lon="6.84253">
 <ele>146.0</ele>
 <time>2014-06-06T18:46:34Z</time>
 </trkpt>
 <trkpt lat="51.264765" lon="6.842847">
 <ele>149.0</ele>
 <time>2014-06-06T18:46:40Z</time>
 </trkpt>
 <trkpt lat="51.264478" lon="6.843316">
 <ele>149.0</ele>
 <time>2014-06-06T18:46:46Z</time>
 </trkpt>
 <trkpt lat="51.264252" lon="6.843679">
 <ele>156.0</ele>
 <time>2014-06-06T18:46:52Z</time>
 </trkpt>
 <trkpt lat="51.264016" lon="6.843974">
 <ele>160.0</ele>
 <time>2014-06-06T18:46:58Z</time>
 </trkpt>
 <trkpt lat="51.263877" lon="6.844205">
 <ele>161.0</ele>
 <time>2014-06-06T18:47:03Z</time>
 </trkpt>
 <trkpt lat="51.263698" lon="6.844473">
 <ele>155.0</ele>
 <time>2014-06-06T18:47:09Z</time>
 </trkpt>
 <trkpt lat="51.263485" lon="6.844803">
 <ele>158.0</ele>
 <time>2014-06-06T18:47:15Z</time>
 </trkpt>
 <trkpt lat="51.263271" lon="6.845108">
 <ele>158.0</ele>
 <time>2014-06-06T18:47:21Z</time>
 </trkpt>
 <trkpt lat="51.263147" lon="6.845372">
 <ele>158.0</ele>
 <time>2014-06-06T18:47:26Z</time>
 </trkpt>
 <trkpt lat="51.263167" lon="6.845652">
 <ele>159.0</ele>
 <time>2014-06-06T18:47:32Z</time>
 </trkpt>
 <trkpt lat="51.263103" lon="6.84586">
 <ele>162.0</ele>
 <time>2014-06-06T18:47:39Z</time>
 </trkpt>
 <trkpt lat="51.263095" lon="6.845894">
 <ele>160.0</ele>
 <time>2014-06-06T18:47:40Z</time>
 </trkpt>
 <trkpt lat="51.263095" lon="6.845894">
 <time>2014-06-06T18:47:47Z</time>
 </trkpt>
 </trkseg>
 <trkseg>
 <trkpt lat="51.263095" lon="6.845894">
 <time>2014-06-06T18:47:57Z</time>
 </trkpt>
 <trkpt lat="51.263258" lon="6.845544">
 <ele>157.0</ele>
 <time>2014-06-06T18:47:57Z</time>
 </trkpt>
 <trkpt lat="51.263258" lon="6.845544">
 <ele>157.0</ele>
 <time>2014-06-06T18:48:05Z</time>
 </trkpt>
 <trkpt lat="51.263258" lon="6.845544">
 <time>2014-06-06T18:48:05Z</time>
 </trkpt>
 </trkseg>
 <trkseg>
 <trkpt lat="51.263258" lon="6.845544">
 <time>2014-06-06T18:49:50Z</time>
 </trkpt>
 <trkpt lat="51.263444" lon="6.845563">
 <ele>155.0</ele>
 <time>2014-06-06T18:49:50Z</time>
 </trkpt>
 <trkpt lat="51.263617" lon="6.845699">
 <ele>155.0</ele>
 <time>2014-06-06T18:49:56Z</time>
 </trkpt>
 <trkpt lat="51.263938" lon="6.845953">
 <ele>156.0</ele>
 <time>2014-06-06T18:50:03Z</time>
 </trkpt>
 <trkpt lat="51.264124" lon="6.846224">
 <ele>156.0</ele>
 <time>2014-06-06T18:50:08Z</time>
 </trkpt>
 <trkpt lat="51.264381" lon="6.846488">
 <ele>157.0</ele>
 <time>2014-06-06T18:50:14Z</time>
 </trkpt>
 <trkpt lat="51.264631" lon="6.84673">
 <ele>157.0</ele>
 <time>2014-06-06T18:50:19Z</time>
 </trkpt>
 <trkpt lat="51.264756" lon="6.847113">
 <ele>157.0</ele>
 <time>2014-06-06T18:50:26Z</time>
 </trkpt>
 <trkpt lat="51.264837" lon="6.847478">
 <ele>156.0</ele>
 <time>2014-06-06T18:50:31Z</time>
 </trkpt>
 <trkpt lat="51.264932" lon="6.847682">
 <ele>153.0</ele>
 <time>2014-06-06T18:50:36Z</time>
 </trkpt>
 <trkpt lat="51.265276" lon="6.847695">
 <ele>154.0</ele>
 <time>2014-06-06T18:50:41Z</time>
 </trkpt>
 <trkpt lat="51.265725" lon="6.848009">
 <ele>160.0</ele>
 <time>2014-06-06T18:50:47Z</time>
 </trkpt>
 <trkpt lat="51.2659" lon="6.848164">
 <ele>161.0</ele>
 <time>2014-06-06T18:50:50Z</time>
 </trkpt>
 <trkpt lat="51.266071" lon="6.848453">
 <ele>156.0</ele>
 <time>2014-06-06T18:50:54Z</time>
 </trkpt>
 <trkpt lat="51.266348" lon="6.848645">
 <ele>153.0</ele>
 <time>2014-06-06T18:51:00Z</time>
 </trkpt>
 <trkpt lat="51.2666" lon="6.848866">
 <ele>152.0</ele>
 <time>2014-06-06T18:51:05Z</time>
 </trkpt>
 <trkpt lat="51.266832" lon="6.849015">
 <ele>149.0</ele>
 <time>2014-06-06T18:51:09Z</time>
 </trkpt>
 <trkpt lat="51.267173" lon="6.848967">
 <ele>147.0</ele>
 <time>2014-06-06T18:51:14Z</time>
 </trkpt>
 <trkpt lat="51.26756" lon="6.848754">
 <ele>145.0</ele>
 <time>2014-06-06T18:51:20Z</time>
 </trkpt>
 <trkpt lat="51.267755" lon="6.848644">
 <ele>143.0</ele>
 <time>2014-06-06T18:51:23Z</time>
 </trkpt>
 <trkpt lat="51.268278" lon="6.848285">
 <ele>152.0</ele>
 <time>2014-06-06T18:51:29Z</time>
 </trkpt>
 <trkpt lat="51.268672" lon="6.848063">
 <ele>147.0</ele>
 <time>2014-06-06T18:51:35Z</time>
 </trkpt>
 <trkpt lat="51.269049" lon="6.847943">
 <ele>144.0</ele>
 <time>2014-06-06T18:51:41Z</time>
 </trkpt>
 <trkpt lat="51.269514" lon="6.847981">
 <ele>144.0</ele>
 <time>2014-06-06T18:51:46Z</time>
 </trkpt>
 <trkpt lat="51.270211" lon="6.848165">
 <ele>142.0</ele>
 <time>2014-06-06T18:51:53Z</time>
 </trkpt>
 <trkpt lat="51.270838" lon="6.848363">
 <ele>138.0</ele>
 <time>2014-06-06T18:51:59Z</time>
 </trkpt>
 <trkpt lat="51.271416" lon="6.848302">
 <ele>136.0</ele>
 <time>2014-06-06T18:52:04Z</time>
 </trkpt>
 <trkpt lat="51.272191" lon="6.848038">
 <ele>134.0</ele>
 <time>2014-06-06T18:52:10Z</time>
 </trkpt>
 <trkpt lat="51.272982" lon="6.847801">
 <ele>126.0</ele>
 <time>2014-06-06T18:52:17Z</time>
 </trkpt>
 <trkpt lat="51.273671" lon="6.847463">
 <ele>123.0</ele>
 <time>2014-06-06T18:52:23Z</time>
 </trkpt>
 <trkpt lat="51.274048" lon="6.84707">
 <ele>121.0</ele>
 <time>2014-06-06T18:52:29Z</time>
 </trkpt>
 <trkpt lat="51.274662" lon="6.846951">
 <ele>116.0</ele>
 <time>2014-06-06T18:52:36Z</time>
 </trkpt>
 <trkpt lat="51.275134" lon="6.846635">
 <ele>117.0</ele>
 <time>2014-06-06T18:52:43Z</time>
 </trkpt>
 <trkpt lat="51.275164" lon="6.84618">
 <ele>109.0</ele>
 <time>2014-06-06T18:52:49Z</time>
 </trkpt>
 <trkpt lat="51.275246" lon="6.845731">
 <ele>111.0</ele>
 <time>2014-06-06T18:52:59Z</time>
 </trkpt>
 <trkpt lat="51.275263" lon="6.845357">
 <ele>116.0</ele>
 <time>2014-06-06T18:53:06Z</time>
 </trkpt>
 <trkpt lat="51.275149" lon="6.845113">
 <ele>118.0</ele>
 <time>2014-06-06T18:53:11Z</time>
 </trkpt>
 <trkpt lat="51.275128" lon="6.844908">
 <ele>117.0</ele>
 <time>2014-06-06T18:53:17Z</time>
 </trkpt>
 <trkpt lat="51.275038" lon="6.844398">
 <ele>117.0</ele>
 <time>2014-06-06T18:53:27Z</time>
 </trkpt>
 <trkpt lat="51.275015" lon="6.844191">
 <ele>117.0</ele>
 <time>2014-06-06T18:53:32Z</time>
 </trkpt>
 <trkpt lat="51.274938" lon="6.843855">
 <ele>114.0</ele>
 <time>2014-06-06T18:53:39Z</time>
 </trkpt>
 <trkpt lat="51.274937" lon="6.843523">
 <ele>106.0</ele>
 <time>2014-06-06T18:53:45Z</time>
 </trkpt>
 <trkpt lat="51.274789" lon="6.842908">
 <ele>103.0</ele>
 <time>2014-06-06T18:53:53Z</time>
 </trkpt>
 <trkpt lat="51.274676" lon="6.842514">
 <ele>101.0</ele>
 <time>2014-06-06T18:53:59Z</time>
 </trkpt>
 <trkpt lat="51.274457" lon="6.842054">
 <ele>105.0</ele>
 <time>2014-06-06T18:54:04Z</time>
 </trkpt>
 <trkpt lat="51.274296" lon="6.841135">
 <ele>97.0</ele>
 <time>2014-06-06T18:54:11Z</time>
 </trkpt>
 <trkpt lat="51.274352" lon="6.840495">
 <ele>94.0</ele>
 <time>2014-06-06T18:54:17Z</time>
 </trkpt>
 <trkpt lat="51.274442" lon="6.839401">
 <ele>78.0</ele>
 <time>2014-06-06T18:54:23Z</time>
 </trkpt>
 <trkpt lat="51.274369" lon="6.838512">
 <ele>73.0</ele>
 <time>2014-06-06T18:54:29Z</time>
 </trkpt>
 <trkpt lat="51.274043" lon="6.836393">
 <ele>72.0</ele>
 <time>2014-06-06T18:54:40Z</time>
 </trkpt>
 <trkpt lat="51.273874" lon="6.835252">
 <ele>75.0</ele>
 <time>2014-06-06T18:54:51Z</time>
 </trkpt>
 <trkpt lat="51.27387" lon="6.834644">
 <ele>89.0</ele>
 <time>2014-06-06T18:54:56Z</time>
 </trkpt>
 <trkpt lat="51.27387" lon="6.834644">
 <ele>89.0</ele>
 <time>2014-06-06T18:55:02Z</time>
 </trkpt>
 <trkpt lat="51.27387" lon="6.834644">
 <time>2014-06-06T18:55:02Z</time>
 </trkpt>
 </trkseg>
 <trkseg>
 <trkpt lat="51.27387" lon="6.834644">
 <time>2014-06-06T18:55:08Z</time>
 </trkpt>
 <trkpt lat="51.273984" lon="6.834714">
 <ele>87.0</ele>
 <time>2014-06-06T18:55:08Z</time>
 </trkpt>
 <trkpt lat="51.274503" lon="6.834724">
 <ele>88.0</ele>
 <time>2014-06-06T18:55:25Z</time>
 </trkpt>
 <trkpt lat="51.274824" lon="6.834775">
 <ele>95.0</ele>
 <time>2014-06-06T18:55:30Z</time>
 </trkpt>
 <trkpt lat="51.275165" lon="6.834891">
 <ele>92.0</ele>
 <time>2014-06-06T18:55:35Z</time>
 </trkpt>
 <trkpt lat="51.275483" lon="6.835057">
 <ele>92.0</ele>
 <time>2014-06-06T18:55:40Z</time>
 </trkpt>
 <trkpt lat="51.275844" lon="6.835419">
 <ele>89.0</ele>
 <time>2014-06-06T18:55:46Z</time>
 </trkpt>
 <trkpt lat="51.276264" lon="6.835708">
 <ele>89.0</ele>
 <time>2014-06-06T18:55:52Z</time>
 </trkpt>
 <trkpt lat="51.276656" lon="6.83582">
 <ele>90.0</ele>
 <time>2014-06-06T18:55:57Z</time>
 </trkpt>
 <trkpt lat="51.277303" lon="6.835684">
 <ele>91.0</ele>
 <time>2014-06-06T18:56:04Z</time>
 </trkpt>
 <trkpt lat="51.277672" lon="6.835321">
 <ele>87.0</ele>
 <time>2014-06-06T18:56:09Z</time>
 </trkpt>
 <trkpt lat="51.278138" lon="6.834877">
 <ele>84.0</ele>
 <time>2014-06-06T18:56:15Z</time>
 </trkpt>
 <trkpt lat="51.278568" lon="6.834596">
 <ele>84.0</ele>
 <time>2014-06-06T18:56:21Z</time>
 </trkpt>
 <trkpt lat="51.27902" lon="6.834595">
 <ele>88.0</ele>
 <time>2014-06-06T18:56:27Z</time>
 </trkpt>
 <trkpt lat="51.279368" lon="6.834776">
 <ele>87.0</ele>
 <time>2014-06-06T18:56:32Z</time>
 </trkpt>
 <trkpt lat="51.279785" lon="6.835185">
 <ele>88.0</ele>
 <time>2014-06-06T18:56:39Z</time>
 </trkpt>
 <trkpt lat="51.280123" lon="6.835299">
 <ele>87.0</ele>
 <time>2014-06-06T18:56:44Z</time>
 </trkpt>
 <trkpt lat="51.280432" lon="6.835426">
 <ele>87.0</ele>
 <time>2014-06-06T18:56:49Z</time>
 </trkpt>
 <trkpt lat="51.280785" lon="6.835605">
 <ele>85.0</ele>
 <time>2014-06-06T18:56:54Z</time>
 </trkpt>
 <trkpt lat="51.281172" lon="6.835808">
 <ele>85.0</ele>
 <time>2014-06-06T18:57:00Z</time>
 </trkpt>
 <trkpt lat="51.281359" lon="6.835912">
 <ele>84.0</ele>
 <time>2014-06-06T18:57:03Z</time>
 </trkpt>
 <trkpt lat="51.281537" lon="6.83607">
 <ele>84.0</ele>
 <time>2014-06-06T18:57:06Z</time>
 </trkpt>
 <trkpt lat="51.281709" lon="6.836251">
 <ele>77.0</ele>
 <time>2014-06-06T18:57:11Z</time>
 </trkpt>
 <trkpt lat="51.28204" lon="6.836399">
 <ele>75.0</ele>
 <time>2014-06-06T18:57:17Z</time>
 </trkpt>
 <trkpt lat="51.282314" lon="6.836573">
 <ele>74.0</ele>
 <time>2014-06-06T18:57:22Z</time>
 </trkpt>
 <trkpt lat="51.282559" lon="6.836794">
 <ele>71.0</ele>
 <time>2014-06-06T18:57:27Z</time>
 </trkpt>
 <trkpt lat="51.282975" lon="6.837041">
 <ele>68.0</ele>
 <time>2014-06-06T18:57:34Z</time>
 </trkpt>
 <trkpt lat="51.283264" lon="6.83723">
 <ele>68.0</ele>
 <time>2014-06-06T18:57:39Z</time>
 </trkpt>
 <trkpt lat="51.283574" lon="6.837552">
 <ele>67.0</ele>
 <time>2014-06-06T18:57:45Z</time>
 </trkpt>
 <trkpt lat="51.284003" lon="6.837611">
 <ele>76.0</ele>
 <time>2014-06-06T18:57:51Z</time>
 </trkpt>
 <trkpt lat="51.284294" lon="6.838001">
 <ele>79.0</ele>
 <time>2014-06-06T18:57:57Z</time>
 </trkpt>
 <trkpt lat="51.284511" lon="6.838345">
 <ele>83.0</ele>
 <time>2014-06-06T18:58:02Z</time>
 </trkpt>
 <trkpt lat="51.284841" lon="6.838667">
 <ele>88.0</ele>
 <time>2014-06-06T18:58:09Z</time>
 </trkpt>
 <trkpt lat="51.285085" lon="6.838942">
 <ele>84.0</ele>
 <time>2014-06-06T18:58:15Z</time>
 </trkpt>
 <trkpt lat="51.285348" lon="6.839237">
 <ele>80.0</ele>
 <time>2014-06-06T18:58:21Z</time>
 </trkpt>
 <trkpt lat="51.285616" lon="6.839423">
 <ele>78.0</ele>
 <time>2014-06-06T18:58:27Z</time>
 </trkpt>
 <trkpt lat="51.285805" lon="6.839517">
 <ele>83.0</ele>
 <time>2014-06-06T18:58:33Z</time>
 </trkpt>
 <trkpt lat="51.286027" lon="6.839558">
 <ele>86.0</ele>
 <time>2014-06-06T18:58:39Z</time>
 </trkpt>
 <trkpt lat="51.28633" lon="6.839576">
 <ele>89.0</ele>
 <time>2014-06-06T18:58:46Z</time>
 </trkpt>
 <trkpt lat="51.28661" lon="6.83959">
 <ele>90.0</ele>
 <time>2014-06-06T18:58:51Z</time>
 </trkpt>
 <trkpt lat="51.286794" lon="6.839574">
 <ele>97.0</ele>
 <time>2014-06-06T18:58:56Z</time>
 </trkpt>
 <trkpt lat="51.28702" lon="6.839523">
 <ele>89.0</ele>
 <time>2014-06-06T18:59:02Z</time>
 </trkpt>
 <trkpt lat="51.287163" lon="6.839507">
 <ele>86.0</ele>
 <time>2014-06-06T18:59:07Z</time>
 </trkpt>
 <trkpt lat="51.287567" lon="6.839699">
 <ele>91.0</ele>
 <time>2014-06-06T18:59:16Z</time>
 </trkpt>
 <trkpt lat="51.287983" lon="6.839748">
 <ele>86.0</ele>
 <time>2014-06-06T18:59:23Z</time>
 </trkpt>
 <trkpt lat="51.288336" lon="6.839674">
 <ele>82.0</ele>
 <time>2014-06-06T18:59:28Z</time>
 </trkpt>
 <trkpt lat="51.288827" lon="6.839607">
 <ele>82.0</ele>
 <time>2014-06-06T18:59:35Z</time>
 </trkpt>
 <trkpt lat="51.289263" lon="6.8396">
 <ele>82.0</ele>
 <time>2014-06-06T18:59:41Z</time>
 </trkpt>
 <trkpt lat="51.289706" lon="6.839434">
 <ele>81.0</ele>
 <time>2014-06-06T18:59:47Z</time>
 </trkpt>
 <trkpt lat="51.289985" lon="6.839337">
 <ele>81.0</ele>
 <time>2014-06-06T18:59:53Z</time>
 </trkpt>
 <trkpt lat="51.290269" lon="6.839336">
 <ele>86.0</ele>
 <time>2014-06-06T18:59:59Z</time>
 </trkpt>
 <trkpt lat="51.290489" lon="6.839642">
 <ele>88.0</ele>
 <time>2014-06-06T19:00:06Z</time>
 </trkpt>
 <trkpt lat="51.290785" lon="6.839905">
 <ele>88.0</ele>
 <time>2014-06-06T19:00:14Z</time>
 </trkpt>
 <trkpt lat="51.291117" lon="6.840012">
 <ele>92.0</ele>
 <time>2014-06-06T19:00:25Z</time>
 </trkpt>
 <trkpt lat="51.291499" lon="6.840388">
 <ele>94.0</ele>
 <time>2014-06-06T19:00:31Z</time>
 </trkpt>
 <trkpt lat="51.291798" lon="6.840966">
 <ele>97.0</ele>
 <time>2014-06-06T19:00:39Z</time>
 </trkpt>
 <trkpt lat="51.292048" lon="6.841228">
 <ele>102.0</ele>
 <time>2014-06-06T19:00:45Z</time>
 </trkpt>
 <trkpt lat="51.292392" lon="6.841355">
 <ele>100.0</ele>
 <time>2014-06-06T19:00:51Z</time>
 </trkpt>
 <trkpt lat="51.292717" lon="6.841602">
 <ele>98.0</ele>
 <time>2014-06-06T19:00:57Z</time>
 </trkpt>
 <trkpt lat="51.292992" lon="6.841875">
 <ele>97.0</ele>
 <time>2014-06-06T19:01:02Z</time>
 </trkpt>
 <trkpt lat="51.293265" lon="6.842246">
 <ele>100.0</ele>
 <time>2014-06-06T19:01:08Z</time>
 </trkpt>
 <trkpt lat="51.293488" lon="6.842655">
 <ele>101.0</ele>
 <time>2014-06-06T19:01:13Z</time>
 </trkpt>
 <trkpt lat="51.29374" lon="6.843128">
 <ele>100.0</ele>
 <time>2014-06-06T19:01:19Z</time>
 </trkpt>
 <trkpt lat="51.293867" lon="6.843127">
 <ele>98.0</ele>
 <time>2014-06-06T19:01:24Z</time>
 </trkpt>
 <trkpt lat="51.294125" lon="6.84277">
 <ele>96.0</ele>
 <time>2014-06-06T19:01:29Z</time>
 </trkpt>
 <trkpt lat="51.294424" lon="6.842459">
 <ele>96.0</ele>
 <time>2014-06-06T19:01:35Z</time>
 </trkpt>
 <trkpt lat="51.294713" lon="6.842179">
 <ele>97.0</ele>
 <time>2014-06-06T19:01:40Z</time>
 </trkpt>
 <trkpt lat="51.294974" lon="6.842002">
 <ele>93.0</ele>
 <time>2014-06-06T19:01:45Z</time>
 </trkpt>
 <trkpt lat="51.295322" lon="6.841832">
 <ele>90.0</ele>
 <time>2014-06-06T19:01:51Z</time>
 </trkpt>
 <trkpt lat="51.295774" lon="6.841463">
 <ele>90.0</ele>
 <time>2014-06-06T19:01:58Z</time>
 </trkpt>
 <trkpt lat="51.296056" lon="6.841233">
 <ele>89.0</ele>
 <time>2014-06-06T19:02:03Z</time>
 </trkpt>
 <trkpt lat="51.296396" lon="6.841027">
 <ele>88.0</ele>
 <time>2014-06-06T19:02:09Z</time>
 </trkpt>
 <trkpt lat="51.296715" lon="6.840747">
 <ele>85.0</ele>
 <time>2014-06-06T19:02:15Z</time>
 </trkpt>
 <trkpt lat="51.297218" lon="6.840574">
 <ele>85.0</ele>
 <time>2014-06-06T19:02:21Z</time>
 </trkpt>
 <trkpt lat="51.297517" lon="6.840446">
 <ele>86.0</ele>
 <time>2014-06-06T19:02:25Z</time>
 </trkpt>
 <trkpt lat="51.29783" lon="6.840246">
 <ele>86.0</ele>
 <time>2014-06-06T19:02:30Z</time>
 </trkpt>
 <trkpt lat="51.298281" lon="6.839985">
 <ele>89.0</ele>
 <time>2014-06-06T19:02:36Z</time>
 </trkpt>
 <trkpt lat="51.298745" lon="6.839879">
 <ele>94.0</ele>
 <time>2014-06-06T19:02:42Z</time>
 </trkpt>
 <trkpt lat="51.299027" lon="6.83972">
 <ele>92.0</ele>
 <time>2014-06-06T19:02:47Z</time>
 </trkpt>
 <trkpt lat="51.299389" lon="6.839633">
 <ele>93.0</ele>
 <time>2014-06-06T19:02:53Z</time>
 </trkpt>
 <trkpt lat="51.299713" lon="6.839494">
 <ele>92.0</ele>
 <time>2014-06-06T19:02:58Z</time>
 </trkpt>
 <trkpt lat="51.300088" lon="6.839494">
 <ele>96.0</ele>
 <time>2014-06-06T19:03:04Z</time>
 </trkpt>
 <trkpt lat="51.300449" lon="6.839633">
 <ele>93.0</ele>
 <time>2014-06-06T19:03:10Z</time>
 </trkpt>
 <trkpt lat="51.300766" lon="6.839661">
 <ele>92.0</ele>
 <time>2014-06-06T19:03:16Z</time>
 </trkpt>
 <trkpt lat="51.301045" lon="6.839772">
 <ele>90.0</ele>
 <time>2014-06-06T19:03:21Z</time>
 </trkpt>
 <trkpt lat="51.301307" lon="6.839846">
 <ele>90.0</ele>
 <time>2014-06-06T19:03:26Z</time>
 </trkpt>
 <trkpt lat="51.301521" lon="6.839617">
 <ele>92.0</ele>
 <time>2014-06-06T19:03:30Z</time>
 </trkpt>
 <trkpt lat="51.301731" lon="6.839353">
 <ele>91.0</ele>
 <time>2014-06-06T19:03:34Z</time>
 </trkpt>
 <trkpt lat="51.302057" lon="6.839139">
 <ele>90.0</ele>
 <time>2014-06-06T19:03:39Z</time>
 </trkpt>
 <trkpt lat="51.302466" lon="6.83895">
 <ele>89.0</ele>
 <time>2014-06-06T19:03:45Z</time>
 </trkpt>
 <trkpt lat="51.302832" lon="6.838826">
 <ele>88.0</ele>
 <time>2014-06-06T19:03:50Z</time>
 </trkpt>
 <trkpt lat="51.303244" lon="6.838746">
 <ele>84.0</ele>
 <time>2014-06-06T19:03:57Z</time>
 </trkpt>
 <trkpt lat="51.303565" lon="6.838726">
 <ele>82.0</ele>
 <time>2014-06-06T19:04:04Z</time>
 </trkpt>
 <trkpt lat="51.303847" lon="6.838436">
 <ele>84.0</ele>
 <time>2014-06-06T19:04:09Z</time>
 </trkpt>
 <trkpt lat="51.30412" lon="6.838332">
 <ele>87.0</ele>
 <time>2014-06-06T19:04:15Z</time>
 </trkpt>
 <trkpt lat="51.304431" lon="6.838168">
 <ele>90.0</ele>
 <time>2014-06-06T19:04:22Z</time>
 </trkpt>
 <trkpt lat="51.304813" lon="6.837991">
 <ele>97.0</ele>
 <time>2014-06-06T19:04:30Z</time>
 </trkpt>
 <trkpt lat="51.305081" lon="6.83787">
 <ele>97.0</ele>
 <time>2014-06-06T19:04:36Z</time>
 </trkpt>
 <trkpt lat="51.305345" lon="6.8377">
 <ele>97.0</ele>
 <time>2014-06-06T19:04:42Z</time>
 </trkpt>
 <trkpt lat="51.305601" lon="6.837595">
 <ele>96.0</ele>
 <time>2014-06-06T19:04:48Z</time>
 </trkpt>
 <trkpt lat="51.305884" lon="6.837405">
 <ele>96.0</ele>
 <time>2014-06-06T19:04:53Z</time>
 </trkpt>
 <trkpt lat="51.306208" lon="6.837325">
 <ele>95.0</ele>
 <time>2014-06-06T19:04:59Z</time>
 </trkpt>
 <trkpt lat="51.306554" lon="6.837125">
 <ele>98.0</ele>
 <time>2014-06-06T19:05:05Z</time>
 </trkpt>
 <trkpt lat="51.306907" lon="6.836878">
 <ele>99.0</ele>
 <time>2014-06-06T19:05:11Z</time>
 </trkpt>
 <trkpt lat="51.307329" lon="6.836651">
 <ele>99.0</ele>
 <time>2014-06-06T19:05:17Z</time>
 </trkpt>
 <trkpt lat="51.3078" lon="6.83633">
 <ele>98.0</ele>
 <time>2014-06-06T19:05:23Z</time>
 </trkpt>
 <trkpt lat="51.308246" lon="6.836015">
 <ele>95.0</ele>
 <time>2014-06-06T19:05:29Z</time>
 </trkpt>
 <trkpt lat="51.308662" lon="6.835845">
 <ele>95.0</ele>
 <time>2014-06-06T19:05:34Z</time>
 </trkpt>
 <trkpt lat="51.308995" lon="6.835612">
 <ele>96.0</ele>
 <time>2014-06-06T19:05:39Z</time>
 </trkpt>
 <trkpt lat="51.309409" lon="6.835389">
 <ele>94.0</ele>
 <time>2014-06-06T19:05:44Z</time>
 </trkpt>
 <trkpt lat="51.309729" lon="6.835239">
 <ele>95.0</ele>
 <time>2014-06-06T19:05:48Z</time>
 </trkpt>
 <trkpt lat="51.310206" lon="6.835004">
 <ele>90.0</ele>
 <time>2014-06-06T19:05:54Z</time>
 </trkpt>
 <trkpt lat="51.310525" lon="6.834887">
 <ele>91.0</ele>
 <time>2014-06-06T19:05:59Z</time>
 </trkpt>
 <trkpt lat="51.31106" lon="6.8347">
 <ele>89.0</ele>
 <time>2014-06-06T19:06:06Z</time>
 </trkpt>
 <trkpt lat="51.311438" lon="6.834392">
 <ele>94.0</ele>
 <time>2014-06-06T19:06:11Z</time>
 </trkpt>
 <trkpt lat="51.311753" lon="6.834291">
 <ele>92.0</ele>
 <time>2014-06-06T19:06:17Z</time>
 </trkpt>
 <trkpt lat="51.312198" lon="6.834033">
 <ele>93.0</ele>
 <time>2014-06-06T19:06:24Z</time>
 </trkpt>
 <trkpt lat="51.312666" lon="6.833759">
 <ele>94.0</ele>
 <time>2014-06-06T19:06:31Z</time>
 </trkpt>
 <trkpt lat="51.313096" lon="6.833876">
 <ele>94.0</ele>
 <time>2014-06-06T19:06:38Z</time>
 </trkpt>
 <trkpt lat="51.313358" lon="6.833574">
 <ele>88.0</ele>
 <time>2014-06-06T19:06:44Z</time>
 </trkpt>
 <trkpt lat="51.313724" lon="6.833289">
 <ele>90.0</ele>
 <time>2014-06-06T19:06:51Z</time>
 </trkpt>
 <trkpt lat="51.313958" lon="6.832996">
 <ele>90.0</ele>
 <time>2014-06-06T19:06:57Z</time>
 </trkpt>
 <trkpt lat="51.314158" lon="6.833034">
 <ele>89.0</ele>
 <time>2014-06-06T19:07:05Z</time>
 </trkpt>
 <trkpt lat="51.314463" lon="6.832815">
 <ele>85.0</ele>
 <time>2014-06-06T19:07:12Z</time>
 </trkpt>
 <trkpt lat="51.314889" lon="6.832546">
 <ele>83.0</ele>
 <time>2014-06-06T19:07:19Z</time>
 </trkpt>
 <trkpt lat="51.315184" lon="6.832448">
 <ele>83.0</ele>
 <time>2014-06-06T19:07:24Z</time>
 </trkpt>
 <trkpt lat="51.315472" lon="6.832387">
 <ele>83.0</ele>
 <time>2014-06-06T19:07:29Z</time>
 </trkpt>
 <trkpt lat="51.315846" lon="6.832292">
 <ele>83.0</ele>
 <time>2014-06-06T19:07:35Z</time>
 </trkpt>
 <trkpt lat="51.316218" lon="6.832196">
 <ele>90.0</ele>
 <time>2014-06-06T19:07:41Z</time>
 </trkpt>
 <trkpt lat="51.316572" lon="6.832112">
 <ele>89.0</ele>
 <time>2014-06-06T19:07:47Z</time>
 </trkpt>
 <trkpt lat="51.316972" lon="6.831976">
 <ele>92.0</ele>
 <time>2014-06-06T19:07:53Z</time>
 </trkpt>
 <trkpt lat="51.317303" lon="6.831907">
 <ele>91.0</ele>
 <time>2014-06-06T19:07:58Z</time>
 </trkpt>
 <trkpt lat="51.317616" lon="6.831914">
 <ele>87.0</ele>
 <time>2014-06-06T19:08:04Z</time>
 </trkpt>
 <trkpt lat="51.317896" lon="6.831802">
 <ele>87.0</ele>
 <time>2014-06-06T19:08:09Z</time>
 </trkpt>
 <trkpt lat="51.318149" lon="6.831599">
 <ele>91.0</ele>
 <time>2014-06-06T19:08:14Z</time>
 </trkpt>
 <trkpt lat="51.318494" lon="6.831486">
 <ele>94.0</ele>
 <time>2014-06-06T19:08:20Z</time>
 </trkpt>
 <trkpt lat="51.318857" lon="6.831504">
 <ele>89.0</ele>
 <time>2014-06-06T19:08:26Z</time>
 </trkpt>
 <trkpt lat="51.319225" lon="6.831456">
 <ele>91.0</ele>
 <time>2014-06-06T19:08:31Z</time>
 </trkpt>
 <trkpt lat="51.319604" lon="6.831237">
 <ele>91.0</ele>
 <time>2014-06-06T19:08:37Z</time>
 </trkpt>
 <trkpt lat="51.32" lon="6.831005">
 <ele>93.0</ele>
 <time>2014-06-06T19:08:43Z</time>
 </trkpt>
 <trkpt lat="51.320263" lon="6.83096">
 <ele>92.0</ele>
 <time>2014-06-06T19:08:49Z</time>
 </trkpt>
 <trkpt lat="51.320706" lon="6.83082">
 <ele>88.0</ele>
 <time>2014-06-06T19:08:57Z</time>
 </trkpt>
 <trkpt lat="51.321" lon="6.830913">
 <ele>87.0</ele>
 <time>2014-06-06T19:09:02Z</time>
 </trkpt>
 <trkpt lat="51.321397" lon="6.830733">
 <ele>87.0</ele>
 <time>2014-06-06T19:09:08Z</time>
 </trkpt>
 <trkpt lat="51.321698" lon="6.83064">
 <ele>86.0</ele>
 <time>2014-06-06T19:09:13Z</time>
 </trkpt>
 <trkpt lat="51.322035" lon="6.830548">
 <ele>88.0</ele>
 <time>2014-06-06T19:09:18Z</time>
 </trkpt>
 <trkpt lat="51.322278" lon="6.830566">
 <ele>88.0</ele>
 <time>2014-06-06T19:09:23Z</time>
 </trkpt>
 <trkpt lat="51.32237" lon="6.830413">
 <ele>92.0</ele>
 <time>2014-06-06T19:09:30Z</time>
 </trkpt>
 <trkpt lat="51.32271" lon="6.830232">
 <ele>90.0</ele>
 <time>2014-06-06T19:09:42Z</time>
 </trkpt>
 <trkpt lat="51.323007" lon="6.830081">
 <ele>87.0</ele>
 <time>2014-06-06T19:09:48Z</time>
 </trkpt>
 <trkpt lat="51.323337" lon="6.829993">
 <ele>86.0</ele>
 <time>2014-06-06T19:09:54Z</time>
 </trkpt>
 <trkpt lat="51.323574" lon="6.830132">
 <ele>83.0</ele>
 <time>2014-06-06T19:09:59Z</time>
 </trkpt>
 <trkpt lat="51.323985" lon="6.829929">
 <ele>85.0</ele>
 <time>2014-06-06T19:10:05Z</time>
 </trkpt>
 <trkpt lat="51.324432" lon="6.829807">
 <ele>92.0</ele>
 <time>2014-06-06T19:10:11Z</time>
 </trkpt>
 <trkpt lat="51.324742" lon="6.829801">
 <ele>92.0</ele>
 <time>2014-06-06T19:10:17Z</time>
 </trkpt>
 <trkpt lat="51.324993" lon="6.829674">
 <ele>91.0</ele>
 <time>2014-06-06T19:10:25Z</time>
 </trkpt>
 <trkpt lat="51.325209" lon="6.829563">
 <ele>90.0</ele>
 <time>2014-06-06T19:10:30Z</time>
 </trkpt>
 <trkpt lat="51.325527" lon="6.82946">
 <ele>89.0</ele>
 <time>2014-06-06T19:10:36Z</time>
 </trkpt>
 <trkpt lat="51.325849" lon="6.829434">
 <ele>89.0</ele>
 <time>2014-06-06T19:10:42Z</time>
 </trkpt>
 <trkpt lat="51.326149" lon="6.829355">
 <ele>85.0</ele>
 <time>2014-06-06T19:10:48Z</time>
 </trkpt>
 <trkpt lat="51.326607" lon="6.829269">
 <ele>81.0</ele>
 <time>2014-06-06T19:10:55Z</time>
 </trkpt>
 <trkpt lat="51.326985" lon="6.829224">
 <ele>86.0</ele>
 <time>2014-06-06T19:11:01Z</time>
 </trkpt>
 <trkpt lat="51.327355" lon="6.828999">
 <ele>91.0</ele>
 <time>2014-06-06T19:11:08Z</time>
 </trkpt>
 <trkpt lat="51.327706" lon="6.828981">
 <ele>90.0</ele>
 <time>2014-06-06T19:11:14Z</time>
 </trkpt>
 <trkpt lat="51.32823" lon="6.828867">
 <ele>90.0</ele>
 <time>2014-06-06T19:11:22Z</time>
 </trkpt>
 <trkpt lat="51.328515" lon="6.828836">
 <ele>90.0</ele>
 <time>2014-06-06T19:11:27Z</time>
 </trkpt>
 <trkpt lat="51.328876" lon="6.828817">
 <ele>89.0</ele>
 <time>2014-06-06T19:11:33Z</time>
 </trkpt>
 <trkpt lat="51.329137" lon="6.828886">
 <ele>88.0</ele>
 <time>2014-06-06T19:11:39Z</time>
 </trkpt>
 <trkpt lat="51.329307" lon="6.829236">
 <ele>86.0</ele>
 <time>2014-06-06T19:11:44Z</time>
 </trkpt>
 <trkpt lat="51.329522" lon="6.829592">
 <ele>88.0</ele>
 <time>2014-06-06T19:11:49Z</time>
 </trkpt>
 <trkpt lat="51.329839" lon="6.829884">
 <ele>90.0</ele>
 <time>2014-06-06T19:11:55Z</time>
 </trkpt>
 <trkpt lat="51.33012" lon="6.830134">
 <ele>89.0</ele>
 <time>2014-06-06T19:12:00Z</time>
 </trkpt>
 <trkpt lat="51.330348" lon="6.830611">
 <ele>90.0</ele>
 <time>2014-06-06T19:12:06Z</time>
 </trkpt>
 <trkpt lat="51.330458" lon="6.831102">
 <ele>88.0</ele>
 <time>2014-06-06T19:12:11Z</time>
 </trkpt>
 <trkpt lat="51.330576" lon="6.831832">
 <ele>85.0</ele>
 <time>2014-06-06T19:12:18Z</time>
 </trkpt>
 <trkpt lat="51.330917" lon="6.831962">
 <ele>89.0</ele>
 <time>2014-06-06T19:12:23Z</time>
 </trkpt>
 <trkpt lat="51.331212" lon="6.831832">
 <ele>88.0</ele>
 <time>2014-06-06T19:12:28Z</time>
 </trkpt>
 <trkpt lat="51.331555" lon="6.831583">
 <ele>91.0</ele>
 <time>2014-06-06T19:12:33Z</time>
 </trkpt>
 <trkpt lat="51.331763" lon="6.831269">
 <ele>93.0</ele>
 <time>2014-06-06T19:12:37Z</time>
 </trkpt>
 <trkpt lat="51.332049" lon="6.830914">
 <ele>93.0</ele>
 <time>2014-06-06T19:12:43Z</time>
 </trkpt>
 <trkpt lat="51.332403" lon="6.830961">
 <ele>89.0</ele>
 <time>2014-06-06T19:12:49Z</time>
 </trkpt>
 <trkpt lat="51.332758" lon="6.830974">
 <ele>90.0</ele>
 <time>2014-06-06T19:12:55Z</time>
 </trkpt>
 <trkpt lat="51.332809" lon="6.830697">
 <ele>92.0</ele>
 <time>2014-06-06T19:13:01Z</time>
 </trkpt>
 <trkpt lat="51.333" lon="6.830298">
 <ele>96.0</ele>
 <time>2014-06-06T19:13:09Z</time>
 </trkpt>
 <trkpt lat="51.333017" lon="6.829801">
 <ele>97.0</ele>
 <time>2014-06-06T19:13:14Z</time>
 </trkpt>
 <trkpt lat="51.333033" lon="6.829183">
 <ele>91.0</ele>
 <time>2014-06-06T19:13:20Z</time>
 </trkpt>
 <trkpt lat="51.33314" lon="6.828568">
 <ele>92.0</ele>
 <time>2014-06-06T19:13:26Z</time>
 </trkpt>
 <trkpt lat="51.333358" lon="6.828544">
 <ele>91.0</ele>
 <time>2014-06-06T19:13:31Z</time>
 </trkpt>
 <trkpt lat="51.333812" lon="6.828695">
 <ele>91.0</ele>
 <time>2014-06-06T19:13:37Z</time>
 </trkpt>
 <trkpt lat="51.33416" lon="6.828814">
 <ele>91.0</ele>
 <time>2014-06-06T19:13:42Z</time>
 </trkpt>
 <trkpt lat="51.334565" lon="6.828908">
 <ele>88.0</ele>
 <time>2014-06-06T19:13:48Z</time>
 </trkpt>
 <trkpt lat="51.334939" lon="6.82907">
 <ele>89.0</ele>
 <time>2014-06-06T19:13:54Z</time>
 </trkpt>
 <trkpt lat="51.335267" lon="6.829146">
 <ele>92.0</ele>
 <time>2014-06-06T19:13:59Z</time>
 </trkpt>
 <trkpt lat="51.335495" lon="6.829216">
 <ele>90.0</ele>
 <time>2014-06-06T19:14:03Z</time>
 </trkpt>
 <trkpt lat="51.335752" lon="6.829243">
 <ele>87.0</ele>
 <time>2014-06-06T19:14:07Z</time>
 </trkpt>
 <trkpt lat="51.336103" lon="6.829076">
 <ele>92.0</ele>
 <time>2014-06-06T19:14:12Z</time>
 </trkpt>
 <trkpt lat="51.3364" lon="6.828816">
 <ele>89.0</ele>
 <time>2014-06-06T19:14:17Z</time>
 </trkpt>
 <trkpt lat="51.336819" lon="6.828536">
 <ele>87.0</ele>
 <time>2014-06-06T19:14:24Z</time>
 </trkpt>
 <trkpt lat="51.337097" lon="6.82833">
 <ele>88.0</ele>
 <time>2014-06-06T19:14:29Z</time>
 </trkpt>
 <trkpt lat="51.337468" lon="6.828066">
 <ele>88.0</ele>
 <time>2014-06-06T19:14:35Z</time>
 </trkpt>
 <trkpt lat="51.337857" lon="6.827802">
 <ele>88.0</ele>
 <time>2014-06-06T19:14:41Z</time>
 </trkpt>
 <trkpt lat="51.33816" lon="6.827482">
 <ele>88.0</ele>
 <time>2014-06-06T19:14:46Z</time>
 </trkpt>
 <trkpt lat="51.338532" lon="6.827234">
 <ele>89.0</ele>
 <time>2014-06-06T19:14:52Z</time>
 </trkpt>
 <trkpt lat="51.33886" lon="6.827086">
 <ele>86.0</ele>
 <time>2014-06-06T19:14:58Z</time>
 </trkpt>
 <trkpt lat="51.3392" lon="6.826992">
 <ele>88.0</ele>
 <time>2014-06-06T19:15:03Z</time>
 </trkpt>
 <trkpt lat="51.339537" lon="6.826857">
 <ele>90.0</ele>
 <time>2014-06-06T19:15:08Z</time>
 </trkpt>
 <trkpt lat="51.339942" lon="6.826643">
 <ele>93.0</ele>
 <time>2014-06-06T19:15:13Z</time>
 </trkpt>
 <trkpt lat="51.340418" lon="6.826531">
 <ele>92.0</ele>
 <time>2014-06-06T19:15:20Z</time>
 </trkpt>
 <trkpt lat="51.340788" lon="6.82637">
 <ele>91.0</ele>
 <time>2014-06-06T19:15:26Z</time>
 </trkpt>
 <trkpt lat="51.341178" lon="6.826279">
 <ele>93.0</ele>
 <time>2014-06-06T19:15:32Z</time>
 </trkpt>
 <trkpt lat="51.341526" lon="6.826472">
 <ele>91.0</ele>
 <time>2014-06-06T19:15:37Z</time>
 </trkpt>
 <trkpt lat="51.341789" lon="6.826726">
 <ele>87.0</ele>
 <time>2014-06-06T19:15:43Z</time>
 </trkpt>
 <trkpt lat="51.342036" lon="6.826986">
 <ele>87.0</ele>
 <time>2014-06-06T19:15:49Z</time>
 </trkpt>
 <trkpt lat="51.342303" lon="6.827107">
 <ele>88.0</ele>
 <time>2014-06-06T19:15:55Z</time>
 </trkpt>
 <trkpt lat="51.342593" lon="6.827028">
 <ele>85.0</ele>
 <time>2014-06-06T19:16:01Z</time>
 </trkpt>
 <trkpt lat="51.342851" lon="6.82681">
 <ele>88.0</ele>
 <time>2014-06-06T19:16:07Z</time>
 </trkpt>
 <trkpt lat="51.343135" lon="6.826528">
 <ele>92.0</ele>
 <time>2014-06-06T19:16:12Z</time>
 </trkpt>
 <trkpt lat="51.343428" lon="6.826105">
 <ele>87.0</ele>
 <time>2014-06-06T19:16:18Z</time>
 </trkpt>
 <trkpt lat="51.34374" lon="6.825872">
 <ele>88.0</ele>
 <time>2014-06-06T19:16:23Z</time>
 </trkpt>
 <trkpt lat="51.344069" lon="6.825459">
 <ele>89.0</ele>
 <time>2014-06-06T19:16:29Z</time>
 </trkpt>
 <trkpt lat="51.344449" lon="6.82526">
 <ele>88.0</ele>
 <time>2014-06-06T19:16:35Z</time>
 </trkpt>
 <trkpt lat="51.344769" lon="6.825117">
 <ele>87.0</ele>
 <time>2014-06-06T19:16:41Z</time>
 </trkpt>
 <trkpt lat="51.344978" lon="6.825081">
 <ele>91.0</ele>
 <time>2014-06-06T19:16:47Z</time>
 </trkpt>
 <trkpt lat="51.345251" lon="6.82489">
 <ele>90.0</ele>
 <time>2014-06-06T19:16:52Z</time>
 </trkpt>
 <trkpt lat="51.345616" lon="6.824627">
 <ele>89.0</ele>
 <time>2014-06-06T19:16:58Z</time>
 </trkpt>
 <trkpt lat="51.345977" lon="6.824475">
 <ele>93.0</ele>
 <time>2014-06-06T19:17:04Z</time>
 </trkpt>
 <trkpt lat="51.346352" lon="6.824307">
 <ele>92.0</ele>
 <time>2014-06-06T19:17:10Z</time>
 </trkpt>
 <trkpt lat="51.346751" lon="6.82412">
 <ele>93.0</ele>
 <time>2014-06-06T19:17:16Z</time>
 </trkpt>
 <trkpt lat="51.347008" lon="6.824142">
 <ele>94.0</ele>
 <time>2014-06-06T19:17:21Z</time>
 </trkpt>
 <trkpt lat="51.347326" lon="6.824136">
 <ele>94.0</ele>
 <time>2014-06-06T19:17:27Z</time>
 </trkpt>
 <trkpt lat="51.347677" lon="6.824111">
 <ele>91.0</ele>
 <time>2014-06-06T19:17:33Z</time>
 </trkpt>
 <trkpt lat="51.347995" lon="6.823999">
 <ele>90.0</ele>
 <time>2014-06-06T19:17:38Z</time>
 </trkpt>
 <trkpt lat="51.348196" lon="6.824065">
 <ele>82.0</ele>
 <time>2014-06-06T19:17:42Z</time>
 </trkpt>
 <trkpt lat="51.348721" lon="6.823703">
 <ele>94.0</ele>
 <time>2014-06-06T19:17:49Z</time>
 </trkpt>
 <trkpt lat="51.348983" lon="6.823521">
 <ele>92.0</ele>
 <time>2014-06-06T19:17:54Z</time>
 </trkpt>
 <trkpt lat="51.349302" lon="6.82307">
 <ele>94.0</ele>
 <time>2014-06-06T19:18:00Z</time>
 </trkpt>
 <trkpt lat="51.34955" lon="6.82298">
 <ele>89.0</ele>
 <time>2014-06-06T19:18:05Z</time>
 </trkpt>
 <trkpt lat="51.349646" lon="6.822724">
 <ele>91.0</ele>
 <time>2014-06-06T19:18:09Z</time>
 </trkpt>
 <trkpt lat="51.349656" lon="6.822269">
 <ele>89.0</ele>
 <time>2014-06-06T19:18:14Z</time>
 </trkpt>
 <trkpt lat="51.349654" lon="6.821676">
 <ele>87.0</ele>
 <time>2014-06-06T19:18:21Z</time>
 </trkpt>
 <trkpt lat="51.349956" lon="6.821334">
 <ele>92.0</ele>
 <time>2014-06-06T19:18:27Z</time>
 </trkpt>
 <trkpt lat="51.350258" lon="6.821151">
 <ele>92.0</ele>
 <time>2014-06-06T19:18:33Z</time>
 </trkpt>
 <trkpt lat="51.350692" lon="6.821199">
 <ele>92.0</ele>
 <time>2014-06-06T19:18:40Z</time>
 </trkpt>
 <trkpt lat="51.35095" lon="6.821133">
 <ele>92.0</ele>
 <time>2014-06-06T19:18:47Z</time>
 </trkpt>
 <trkpt lat="51.351168" lon="6.820869">
 <ele>93.0</ele>
 <time>2014-06-06T19:18:52Z</time>
 </trkpt>
 <trkpt lat="51.351343" lon="6.820783">
 <ele>94.0</ele>
 <time>2014-06-06T19:18:55Z</time>
 </trkpt>
 <trkpt lat="51.35171" lon="6.820628">
 <ele>96.0</ele>
 <time>2014-06-06T19:19:01Z</time>
 </trkpt>
 <trkpt lat="51.352019" lon="6.820412">
 <ele>97.0</ele>
 <time>2014-06-06T19:19:06Z</time>
 </trkpt>
 <trkpt lat="51.352361" lon="6.820302">
 <ele>95.0</ele>
 <time>2014-06-06T19:19:12Z</time>
 </trkpt>
 <trkpt lat="51.352654" lon="6.820217">
 <ele>96.0</ele>
 <time>2014-06-06T19:19:17Z</time>
 </trkpt>
 <trkpt lat="51.35303" lon="6.820138">
 <ele>97.0</ele>
 <time>2014-06-06T19:19:24Z</time>
 </trkpt>
 <trkpt lat="51.353356" lon="6.820001">
 <ele>97.0</ele>
 <time>2014-06-06T19:19:30Z</time>
 </trkpt>
 <trkpt lat="51.353716" lon="6.819871">
 <ele>97.0</ele>
 <time>2014-06-06T19:19:36Z</time>
 </trkpt>
 <trkpt lat="51.35405" lon="6.819831">
 <ele>94.0</ele>
 <time>2014-06-06T19:19:42Z</time>
 </trkpt>
 <trkpt lat="51.354353" lon="6.819925">
 <ele>91.0</ele>
 <time>2014-06-06T19:19:47Z</time>
 </trkpt>
 <trkpt lat="51.354759" lon="6.819793">
 <ele>87.0</ele>
 <time>2014-06-06T19:19:54Z</time>
 </trkpt>
 <trkpt lat="51.355107" lon="6.819675">
 <ele>86.0</ele>
 <time>2014-06-06T19:19:59Z</time>
 </trkpt>
 <trkpt lat="51.355507" lon="6.819457">
 <ele>84.0</ele>
 <time>2014-06-06T19:20:05Z</time>
 </trkpt>
 <trkpt lat="51.355942" lon="6.819233">
 <ele>88.0</ele>
 <time>2014-06-06T19:20:11Z</time>
 </trkpt>
 <trkpt lat="51.356472" lon="6.819075">
 <ele>88.0</ele>
 <time>2014-06-06T19:20:20Z</time>
 </trkpt>
 <trkpt lat="51.356847" lon="6.818942">
 <ele>90.0</ele>
 <time>2014-06-06T19:20:25Z</time>
 </trkpt>
 <trkpt lat="51.35704" lon="6.818863">
 <ele>91.0</ele>
 <time>2014-06-06T19:20:28Z</time>
 </trkpt>
 <trkpt lat="51.357234" lon="6.818819">
 <ele>91.0</ele>
 <time>2014-06-06T19:20:31Z</time>
 </trkpt>
 <trkpt lat="51.35742" lon="6.818758">
 <ele>91.0</ele>
 <time>2014-06-06T19:20:34Z</time>
 </trkpt>
 <trkpt lat="51.357728" lon="6.818666">
 <ele>92.0</ele>
 <time>2014-06-06T19:20:39Z</time>
 </trkpt>
 <trkpt lat="51.358033" lon="6.818593">
 <ele>91.0</ele>
 <time>2014-06-06T19:20:44Z</time>
 </trkpt>
 <trkpt lat="51.358388" lon="6.818484">
 <ele>91.0</ele>
 <time>2014-06-06T19:20:50Z</time>
 </trkpt>
 <trkpt lat="51.358754" lon="6.818356">
 <ele>90.0</ele>
 <time>2014-06-06T19:20:56Z</time>
 </trkpt>
 <trkpt lat="51.359065" lon="6.818286">
 <ele>91.0</ele>
 <time>2014-06-06T19:21:01Z</time>
 </trkpt>
 <trkpt lat="51.359429" lon="6.818175">
 <ele>89.0</ele>
 <time>2014-06-06T19:21:07Z</time>
 </trkpt>
 <trkpt lat="51.359616" lon="6.818131">
 <ele>90.0</ele>
 <time>2014-06-06T19:21:10Z</time>
 </trkpt>
 <trkpt lat="51.360037" lon="6.818022">
 <ele>88.0</ele>
 <time>2014-06-06T19:21:17Z</time>
 </trkpt>
 <trkpt lat="51.360334" lon="6.817914">
 <ele>88.0</ele>
 <time>2014-06-06T19:21:22Z</time>
 </trkpt>
 <trkpt lat="51.360512" lon="6.817856">
 <ele>87.0</ele>
 <time>2014-06-06T19:21:25Z</time>
 </trkpt>
 <trkpt lat="51.360873" lon="6.817758">
 <ele>88.0</ele>
 <time>2014-06-06T19:21:31Z</time>
 </trkpt>
 <trkpt lat="51.361161" lon="6.817672">
 <ele>87.0</ele>
 <time>2014-06-06T19:21:36Z</time>
 </trkpt>
 <trkpt lat="51.361459" lon="6.817579">
 <ele>87.0</ele>
 <time>2014-06-06T19:21:41Z</time>
 </trkpt>
 <trkpt lat="51.361762" lon="6.817527">
 <ele>87.0</ele>
 <time>2014-06-06T19:21:46Z</time>
 </trkpt>
 <trkpt lat="51.362114" lon="6.8174">
 <ele>89.0</ele>
 <time>2014-06-06T19:21:52Z</time>
 </trkpt>
 <trkpt lat="51.36229" lon="6.81735">
 <ele>89.0</ele>
 <time>2014-06-06T19:21:55Z</time>
 </trkpt>
 <trkpt lat="51.362638" lon="6.817252">
 <ele>90.0</ele>
 <time>2014-06-06T19:22:01Z</time>
 </trkpt>
 <trkpt lat="51.362805" lon="6.817177">
 <ele>90.0</ele>
 <time>2014-06-06T19:22:04Z</time>
 </trkpt>
 <trkpt lat="51.36298" lon="6.817137">
 <ele>89.0</ele>
 <time>2014-06-06T19:22:07Z</time>
 </trkpt>
 <trkpt lat="51.363216" lon="6.81707">
 <ele>89.0</ele>
 <time>2014-06-06T19:22:11Z</time>
 </trkpt>
 <trkpt lat="51.363475" lon="6.816976">
 <ele>90.0</ele>
 <time>2014-06-06T19:22:15Z</time>
 </trkpt>
 <trkpt lat="51.363734" lon="6.816853">
 <ele>89.0</ele>
 <time>2014-06-06T19:22:20Z</time>
 </trkpt>
 <trkpt lat="51.364068" lon="6.816751">
 <ele>90.0</ele>
 <time>2014-06-06T19:22:25Z</time>
 </trkpt>
 <trkpt lat="51.36441" lon="6.816621">
 <ele>89.0</ele>
 <time>2014-06-06T19:22:30Z</time>
 </trkpt>
 <trkpt lat="51.364619" lon="6.816574">
 <ele>89.0</ele>
 <time>2014-06-06T19:22:33Z</time>
 </trkpt>
 <trkpt lat="51.364806" lon="6.816517">
 <ele>88.0</ele>
 <time>2014-06-06T19:22:36Z</time>
 </trkpt>
 <trkpt lat="51.365175" lon="6.816415">
 <ele>89.0</ele>
 <time>2014-06-06T19:22:41Z</time>
 </trkpt>
 <trkpt lat="51.365549" lon="6.816258">
 <ele>90.0</ele>
 <time>2014-06-06T19:22:47Z</time>
 </trkpt>
 <trkpt lat="51.365723" lon="6.816225">
 <ele>89.0</ele>
 <time>2014-06-06T19:22:50Z</time>
 </trkpt>
 <trkpt lat="51.365911" lon="6.816148">
 <ele>87.0</ele>
 <time>2014-06-06T19:22:54Z</time>
 </trkpt>
 <trkpt lat="51.36621" lon="6.816074">
 <ele>85.0</ele>
 <time>2014-06-06T19:23:00Z</time>
 </trkpt>
 <trkpt lat="51.366475" lon="6.815981">
 <ele>89.0</ele>
 <time>2014-06-06T19:23:07Z</time>
 </trkpt>
 <trkpt lat="51.36677" lon="6.81587">
 <ele>89.0</ele>
 <time>2014-06-06T19:23:14Z</time>
 </trkpt>
 <trkpt lat="51.366936" lon="6.815725">
 <ele>90.0</ele>
 <time>2014-06-06T19:23:19Z</time>
 </trkpt>
 <trkpt lat="51.367126" lon="6.815638">
 <ele>92.0</ele>
 <time>2014-06-06T19:23:25Z</time>
 </trkpt>
 <trkpt lat="51.367119" lon="6.815247">
 <ele>94.0</ele>
 <time>2014-06-06T19:23:31Z</time>
 </trkpt>
 <trkpt lat="51.367057" lon="6.814782">
 <ele>96.0</ele>
 <time>2014-06-06T19:23:36Z</time>
 </trkpt>
 <trkpt lat="51.367012" lon="6.814377">
 <ele>100.0</ele>
 <time>2014-06-06T19:23:41Z</time>
 </trkpt>
 <trkpt lat="51.366745" lon="6.814038">
 <ele>98.0</ele>
 <time>2014-06-06T19:23:46Z</time>
 </trkpt>
 <trkpt lat="51.366315" lon="6.813998">
 <ele>90.0</ele>
 <time>2014-06-06T19:23:52Z</time>
 </trkpt>
 <trkpt lat="51.366041" lon="6.814059">
 <ele>85.0</ele>
 <time>2014-06-06T19:23:55Z</time>
 </trkpt>
 <trkpt lat="51.365634" lon="6.81405">
 <ele>84.0</ele>
 <time>2014-06-06T19:24:00Z</time>
 </trkpt>
 <trkpt lat="51.365218" lon="6.81399">
 <ele>82.0</ele>
 <time>2014-06-06T19:24:05Z</time>
 </trkpt>
 <trkpt lat="51.364913" lon="6.813937">
 <ele>81.0</ele>
 <time>2014-06-06T19:24:09Z</time>
 </trkpt>
 <trkpt lat="51.364736" lon="6.813504">
 <ele>80.0</ele>
 <time>2014-06-06T19:24:13Z</time>
 </trkpt>
 <trkpt lat="51.364844" lon="6.812782">
 <ele>81.0</ele>
 <time>2014-06-06T19:24:20Z</time>
 </trkpt>
 <trkpt lat="51.364905" lon="6.812172">
 <ele>80.0</ele>
 <time>2014-06-06T19:24:26Z</time>
 </trkpt>
 <trkpt lat="51.364977" lon="6.811529">
 <ele>78.0</ele>
 <time>2014-06-06T19:24:32Z</time>
 </trkpt>
 <trkpt lat="51.365041" lon="6.810895">
 <ele>80.0</ele>
 <time>2014-06-06T19:24:38Z</time>
 </trkpt>
 <trkpt lat="51.365113" lon="6.810378">
 <ele>80.0</ele>
 <time>2014-06-06T19:24:43Z</time>
 </trkpt>
 <trkpt lat="51.365155" lon="6.809824">
 <ele>80.0</ele>
 <time>2014-06-06T19:24:48Z</time>
 </trkpt>
 <trkpt lat="51.365161" lon="6.809264">
 <ele>82.0</ele>
 <time>2014-06-06T19:24:53Z</time>
 </trkpt>
 <trkpt lat="51.365226" lon="6.808704">
 <ele>89.0</ele>
 <time>2014-06-06T19:24:58Z</time>
 </trkpt>
 <trkpt lat="51.365285" lon="6.80804">
 <ele>89.0</ele>
 <time>2014-06-06T19:25:04Z</time>
 </trkpt>
 <trkpt lat="51.365386" lon="6.807519">
 <ele>89.0</ele>
 <time>2014-06-06T19:25:09Z</time>
 </trkpt>
 <trkpt lat="51.365415" lon="6.806847">
 <ele>87.0</ele>
 <time>2014-06-06T19:25:15Z</time>
 </trkpt>
 <trkpt lat="51.365474" lon="6.806329">
 <ele>84.0</ele>
 <time>2014-06-06T19:25:20Z</time>
 </trkpt>
 <trkpt lat="51.365543" lon="6.805734">
 <ele>83.0</ele>
 <time>2014-06-06T19:25:26Z</time>
 </trkpt>
 <trkpt lat="51.36561" lon="6.805138">
 <ele>81.0</ele>
 <time>2014-06-06T19:25:32Z</time>
 </trkpt>
 <trkpt lat="51.365635" lon="6.804452">
 <ele>77.0</ele>
 <time>2014-06-06T19:25:38Z</time>
 </trkpt>
 <trkpt lat="51.365698" lon="6.8039">
 <ele>76.0</ele>
 <time>2014-06-06T19:25:43Z</time>
 </trkpt>
 <trkpt lat="51.365769" lon="6.803396">
 <ele>78.0</ele>
 <time>2014-06-06T19:25:48Z</time>
 </trkpt>
 <trkpt lat="51.365841" lon="6.802783">
 <ele>79.0</ele>
 <time>2014-06-06T19:25:54Z</time>
 </trkpt>
 <trkpt lat="51.365906" lon="6.802293">
 <ele>83.0</ele>
 <time>2014-06-06T19:25:59Z</time>
 </trkpt>
 <trkpt lat="51.365993" lon="6.801638">
 <ele>81.0</ele>
 <time>2014-06-06T19:26:05Z</time>
 </trkpt>
 <trkpt lat="51.366057" lon="6.801211">
 <ele>78.0</ele>
 <time>2014-06-06T19:26:09Z</time>
 </trkpt>
 <trkpt lat="51.366092" lon="6.800593">
 <ele>81.0</ele>
 <time>2014-06-06T19:26:15Z</time>
 </trkpt>
 <trkpt lat="51.366098" lon="6.799874">
 <ele>79.0</ele>
 <time>2014-06-06T19:26:21Z</time>
 </trkpt>
 <trkpt lat="51.366185" lon="6.799246">
 <ele>79.0</ele>
 <time>2014-06-06T19:26:27Z</time>
 </trkpt>
 <trkpt lat="51.366249" lon="6.798716">
 <ele>80.0</ele>
 <time>2014-06-06T19:26:32Z</time>
 </trkpt>
 <trkpt lat="51.366302" lon="6.798221">
 <ele>81.0</ele>
 <time>2014-06-06T19:26:37Z</time>
 </trkpt>
 <trkpt lat="51.366375" lon="6.797839">
 <ele>82.0</ele>
 <time>2014-06-06T19:26:41Z</time>
 </trkpt>
 <trkpt lat="51.366409" lon="6.797141">
 <ele>84.0</ele>
 <time>2014-06-06T19:26:48Z</time>
 </trkpt>
 <trkpt lat="51.366417" lon="6.796649">
 <ele>89.0</ele>
 <time>2014-06-06T19:26:53Z</time>
 </trkpt>
 <trkpt lat="51.366482" lon="6.796177">
 <ele>84.0</ele>
 <time>2014-06-06T19:26:57Z</time>
 </trkpt>
 <trkpt lat="51.366541" lon="6.795618">
 <ele>81.0</ele>
 <time>2014-06-06T19:27:02Z</time>
 </trkpt>
 <trkpt lat="51.366582" lon="6.79507">
 <ele>81.0</ele>
 <time>2014-06-06T19:27:07Z</time>
 </trkpt>
 <trkpt lat="51.366638" lon="6.794657">
 <ele>81.0</ele>
 <time>2014-06-06T19:27:11Z</time>
 </trkpt>
 <trkpt lat="51.366658" lon="6.794014">
 <ele>80.0</ele>
 <time>2014-06-06T19:27:17Z</time>
 </trkpt>
 <trkpt lat="51.366645" lon="6.793453">
 <ele>77.0</ele>
 <time>2014-06-06T19:27:23Z</time>
 </trkpt>
 <trkpt lat="51.366538" lon="6.792972">
 <ele>79.0</ele>
 <time>2014-06-06T19:27:28Z</time>
 </trkpt>
 <trkpt lat="51.366469" lon="6.792676">
 <ele>79.0</ele>
 <time>2014-06-06T19:27:31Z</time>
 </trkpt>
 <trkpt lat="51.366373" lon="6.792184">
 <ele>79.0</ele>
 <time>2014-06-06T19:27:36Z</time>
 </trkpt>
 <trkpt lat="51.366263" lon="6.791489">
 <ele>77.0</ele>
 <time>2014-06-06T19:27:43Z</time>
 </trkpt>
 <trkpt lat="51.366203" lon="6.790932">
 <ele>78.0</ele>
 <time>2014-06-06T19:27:48Z</time>
 </trkpt>
 <trkpt lat="51.366152" lon="6.790285">
 <ele>79.0</ele>
 <time>2014-06-06T19:27:54Z</time>
 </trkpt>
 <trkpt lat="51.366132" lon="6.789739">
 <ele>80.0</ele>
 <time>2014-06-06T19:27:59Z</time>
 </trkpt>
 <trkpt lat="51.366106" lon="6.789069">
 <ele>84.0</ele>
 <time>2014-06-06T19:28:05Z</time>
 </trkpt>
 <trkpt lat="51.366115" lon="6.788412">
 <ele>85.0</ele>
 <time>2014-06-06T19:28:11Z</time>
 </trkpt>
 <trkpt lat="51.366098" lon="6.787818">
 <ele>93.0</ele>
 <time>2014-06-06T19:28:16Z</time>
 </trkpt>
 <trkpt lat="51.366087" lon="6.787104">
 <ele>91.0</ele>
 <time>2014-06-06T19:28:22Z</time>
 </trkpt>
 <trkpt lat="51.365989" lon="6.786457">
 <ele>89.0</ele>
 <time>2014-06-06T19:28:28Z</time>
 </trkpt>
 <trkpt lat="51.365883" lon="6.785914">
 <ele>95.0</ele>
 <time>2014-06-06T19:28:33Z</time>
 </trkpt>
 <trkpt lat="51.365813" lon="6.785353">
 <ele>93.0</ele>
 <time>2014-06-06T19:28:38Z</time>
 </trkpt>
 <trkpt lat="51.365716" lon="6.784625">
 <ele>91.0</ele>
 <time>2014-06-06T19:28:45Z</time>
 </trkpt>
 <trkpt lat="51.36562" lon="6.783963">
 <ele>93.0</ele>
 <time>2014-06-06T19:28:51Z</time>
 </trkpt>
 <trkpt lat="51.365536" lon="6.783199">
 <ele>90.0</ele>
 <time>2014-06-06T19:28:58Z</time>
 </trkpt>
 <trkpt lat="51.365484" lon="6.782623">
 <ele>90.0</ele>
 <time>2014-06-06T19:29:03Z</time>
 </trkpt>
 <trkpt lat="51.365446" lon="6.782306">
 <ele>91.0</ele>
 <time>2014-06-06T19:29:06Z</time>
 </trkpt>
 <trkpt lat="51.3654" lon="6.781972">
 <ele>90.0</ele>
 <time>2014-06-06T19:29:09Z</time>
 </trkpt>
 <trkpt lat="51.365334" lon="6.781297">
 <ele>91.0</ele>
 <time>2014-06-06T19:29:15Z</time>
 </trkpt>
 <trkpt lat="51.365259" lon="6.780603">
 <ele>92.0</ele>
 <time>2014-06-06T19:29:21Z</time>
 </trkpt>
 <trkpt lat="51.365206" lon="6.779901">
 <ele>91.0</ele>
 <time>2014-06-06T19:29:27Z</time>
 </trkpt>
 <trkpt lat="51.365145" lon="6.779218">
 <ele>90.0</ele>
 <time>2014-06-06T19:29:33Z</time>
 </trkpt>
 <trkpt lat="51.365135" lon="6.77859">
 <ele>97.0</ele>
 <time>2014-06-06T19:29:39Z</time>
 </trkpt>
 <trkpt lat="51.365138" lon="6.778221">
 <ele>97.0</ele>
 <time>2014-06-06T19:29:45Z</time>
 </trkpt>
 <trkpt lat="51.364859" lon="6.778311">
 <ele>90.0</ele>
 <time>2014-06-06T19:29:54Z</time>
 </trkpt>
 <trkpt lat="51.364714" lon="6.778372">
 <ele>86.0</ele>
 <time>2014-06-06T19:30:00Z</time>
 </trkpt>
 <trkpt lat="51.364714" lon="6.778372">
 <ele>86.0</ele>
 <time>2014-06-06T19:30:07Z</time>
 </trkpt>
 <trkpt lat="51.364714" lon="6.778372">
 <time>2014-06-06T19:30:07Z</time>
 </trkpt>
 </trkseg>
 <trkseg>
 <trkpt lat="51.364714" lon="6.778372">
 <time>2014-06-06T19:32:01Z</time>
 </trkpt>
 <trkpt lat="51.364949" lon="6.778222">
 <ele>84.0</ele>
 <time>2014-06-06T19:32:01Z</time>
 </trkpt>
 <trkpt lat="51.365341" lon="6.778305">
 <ele>85.0</ele>
 <time>2014-06-06T19:32:09Z</time>
 </trkpt>
 <trkpt lat="51.365674" lon="6.778355">
 <ele>84.0</ele>
 <time>2014-06-06T19:32:14Z</time>
 </trkpt>
 <trkpt lat="51.365875" lon="6.7784">
 <ele>85.0</ele>
 <time>2014-06-06T19:32:17Z</time>
 </trkpt>
 <trkpt lat="51.3662" lon="6.778442">
 <ele>85.0</ele>
 <time>2014-06-06T19:32:22Z</time>
 </trkpt>
 <trkpt lat="51.366599" lon="6.778548">
 <ele>86.0</ele>
 <time>2014-06-06T19:32:28Z</time>
 </trkpt>
 <trkpt lat="51.36691" lon="6.778642">
 <ele>85.0</ele>
 <time>2014-06-06T19:32:33Z</time>
 </trkpt>
 <trkpt lat="51.367307" lon="6.778754">
 <ele>86.0</ele>
 <time>2014-06-06T19:32:39Z</time>
 </trkpt>
 <trkpt lat="51.367643" lon="6.778806">
 <ele>87.0</ele>
 <time>2014-06-06T19:32:44Z</time>
 </trkpt>
 <trkpt lat="51.368026" lon="6.778881">
 <ele>86.0</ele>
 <time>2014-06-06T19:32:50Z</time>
 </trkpt>
 <trkpt lat="51.36837" lon="6.778973">
 <ele>84.0</ele>
 <time>2014-06-06T19:32:55Z</time>
 </trkpt>
 <trkpt lat="51.368791" lon="6.779084">
 <ele>85.0</ele>
 <time>2014-06-06T19:33:01Z</time>
 </trkpt>
 <trkpt lat="51.369" lon="6.77914">
 <ele>82.0</ele>
 <time>2014-06-06T19:33:04Z</time>
 </trkpt>
 <trkpt lat="51.369407" lon="6.779254">
 <ele>82.0</ele>
 <time>2014-06-06T19:33:10Z</time>
 </trkpt>
 <trkpt lat="51.369739" lon="6.779306">
 <ele>83.0</ele>
 <time>2014-06-06T19:33:15Z</time>
 </trkpt>
 <trkpt lat="51.369936" lon="6.779356">
 <ele>83.0</ele>
 <time>2014-06-06T19:33:18Z</time>
 </trkpt>
 <trkpt lat="51.370265" lon="6.779426">
 <ele>84.0</ele>
 <time>2014-06-06T19:33:23Z</time>
 </trkpt>
 <trkpt lat="51.370568" lon="6.779534">
 <ele>85.0</ele>
 <time>2014-06-06T19:33:28Z</time>
 </trkpt>
 <trkpt lat="51.370953" lon="6.779629">
 <ele>86.0</ele>
 <time>2014-06-06T19:33:34Z</time>
 </trkpt>
 <trkpt lat="51.37114" lon="6.779669">
 <ele>87.0</ele>
 <time>2014-06-06T19:33:37Z</time>
 </trkpt>
 <trkpt lat="51.371584" lon="6.779716">
 <ele>90.0</ele>
 <time>2014-06-06T19:33:44Z</time>
 </trkpt>
 <trkpt lat="51.371908" lon="6.77979">
 <ele>89.0</ele>
 <time>2014-06-06T19:33:49Z</time>
 </trkpt>
 <trkpt lat="51.372247" lon="6.779898">
 <ele>87.0</ele>
 <time>2014-06-06T19:33:54Z</time>
 </trkpt>
 <trkpt lat="51.372622" lon="6.780008">
 <ele>84.0</ele>
 <time>2014-06-06T19:34:00Z</time>
 </trkpt>
 <trkpt lat="51.372921" lon="6.780039">
 <ele>85.0</ele>
 <time>2014-06-06T19:34:05Z</time>
 </trkpt>
 <trkpt lat="51.373387" lon="6.780126">
 <ele>84.0</ele>
 <time>2014-06-06T19:34:12Z</time>
 </trkpt>
 <trkpt lat="51.373806" lon="6.78029">
 <ele>85.0</ele>
 <time>2014-06-06T19:34:18Z</time>
 </trkpt>
 <trkpt lat="51.37407" lon="6.780388">
 <ele>82.0</ele>
 <time>2014-06-06T19:34:22Z</time>
 </trkpt>
 <trkpt lat="51.374358" lon="6.780405">
 <ele>80.0</ele>
 <time>2014-06-06T19:34:27Z</time>
 </trkpt>
 <trkpt lat="51.374548" lon="6.780463">
 <ele>79.0</ele>
 <time>2014-06-06T19:34:30Z</time>
 </trkpt>
 <trkpt lat="51.374964" lon="6.780558">
 <ele>80.0</ele>
 <time>2014-06-06T19:34:36Z</time>
 </trkpt>
 <trkpt lat="51.375304" lon="6.780632">
 <ele>81.0</ele>
 <time>2014-06-06T19:34:41Z</time>
 </trkpt>
 <trkpt lat="51.375644" lon="6.780705">
 <ele>81.0</ele>
 <time>2014-06-06T19:34:46Z</time>
 </trkpt>
 <trkpt lat="51.376119" lon="6.780784">
 <ele>84.0</ele>
 <time>2014-06-06T19:34:53Z</time>
 </trkpt>
 <trkpt lat="51.37653" lon="6.780885">
 <ele>83.0</ele>
 <time>2014-06-06T19:34:59Z</time>
 </trkpt>
 <trkpt lat="51.376878" lon="6.780953">
 <ele>83.0</ele>
 <time>2014-06-06T19:35:04Z</time>
 </trkpt>
 <trkpt lat="51.377235" lon="6.78108">
 <ele>82.0</ele>
 <time>2014-06-06T19:35:09Z</time>
 </trkpt>
 <trkpt lat="51.377441" lon="6.781122">
 <ele>82.0</ele>
 <time>2014-06-06T19:35:12Z</time>
 </trkpt>
 <trkpt lat="51.377786" lon="6.781175">
 <ele>84.0</ele>
 <time>2014-06-06T19:35:17Z</time>
 </trkpt>
 <trkpt lat="51.378191" lon="6.781234">
 <ele>83.0</ele>
 <time>2014-06-06T19:35:23Z</time>
 </trkpt>
 <trkpt lat="51.378529" lon="6.781316">
 <ele>83.0</ele>
 <time>2014-06-06T19:35:28Z</time>
 </trkpt>
 <trkpt lat="51.378866" lon="6.781402">
 <ele>83.0</ele>
 <time>2014-06-06T19:35:33Z</time>
 </trkpt>
 <trkpt lat="51.37907" lon="6.781476">
 <ele>83.0</ele>
 <time>2014-06-06T19:35:36Z</time>
 </trkpt>
 <trkpt lat="51.379269" lon="6.781529">
 <ele>82.0</ele>
 <time>2014-06-06T19:35:39Z</time>
 </trkpt>
 <trkpt lat="51.379467" lon="6.781577">
 <ele>82.0</ele>
 <time>2014-06-06T19:35:42Z</time>
 </trkpt>
 <trkpt lat="51.379673" lon="6.781625">
 <ele>80.0</ele>
 <time>2014-06-06T19:35:45Z</time>
 </trkpt>
 <trkpt lat="51.380034" lon="6.781688">
 <ele>83.0</ele>
 <time>2014-06-06T19:35:50Z</time>
 </trkpt>
 <trkpt lat="51.380453" lon="6.78178">
 <ele>84.0</ele>
 <time>2014-06-06T19:35:56Z</time>
 </trkpt>
 <trkpt lat="51.380806" lon="6.781914">
 <ele>81.0</ele>
 <time>2014-06-06T19:36:01Z</time>
 </trkpt>
 <trkpt lat="51.381174" lon="6.782013">
 <ele>82.0</ele>
 <time>2014-06-06T19:36:07Z</time>
 </trkpt>
 <trkpt lat="51.38156" lon="6.782105">
 <ele>82.0</ele>
 <time>2014-06-06T19:36:13Z</time>
 </trkpt>
 <trkpt lat="51.381756" lon="6.782144">
 <ele>82.0</ele>
 <time>2014-06-06T19:36:16Z</time>
 </trkpt>
 <trkpt lat="51.382147" lon="6.782215">
 <ele>83.0</ele>
 <time>2014-06-06T19:36:22Z</time>
 </trkpt>
 <trkpt lat="51.382606" lon="6.782314">
 <ele>85.0</ele>
 <time>2014-06-06T19:36:29Z</time>
 </trkpt>
 <trkpt lat="51.382933" lon="6.782364">
 <ele>83.0</ele>
 <time>2014-06-06T19:36:34Z</time>
 </trkpt>
 <trkpt lat="51.383346" lon="6.782476">
 <ele>81.0</ele>
 <time>2014-06-06T19:36:40Z</time>
 </trkpt>
 <trkpt lat="51.383603" lon="6.782506">
 <ele>82.0</ele>
 <time>2014-06-06T19:36:44Z</time>
 </trkpt>
 <trkpt lat="51.383804" lon="6.782558">
 <ele>84.0</ele>
 <time>2014-06-06T19:36:47Z</time>
 </trkpt>
 <trkpt lat="51.383992" lon="6.782605">
 <ele>84.0</ele>
 <time>2014-06-06T19:36:50Z</time>
 </trkpt>
 <trkpt lat="51.384388" lon="6.782687">
 <ele>85.0</ele>
 <time>2014-06-06T19:36:56Z</time>
 </trkpt>
 <trkpt lat="51.384774" lon="6.782788">
 <ele>84.0</ele>
 <time>2014-06-06T19:37:02Z</time>
 </trkpt>
 <trkpt lat="51.385099" lon="6.782861">
 <ele>82.0</ele>
 <time>2014-06-06T19:37:07Z</time>
 </trkpt>
 <trkpt lat="51.385486" lon="6.782957">
 <ele>82.0</ele>
 <time>2014-06-06T19:37:13Z</time>
 </trkpt>
 <trkpt lat="51.385863" lon="6.783072">
 <ele>81.0</ele>
 <time>2014-06-06T19:37:19Z</time>
 </trkpt>
 <trkpt lat="51.386253" lon="6.783184">
 <ele>80.0</ele>
 <time>2014-06-06T19:37:25Z</time>
 </trkpt>
 <trkpt lat="51.386641" lon="6.783256">
 <ele>80.0</ele>
 <time>2014-06-06T19:37:31Z</time>
 </trkpt>
 <trkpt lat="51.38695" lon="6.783336">
 <ele>82.0</ele>
 <time>2014-06-06T19:37:36Z</time>
 </trkpt>
 <trkpt lat="51.387349" lon="6.783478">
 <ele>82.0</ele>
 <time>2014-06-06T19:37:42Z</time>
 </trkpt>
 <trkpt lat="51.387679" lon="6.783582">
 <ele>83.0</ele>
 <time>2014-06-06T19:37:48Z</time>
 </trkpt>
 <trkpt lat="51.388001" lon="6.783702">
 <ele>81.0</ele>
 <time>2014-06-06T19:37:54Z</time>
 </trkpt>
 <trkpt lat="51.388201" lon="6.783946">
 <ele>80.0</ele>
 <time>2014-06-06T19:37:59Z</time>
 </trkpt>
 <trkpt lat="51.388364" lon="6.784073">
 <ele>82.0</ele>
 <time>2014-06-06T19:38:15Z</time>
 </trkpt>
 <trkpt lat="51.388528" lon="6.784158">
 <ele>81.0</ele>
 <time>2014-06-06T19:38:20Z</time>
 </trkpt>
 <trkpt lat="51.388737" lon="6.784295">
 <ele>81.0</ele>
 <time>2014-06-06T19:38:26Z</time>
 </trkpt>
 <trkpt lat="51.388891" lon="6.784533">
 <ele>70.0</ele>
 <time>2014-06-06T19:38:32Z</time>
 </trkpt>
 <trkpt lat="51.389269" lon="6.784694">
 <ele>73.0</ele>
 <time>2014-06-06T19:38:38Z</time>
 </trkpt>
 <trkpt lat="51.389509" lon="6.78489">
 <ele>75.0</ele>
 <time>2014-06-06T19:38:43Z</time>
 </trkpt>
 <trkpt lat="51.389859" lon="6.785229">
 <ele>78.0</ele>
 <time>2014-06-06T19:38:50Z</time>
 </trkpt>
 <trkpt lat="51.390118" lon="6.785489">
 <ele>79.0</ele>
 <time>2014-06-06T19:38:56Z</time>
 </trkpt>
 <trkpt lat="51.39027" lon="6.785634">
 <ele>77.0</ele>
 <time>2014-06-06T19:38:59Z</time>
 </trkpt>
 <trkpt lat="51.390505" lon="6.785833">
 <ele>78.0</ele>
 <time>2014-06-06T19:39:04Z</time>
 </trkpt>
 <trkpt lat="51.390797" lon="6.786028">
 <ele>80.0</ele>
 <time>2014-06-06T19:39:10Z</time>
 </trkpt>
 <trkpt lat="51.390959" lon="6.786108">
 <ele>82.0</ele>
 <time>2014-06-06T19:39:13Z</time>
 </trkpt>
 <trkpt lat="51.391081" lon="6.78628">
 <ele>83.0</ele>
 <time>2014-06-06T19:39:16Z</time>
 </trkpt>
 <trkpt lat="51.391108" lon="6.786864">
 <ele>83.0</ele>
 <time>2014-06-06T19:39:22Z</time>
 </trkpt>
 <trkpt lat="51.391114" lon="6.787365">
 <ele>83.0</ele>
 <time>2014-06-06T19:39:27Z</time>
 </trkpt>
 <trkpt lat="51.391142" lon="6.788005">
 <ele>83.0</ele>
 <time>2014-06-06T19:39:33Z</time>
 </trkpt>
 <trkpt lat="51.391315" lon="6.788729">
 <ele>80.0</ele>
 <time>2014-06-06T19:39:40Z</time>
 </trkpt>
 <trkpt lat="51.39147" lon="6.789177">
 <ele>80.0</ele>
 <time>2014-06-06T19:39:45Z</time>
 </trkpt>
 <trkpt lat="51.391672" lon="6.789736">
 <ele>79.0</ele>
 <time>2014-06-06T19:39:51Z</time>
 </trkpt>
 <trkpt lat="51.391729" lon="6.790016">
 <ele>78.0</ele>
 <time>2014-06-06T19:39:54Z</time>
 </trkpt>
 <trkpt lat="51.391891" lon="6.79045">
 <ele>77.0</ele>
 <time>2014-06-06T19:39:59Z</time>
 </trkpt>
 <trkpt lat="51.392063" lon="6.790936">
 <ele>77.0</ele>
 <time>2014-06-06T19:40:05Z</time>
 </trkpt>
 <trkpt lat="51.392284" lon="6.791271">
 <ele>78.0</ele>
 <time>2014-06-06T19:40:11Z</time>
 </trkpt>
 <trkpt lat="51.392581" lon="6.791047">
 <ele>77.0</ele>
 <time>2014-06-06T19:40:18Z</time>
 </trkpt>
 <trkpt lat="51.392894" lon="6.790879">
 <ele>78.0</ele>
 <time>2014-06-06T19:40:24Z</time>
 </trkpt>
 <trkpt lat="51.393039" lon="6.790708">
 <ele>79.0</ele>
 <time>2014-06-06T19:40:27Z</time>
 </trkpt>
 <trkpt lat="51.393219" lon="6.790439">
 <ele>80.0</ele>
 <time>2014-06-06T19:40:31Z</time>
 </trkpt>
 <trkpt lat="51.39347" lon="6.790156">
 <ele>77.0</ele>
 <time>2014-06-06T19:40:36Z</time>
 </trkpt>
 <trkpt lat="51.39377" lon="6.789752">
 <ele>76.0</ele>
 <time>2014-06-06T19:40:42Z</time>
 </trkpt>
 <trkpt lat="51.394114" lon="6.789421">
 <ele>77.0</ele>
 <time>2014-06-06T19:40:48Z</time>
 </trkpt>
 <trkpt lat="51.394544" lon="6.789093">
 <ele>80.0</ele>
 <time>2014-06-06T19:40:55Z</time>
 </trkpt>
 <trkpt lat="51.394892" lon="6.788585">
 <ele>77.0</ele>
 <time>2014-06-06T19:41:02Z</time>
 </trkpt>
 <trkpt lat="51.395188" lon="6.788173">
 <ele>70.0</ele>
 <time>2014-06-06T19:41:08Z</time>
 </trkpt>
 <trkpt lat="51.395487" lon="6.787848">
 <ele>72.0</ele>
 <time>2014-06-06T19:41:14Z</time>
 </trkpt>
 <trkpt lat="51.395789" lon="6.787488">
 <ele>72.0</ele>
 <time>2014-06-06T19:41:20Z</time>
 </trkpt>
 <trkpt lat="51.396023" lon="6.787175">
 <ele>79.0</ele>
 <time>2014-06-06T19:41:25Z</time>
 </trkpt>
 <trkpt lat="51.39617" lon="6.786989">
 <ele>77.0</ele>
 <time>2014-06-06T19:41:28Z</time>
 </trkpt>
 <trkpt lat="51.396506" lon="6.786688">
 <ele>80.0</ele>
 <time>2014-06-06T19:41:34Z</time>
 </trkpt>
 <trkpt lat="51.396832" lon="6.786352">
 <ele>79.0</ele>
 <time>2014-06-06T19:41:40Z</time>
 </trkpt>
 <trkpt lat="51.397054" lon="6.786121">
 <ele>79.0</ele>
 <time>2014-06-06T19:41:44Z</time>
 </trkpt>
 <trkpt lat="51.397296" lon="6.785824">
 <ele>76.0</ele>
 <time>2014-06-06T19:41:49Z</time>
 </trkpt>
 <trkpt lat="51.397562" lon="6.785525">
 <ele>79.0</ele>
 <time>2014-06-06T19:41:54Z</time>
 </trkpt>
 <trkpt lat="51.397888" lon="6.785184">
 <ele>77.0</ele>
 <time>2014-06-06T19:42:00Z</time>
 </trkpt>
 <trkpt lat="51.398028" lon="6.78499">
 <ele>76.0</ele>
 <time>2014-06-06T19:42:03Z</time>
 </trkpt>
 <trkpt lat="51.398303" lon="6.784597">
 <ele>75.0</ele>
 <time>2014-06-06T19:42:09Z</time>
 </trkpt>
 <trkpt lat="51.398467" lon="6.784378">
 <ele>76.0</ele>
 <time>2014-06-06T19:42:13Z</time>
 </trkpt>
 <trkpt lat="51.398763" lon="6.784094">
 <ele>75.0</ele>
 <time>2014-06-06T19:42:19Z</time>
 </trkpt>
 <trkpt lat="51.399033" lon="6.783807">
 <ele>79.0</ele>
 <time>2014-06-06T19:42:25Z</time>
 </trkpt>
 <trkpt lat="51.39921" lon="6.783442">
 <ele>80.0</ele>
 <time>2014-06-06T19:42:30Z</time>
 </trkpt>
 <trkpt lat="51.399479" lon="6.783164">
 <ele>77.0</ele>
 <time>2014-06-06T19:42:35Z</time>
 </trkpt>
 <trkpt lat="51.399794" lon="6.782761">
 <ele>72.0</ele>
 <time>2014-06-06T19:42:42Z</time>
 </trkpt>
 <trkpt lat="51.400218" lon="6.782426">
 <ele>77.0</ele>
 <time>2014-06-06T19:42:49Z</time>
 </trkpt>
 <trkpt lat="51.400517" lon="6.78225">
 <ele>81.0</ele>
 <time>2014-06-06T19:42:54Z</time>
 </trkpt>
 <trkpt lat="51.400861" lon="6.781915">
 <ele>83.0</ele>
 <time>2014-06-06T19:43:01Z</time>
 </trkpt>
 <trkpt lat="51.401111" lon="6.781676">
 <ele>76.0</ele>
 <time>2014-06-06T19:43:06Z</time>
 </trkpt>
 <trkpt lat="51.401393" lon="6.78142">
 <ele>68.0</ele>
 <time>2014-06-06T19:43:11Z</time>
 </trkpt>
 <trkpt lat="51.401745" lon="6.781173">
 <ele>69.0</ele>
 <time>2014-06-06T19:43:17Z</time>
 </trkpt>
 <trkpt lat="51.402039" lon="6.780773">
 <ele>72.0</ele>
 <time>2014-06-06T19:43:23Z</time>
 </trkpt>
 <trkpt lat="51.402368" lon="6.780504">
 <ele>74.0</ele>
 <time>2014-06-06T19:43:29Z</time>
 </trkpt>
 <trkpt lat="51.402762" lon="6.780146">
 <ele>75.0</ele>
 <time>2014-06-06T19:43:36Z</time>
 </trkpt>
 <trkpt lat="51.40299" lon="6.77987">
 <ele>74.0</ele>
 <time>2014-06-06T19:43:41Z</time>
 </trkpt>
 <trkpt lat="51.403303" lon="6.779563">
 <ele>69.0</ele>
 <time>2014-06-06T19:43:47Z</time>
 </trkpt>
 <trkpt lat="51.403661" lon="6.779308">
 <ele>72.0</ele>
 <time>2014-06-06T19:43:53Z</time>
 </trkpt>
 <trkpt lat="51.403977" lon="6.778934">
 <ele>71.0</ele>
 <time>2014-06-06T19:43:59Z</time>
 </trkpt>
 <trkpt lat="51.404249" lon="6.778661">
 <ele>69.0</ele>
 <time>2014-06-06T19:44:04Z</time>
 </trkpt>
 <trkpt lat="51.404506" lon="6.77837">
 <ele>73.0</ele>
 <time>2014-06-06T19:44:08Z</time>
 </trkpt>
 <trkpt lat="51.404862" lon="6.778093">
 <ele>66.0</ele>
 <time>2014-06-06T19:44:14Z</time>
 </trkpt>
 <trkpt lat="51.40516" lon="6.777875">
 <ele>70.0</ele>
 <time>2014-06-06T19:44:19Z</time>
 </trkpt>
 <trkpt lat="51.405425" lon="6.777608">
 <ele>68.0</ele>
 <time>2014-06-06T19:44:24Z</time>
 </trkpt>
 <trkpt lat="51.40575" lon="6.77731">
 <ele>65.0</ele>
 <time>2014-06-06T19:44:30Z</time>
 </trkpt>
 <trkpt lat="51.406081" lon="6.77694">
 <ele>67.0</ele>
 <time>2014-06-06T19:44:36Z</time>
 </trkpt>
 <trkpt lat="51.40646" lon="6.776578">
 <ele>69.0</ele>
 <time>2014-06-06T19:44:43Z</time>
 </trkpt>
 <trkpt lat="51.406765" lon="6.776392">
 <ele>72.0</ele>
 <time>2014-06-06T19:44:48Z</time>
 </trkpt>
 <trkpt lat="51.406932" lon="6.776243">
 <ele>74.0</ele>
 <time>2014-06-06T19:44:51Z</time>
 </trkpt>
 <trkpt lat="51.407168" lon="6.776024">
 <ele>78.0</ele>
 <time>2014-06-06T19:44:55Z</time>
 </trkpt>
 <trkpt lat="51.407396" lon="6.775855">
 <ele>80.0</ele>
 <time>2014-06-06T19:44:59Z</time>
 </trkpt>
 <trkpt lat="51.407703" lon="6.775591">
 <ele>81.0</ele>
 <time>2014-06-06T19:45:05Z</time>
 </trkpt>
 <trkpt lat="51.408138" lon="6.775212">
 <ele>84.0</ele>
 <time>2014-06-06T19:45:13Z</time>
 </trkpt>
 <trkpt lat="51.408404" lon="6.774953">
 <ele>80.0</ele>
 <time>2014-06-06T19:45:18Z</time>
 </trkpt>
 <trkpt lat="51.408752" lon="6.774662">
 <ele>76.0</ele>
 <time>2014-06-06T19:45:24Z</time>
 </trkpt>
 <trkpt lat="51.409039" lon="6.774443">
 <ele>75.0</ele>
 <time>2014-06-06T19:45:29Z</time>
 </trkpt>
 <trkpt lat="51.409357" lon="6.774282">
 <ele>74.0</ele>
 <time>2014-06-06T19:45:34Z</time>
 </trkpt>
 <trkpt lat="51.409708" lon="6.774245">
 <ele>72.0</ele>
 <time>2014-06-06T19:45:40Z</time>
 </trkpt>
 <trkpt lat="51.410051" lon="6.774196">
 <ele>75.0</ele>
 <time>2014-06-06T19:45:46Z</time>
 </trkpt>
 <trkpt lat="51.410225" lon="6.77417">
 <ele>78.0</ele>
 <time>2014-06-06T19:45:49Z</time>
 </trkpt>
 <trkpt lat="51.410412" lon="6.774175">
 <ele>79.0</ele>
 <time>2014-06-06T19:45:52Z</time>
 </trkpt>
 <trkpt lat="51.410744" lon="6.774148">
 <ele>77.0</ele>
 <time>2014-06-06T19:45:58Z</time>
 </trkpt>
 <trkpt lat="51.41112" lon="6.774122">
 <ele>78.0</ele>
 <time>2014-06-06T19:46:04Z</time>
 </trkpt>
 <trkpt lat="51.411459" lon="6.774034">
 <ele>79.0</ele>
 <time>2014-06-06T19:46:10Z</time>
 </trkpt>
 <trkpt lat="51.411657" lon="6.774094">
 <ele>78.0</ele>
 <time>2014-06-06T19:46:16Z</time>
 </trkpt>
 <trkpt lat="51.41219" lon="6.774013">
 <ele>75.0</ele>
 <time>2014-06-06T19:46:23Z</time>
 </trkpt>
 <trkpt lat="51.412616" lon="6.774094">
 <ele>78.0</ele>
 <time>2014-06-06T19:46:29Z</time>
 </trkpt>
 <trkpt lat="51.412872" lon="6.774023">
 <ele>78.0</ele>
 <time>2014-06-06T19:46:33Z</time>
 </trkpt>
 <trkpt lat="51.413222" lon="6.773963">
 <ele>76.0</ele>
 <time>2014-06-06T19:46:39Z</time>
 </trkpt>
 <trkpt lat="51.413639" lon="6.773957">
 <ele>74.0</ele>
 <time>2014-06-06T19:46:45Z</time>
 </trkpt>
 <trkpt lat="51.413995" lon="6.774091">
 <ele>74.0</ele>
 <time>2014-06-06T19:46:51Z</time>
 </trkpt>
 <trkpt lat="51.414094" lon="6.774491">
 <ele>75.0</ele>
 <time>2014-06-06T19:46:55Z</time>
 </trkpt>
 <trkpt lat="51.414133" lon="6.775288">
 <ele>74.0</ele>
 <time>2014-06-06T19:47:02Z</time>
 </trkpt>
 <trkpt lat="51.414187" lon="6.775801">
 <ele>74.0</ele>
 <time>2014-06-06T19:47:07Z</time>
 </trkpt>
 <trkpt lat="51.41433" lon="6.776306">
 <ele>76.0</ele>
 <time>2014-06-06T19:47:13Z</time>
 </trkpt>
 <trkpt lat="51.414545" lon="6.776734">
 <ele>78.0</ele>
 <time>2014-06-06T19:47:19Z</time>
 </trkpt>
 <trkpt lat="51.414762" lon="6.77698">
 <ele>79.0</ele>
 <time>2014-06-06T19:47:24Z</time>
 </trkpt>
 <trkpt lat="51.414895" lon="6.777129">
 <ele>79.0</ele>
 <time>2014-06-06T19:47:27Z</time>
 </trkpt>
 <trkpt lat="51.415159" lon="6.777444">
 <ele>80.0</ele>
 <time>2014-06-06T19:47:33Z</time>
 </trkpt>
 <trkpt lat="51.415372" lon="6.777685">
 <ele>80.0</ele>
 <time>2014-06-06T19:47:38Z</time>
 </trkpt>
 <trkpt lat="51.415602" lon="6.777947">
 <ele>81.0</ele>
 <time>2014-06-06T19:47:43Z</time>
 </trkpt>
 <trkpt lat="51.415875" lon="6.778261">
 <ele>83.0</ele>
 <time>2014-06-06T19:47:49Z</time>
 </trkpt>
 <trkpt lat="51.416072" lon="6.778495">
 <ele>85.0</ele>
 <time>2014-06-06T19:47:53Z</time>
 </trkpt>
 <trkpt lat="51.416332" lon="6.778793">
 <ele>86.0</ele>
 <time>2014-06-06T19:47:58Z</time>
 </trkpt>
 <trkpt lat="51.416603" lon="6.779111">
 <ele>84.0</ele>
 <time>2014-06-06T19:48:03Z</time>
 </trkpt>
 <trkpt lat="51.41686" lon="6.779437">
 <ele>84.0</ele>
 <time>2014-06-06T19:48:07Z</time>
 </trkpt>
 <trkpt lat="51.417151" lon="6.779798">
 <ele>83.0</ele>
 <time>2014-06-06T19:48:12Z</time>
 </trkpt>
 <trkpt lat="51.417464" lon="6.780165">
 <ele>84.0</ele>
 <time>2014-06-06T19:48:18Z</time>
 </trkpt>
 <trkpt lat="51.417717" lon="6.780467">
 <ele>86.0</ele>
 <time>2014-06-06T19:48:23Z</time>
 </trkpt>
 <trkpt lat="51.417963" lon="6.780716">
 <ele>84.0</ele>
 <time>2014-06-06T19:48:28Z</time>
 </trkpt>
 <trkpt lat="51.418209" lon="6.780994">
 <ele>84.0</ele>
 <time>2014-06-06T19:48:33Z</time>
 </trkpt>
 <trkpt lat="51.418492" lon="6.781341">
 <ele>84.0</ele>
 <time>2014-06-06T19:48:39Z</time>
 </trkpt>
 <trkpt lat="51.418756" lon="6.781684">
 <ele>84.0</ele>
 <time>2014-06-06T19:48:45Z</time>
 </trkpt>
 <trkpt lat="51.419016" lon="6.78208">
 <ele>81.0</ele>
 <time>2014-06-06T19:48:52Z</time>
 </trkpt>
 <trkpt lat="51.419095" lon="6.782291">
 <ele>80.0</ele>
 <time>2014-06-06T19:48:58Z</time>
 </trkpt>
 <trkpt lat="51.419352" lon="6.782613">
 <ele>83.0</ele>
 <time>2014-06-06T19:49:06Z</time>
 </trkpt>
 <trkpt lat="51.419572" lon="6.78291">
 <ele>84.0</ele>
 <time>2014-06-06T19:49:12Z</time>
 </trkpt>
 <trkpt lat="51.419763" lon="6.783139">
 <ele>86.0</ele>
 <time>2014-06-06T19:49:17Z</time>
 </trkpt>
 <trkpt lat="51.419959" lon="6.783379">
 <ele>85.0</ele>
 <time>2014-06-06T19:49:22Z</time>
 </trkpt>
 <trkpt lat="51.420187" lon="6.783646">
 <ele>85.0</ele>
 <time>2014-06-06T19:49:28Z</time>
 </trkpt>
 <trkpt lat="51.420425" lon="6.783909">
 <ele>86.0</ele>
 <time>2014-06-06T19:49:34Z</time>
 </trkpt>
 <trkpt lat="51.420609" lon="6.784107">
 <ele>87.0</ele>
 <time>2014-06-06T19:49:39Z</time>
 </trkpt>
 <trkpt lat="51.42079" lon="6.784442">
 <ele>87.0</ele>
 <time>2014-06-06T19:49:45Z</time>
 </trkpt>
 <trkpt lat="51.421084" lon="6.784667">
 <ele>85.0</ele>
 <time>2014-06-06T19:49:52Z</time>
 </trkpt>
 <trkpt lat="51.42131" lon="6.784856">
 <ele>86.0</ele>
 <time>2014-06-06T19:49:57Z</time>
 </trkpt>
 <trkpt lat="51.42157" lon="6.785064">
 <ele>90.0</ele>
 <time>2014-06-06T19:50:03Z</time>
 </trkpt>
 <trkpt lat="51.421823" lon="6.785298">
 <ele>87.0</ele>
 <time>2014-06-06T19:50:08Z</time>
 </trkpt>
 <trkpt lat="51.422096" lon="6.785598">
 <ele>86.0</ele>
 <time>2014-06-06T19:50:14Z</time>
 </trkpt>
 <trkpt lat="51.422268" lon="6.785837">
 <ele>86.0</ele>
 <time>2014-06-06T19:50:18Z</time>
 </trkpt>
 <trkpt lat="51.422468" lon="6.786014">
 <ele>87.0</ele>
 <time>2014-06-06T19:50:22Z</time>
 </trkpt>
 <trkpt lat="51.422712" lon="6.786291">
 <ele>86.0</ele>
 <time>2014-06-06T19:50:27Z</time>
 </trkpt>
 <trkpt lat="51.423108" lon="6.786773">
 <ele>83.0</ele>
 <time>2014-06-06T19:50:35Z</time>
 </trkpt>
 <trkpt lat="51.423404" lon="6.787141">
 <ele>83.0</ele>
 <time>2014-06-06T19:50:41Z</time>
 </trkpt>
 <trkpt lat="51.423636" lon="6.787386">
 <ele>86.0</ele>
 <time>2014-06-06T19:50:46Z</time>
 </trkpt>
 <trkpt lat="51.423917" lon="6.787694">
 <ele>88.0</ele>
 <time>2014-06-06T19:50:52Z</time>
 </trkpt>
 <trkpt lat="51.424128" lon="6.787994">
 <ele>90.0</ele>
 <time>2014-06-06T19:50:58Z</time>
 </trkpt>
 <trkpt lat="51.424153" lon="6.788133">
 <ele>88.0</ele>
 <time>2014-06-06T19:51:04Z</time>
 </trkpt>
 <trkpt lat="51.424505" lon="6.788504">
 <ele>85.0</ele>
 <time>2014-06-06T19:51:15Z</time>
 </trkpt>
 <trkpt lat="51.424752" lon="6.788757">
 <ele>87.0</ele>
 <time>2014-06-06T19:51:21Z</time>
 </trkpt>
 <trkpt lat="51.424962" lon="6.788981">
 <ele>92.0</ele>
 <time>2014-06-06T19:51:26Z</time>
 </trkpt>
 <trkpt lat="51.42517" lon="6.789286">
 <ele>89.0</ele>
 <time>2014-06-06T19:51:31Z</time>
 </trkpt>
 <trkpt lat="51.425513" lon="6.789701">
 <ele>87.0</ele>
 <time>2014-06-06T19:51:38Z</time>
 </trkpt>
 <trkpt lat="51.425764" lon="6.790013">
 <ele>85.0</ele>
 <time>2014-06-06T19:51:44Z</time>
 </trkpt>
 <trkpt lat="51.425959" lon="6.790217">
 <ele>83.0</ele>
 <time>2014-06-06T19:51:48Z</time>
 </trkpt>
 <trkpt lat="51.426233" lon="6.790534">
 <ele>86.0</ele>
 <time>2014-06-06T19:51:54Z</time>
 </trkpt>
 <trkpt lat="51.426506" lon="6.790902">
 <ele>90.0</ele>
 <time>2014-06-06T19:52:00Z</time>
 </trkpt>
 <trkpt lat="51.426793" lon="6.791236">
 <ele>88.0</ele>
 <time>2014-06-06T19:52:06Z</time>
 </trkpt>
 <trkpt lat="51.42707" lon="6.791555">
 <ele>89.0</ele>
 <time>2014-06-06T19:52:12Z</time>
 </trkpt>
 <trkpt lat="51.42735" lon="6.791889">
 <ele>88.0</ele>
 <time>2014-06-06T19:52:18Z</time>
 </trkpt>
 <trkpt lat="51.427577" lon="6.792133">
 <ele>87.0</ele>
 <time>2014-06-06T19:52:23Z</time>
 </trkpt>
 <trkpt lat="51.427803" lon="6.792449">
 <ele>85.0</ele>
 <time>2014-06-06T19:52:28Z</time>
 </trkpt>
 <trkpt lat="51.428087" lon="6.792784">
 <ele>86.0</ele>
 <time>2014-06-06T19:52:35Z</time>
 </trkpt>
 <trkpt lat="51.428329" lon="6.793063">
 <ele>87.0</ele>
 <time>2014-06-06T19:52:41Z</time>
 </trkpt>
 <trkpt lat="51.428641" lon="6.793362">
 <ele>88.0</ele>
 <time>2014-06-06T19:52:48Z</time>
 </trkpt>
 <trkpt lat="51.428939" lon="6.793595">
 <ele>87.0</ele>
 <time>2014-06-06T19:52:54Z</time>
 </trkpt>
 <trkpt lat="51.429199" lon="6.793762">
 <ele>87.0</ele>
 <time>2014-06-06T19:52:59Z</time>
 </trkpt>
 <trkpt lat="51.429464" lon="6.793928">
 <ele>86.0</ele>
 <time>2014-06-06T19:53:04Z</time>
 </trkpt>
 <trkpt lat="51.429802" lon="6.794185">
 <ele>89.0</ele>
 <time>2014-06-06T19:53:10Z</time>
 </trkpt>
 <trkpt lat="51.43016" lon="6.794339">
 <ele>94.0</ele>
 <time>2014-06-06T19:53:17Z</time>
 </trkpt>
 <trkpt lat="51.430479" lon="6.794602">
 <ele>90.0</ele>
 <time>2014-06-06T19:53:23Z</time>
 </trkpt>
 <trkpt lat="51.430839" lon="6.79482">
 <ele>91.0</ele>
 <time>2014-06-06T19:53:30Z</time>
 </trkpt>
 <trkpt lat="51.431101" lon="6.795023">
 <ele>92.0</ele>
 <time>2014-06-06T19:53:35Z</time>
 </trkpt>
 <trkpt lat="51.431435" lon="6.795245">
 <ele>95.0</ele>
 <time>2014-06-06T19:53:41Z</time>
 </trkpt>
 <trkpt lat="51.43164" lon="6.795419">
 <ele>97.0</ele>
 <time>2014-06-06T19:53:46Z</time>
 </trkpt>
 <trkpt lat="51.431685" lon="6.795483">
 <ele>96.0</ele>
 <time>2014-06-06T19:53:54Z</time>
 </trkpt>
 <trkpt lat="51.432144" lon="6.79583">
 <ele>94.0</ele>
 <time>2014-06-06T19:54:07Z</time>
 </trkpt>
 <trkpt lat="51.432419" lon="6.796027">
 <ele>90.0</ele>
 <time>2014-06-06T19:54:13Z</time>
 </trkpt>
 <trkpt lat="51.432681" lon="6.796235">
 <ele>87.0</ele>
 <time>2014-06-06T19:54:19Z</time>
 </trkpt>
 <trkpt lat="51.432818" lon="6.796326">
 <ele>88.0</ele>
 <time>2014-06-06T19:54:22Z</time>
 </trkpt>
 <trkpt lat="51.432972" lon="6.796434">
 <ele>90.0</ele>
 <time>2014-06-06T19:54:26Z</time>
 </trkpt>
 <trkpt lat="51.433134" lon="6.796583">
 <ele>89.0</ele>
 <time>2014-06-06T19:54:32Z</time>
 </trkpt>
 <trkpt lat="51.433359" lon="6.796693">
 <ele>88.0</ele>
 <time>2014-06-06T19:54:39Z</time>
 </trkpt>
 <trkpt lat="51.433577" lon="6.796564">
 <ele>88.0</ele>
 <time>2014-06-06T19:54:44Z</time>
 </trkpt>
 <trkpt lat="51.433896" lon="6.796467">
 <ele>90.0</ele>
 <time>2014-06-06T19:54:50Z</time>
 </trkpt>
 <trkpt lat="51.434273" lon="6.796343">
 <ele>93.0</ele>
 <time>2014-06-06T19:54:57Z</time>
 </trkpt>
 <trkpt lat="51.434576" lon="6.796214">
 <ele>94.0</ele>
 <time>2014-06-06T19:55:03Z</time>
 </trkpt>
 <trkpt lat="51.434901" lon="6.796124">
 <ele>96.0</ele>
 <time>2014-06-06T19:55:09Z</time>
 </trkpt>
 <trkpt lat="51.435326" lon="6.796111">
 <ele>87.0</ele>
 <time>2014-06-06T19:55:16Z</time>
 </trkpt>
 <trkpt lat="51.435599" lon="6.796091">
 <ele>88.0</ele>
 <time>2014-06-06T19:55:21Z</time>
 </trkpt>
 <trkpt lat="51.435941" lon="6.796124">
 <ele>88.0</ele>
 <time>2014-06-06T19:55:27Z</time>
 </trkpt>
 <trkpt lat="51.436258" lon="6.796107">
 <ele>89.0</ele>
 <time>2014-06-06T19:55:33Z</time>
 </trkpt>
 <trkpt lat="51.436555" lon="6.796052">
 <ele>91.0</ele>
 <time>2014-06-06T19:55:39Z</time>
 </trkpt>
 <trkpt lat="51.436806" lon="6.796028">
 <ele>92.0</ele>
 <time>2014-06-06T19:55:44Z</time>
 </trkpt>
 <trkpt lat="51.437118" lon="6.796016">
 <ele>90.0</ele>
 <time>2014-06-06T19:55:50Z</time>
 </trkpt>
 <trkpt lat="51.43743" lon="6.795995">
 <ele>91.0</ele>
 <time>2014-06-06T19:55:56Z</time>
 </trkpt>
 <trkpt lat="51.437727" lon="6.795874">
 <ele>90.0</ele>
 <time>2014-06-06T19:56:01Z</time>
 </trkpt>
 <trkpt lat="51.438067" lon="6.795767">
 <ele>87.0</ele>
 <time>2014-06-06T19:56:06Z</time>
 </trkpt>
 <trkpt lat="51.438486" lon="6.79567">
 <ele>85.0</ele>
 <time>2014-06-06T19:56:12Z</time>
 </trkpt>
 <trkpt lat="51.438917" lon="6.795596">
 <ele>84.0</ele>
 <time>2014-06-06T19:56:18Z</time>
 </trkpt>
 <trkpt lat="51.439368" lon="6.795476">
 <ele>87.0</ele>
 <time>2014-06-06T19:56:24Z</time>
 </trkpt>
 <trkpt lat="51.43974" lon="6.795468">
 <ele>85.0</ele>
 <time>2014-06-06T19:56:29Z</time>
 </trkpt>
 <trkpt lat="51.440417" lon="6.795441">
 <ele>81.0</ele>
 <time>2014-06-06T19:56:37Z</time>
 </trkpt>
 <trkpt lat="51.440808" lon="6.795386">
 <ele>81.0</ele>
 <time>2014-06-06T19:56:42Z</time>
 </trkpt>
 <trkpt lat="51.441046" lon="6.795358">
 <ele>81.0</ele>
 <time>2014-06-06T19:56:45Z</time>
 </trkpt>
 <trkpt lat="51.441376" lon="6.795337">
 <ele>80.0</ele>
 <time>2014-06-06T19:56:49Z</time>
 </trkpt>
 <trkpt lat="51.4419" lon="6.795247">
 <ele>80.0</ele>
 <time>2014-06-06T19:56:55Z</time>
 </trkpt>
 <trkpt lat="51.442482" lon="6.794807">
 <ele>75.0</ele>
 <time>2014-06-06T19:57:02Z</time>
 </trkpt>
 <trkpt lat="51.442765" lon="6.794521">
 <ele>72.0</ele>
 <time>2014-06-06T19:57:07Z</time>
 </trkpt>
 <trkpt lat="51.442954" lon="6.794442">
 <ele>69.0</ele>
 <time>2014-06-06T19:57:10Z</time>
 </trkpt>
 <trkpt lat="51.4433" lon="6.794423">
 <ele>67.0</ele>
 <time>2014-06-06T19:57:15Z</time>
 </trkpt>
 <trkpt lat="51.443531" lon="6.794447">
 <ele>67.0</ele>
 <time>2014-06-06T19:57:18Z</time>
 </trkpt>
 <trkpt lat="51.443909" lon="6.794496">
 <ele>69.0</ele>
 <time>2014-06-06T19:57:23Z</time>
 </trkpt>
 <trkpt lat="51.444268" lon="6.794494">
 <ele>70.0</ele>
 <time>2014-06-06T19:57:28Z</time>
 </trkpt>
 <trkpt lat="51.444649" lon="6.794524">
 <ele>74.0</ele>
 <time>2014-06-06T19:57:34Z</time>
 </trkpt>
 <trkpt lat="51.444996" lon="6.794573">
 <ele>74.0</ele>
 <time>2014-06-06T19:57:40Z</time>
 </trkpt>
 <trkpt lat="51.44527" lon="6.794512">
 <ele>75.0</ele>
 <time>2014-06-06T19:57:45Z</time>
 </trkpt>
 <trkpt lat="51.445603" lon="6.794427">
 <ele>74.0</ele>
 <time>2014-06-06T19:57:51Z</time>
 </trkpt>
 <trkpt lat="51.44583" lon="6.794202">
 <ele>74.0</ele>
 <time>2014-06-06T19:57:56Z</time>
 </trkpt>
 <trkpt lat="51.446025" lon="6.793746">
 <ele>75.0</ele>
 <time>2014-06-06T19:58:02Z</time>
 </trkpt>
 <trkpt lat="51.44625" lon="6.793361">
 <ele>75.0</ele>
 <time>2014-06-06T19:58:08Z</time>
 </trkpt>
 <trkpt lat="51.446489" lon="6.792949">
 <ele>77.0</ele>
 <time>2014-06-06T19:58:14Z</time>
 </trkpt>
 <trkpt lat="51.446646" lon="6.792602">
 <ele>73.0</ele>
 <time>2014-06-06T19:58:20Z</time>
 </trkpt>
 <trkpt lat="51.446819" lon="6.79233">
 <ele>74.0</ele>
 <time>2014-06-06T19:58:26Z</time>
 </trkpt>
 <trkpt lat="51.446945" lon="6.792118">
 <ele>69.0</ele>
 <time>2014-06-06T19:58:32Z</time>
 </trkpt>
 <trkpt lat="51.447069" lon="6.791881">
 <ele>70.0</ele>
 <time>2014-06-06T19:58:38Z</time>
 </trkpt>
 <trkpt lat="51.447238" lon="6.791627">
 <ele>73.0</ele>
 <time>2014-06-06T19:58:46Z</time>
 </trkpt>
 <trkpt lat="51.447426" lon="6.791462">
 <ele>77.0</ele>
 <time>2014-06-06T19:58:56Z</time>
 </trkpt>
 <trkpt lat="51.447601" lon="6.79135">
 <ele>78.0</ele>
 <time>2014-06-06T19:59:06Z</time>
 </trkpt>
 <trkpt lat="51.447785" lon="6.791214">
 <ele>77.0</ele>
 <time>2014-06-06T19:59:18Z</time>
 </trkpt>
 <trkpt lat="51.448018" lon="6.791238">
 <ele>77.0</ele>
 <time>2014-06-06T19:59:27Z</time>
 </trkpt>
 <trkpt lat="51.448108" lon="6.79131">
 <ele>76.0</ele>
 <time>2014-06-06T19:59:38Z</time>
 </trkpt>
 <trkpt lat="51.448284" lon="6.791338">
 <ele>77.0</ele>
 <time>2014-06-06T19:59:45Z</time>
 </trkpt>
 <trkpt lat="51.448456" lon="6.7915">
 <ele>78.0</ele>
 <time>2014-06-06T19:59:50Z</time>
 </trkpt>
 <trkpt lat="51.448639" lon="6.791466">
 <ele>78.0</ele>
 <time>2014-06-06T19:59:55Z</time>
 </trkpt>
 <trkpt lat="51.448886" lon="6.79158">
 <ele>79.0</ele>
 <time>2014-06-06T20:00:01Z</time>
 </trkpt>
 <trkpt lat="51.449077" lon="6.791656">
 <ele>79.0</ele>
 <time>2014-06-06T20:00:06Z</time>
 </trkpt>
 <trkpt lat="51.449316" lon="6.79173">
 <ele>80.0</ele>
 <time>2014-06-06T20:00:12Z</time>
 </trkpt>
 <trkpt lat="51.449514" lon="6.791837">
 <ele>78.0</ele>
 <time>2014-06-06T20:00:17Z</time>
 </trkpt>
 <trkpt lat="51.44973" lon="6.791938">
 <ele>80.0</ele>
 <time>2014-06-06T20:00:22Z</time>
 </trkpt>
 <trkpt lat="51.450006" lon="6.79209">
 <ele>83.0</ele>
 <time>2014-06-06T20:00:28Z</time>
 </trkpt>
 <trkpt lat="51.450236" lon="6.792222">
 <ele>80.0</ele>
 <time>2014-06-06T20:00:33Z</time>
 </trkpt>
 <trkpt lat="51.450508" lon="6.792389">
 <ele>78.0</ele>
 <time>2014-06-06T20:00:40Z</time>
 </trkpt>
 <trkpt lat="51.450508" lon="6.792389">
 <ele>78.0</ele>
 <time>2014-06-06T20:00:46Z</time>
 </trkpt>
 <trkpt lat="51.450508" lon="6.792389">
 <time>2014-06-06T20:00:46Z</time>
 </trkpt>
 </trkseg>
 <trkseg>
 <trkpt lat="51.450508" lon="6.792389">
 <time>2014-06-06T20:01:50Z</time>
 </trkpt>
 <trkpt lat="51.450666" lon="6.792399">
 <ele>83.0</ele>
 <time>2014-06-06T20:01:50Z</time>
 </trkpt>
 <trkpt lat="51.450815" lon="6.792502">
 <ele>81.0</ele>
 <time>2014-06-06T20:01:56Z</time>
 </trkpt>
 <trkpt lat="51.450961" lon="6.792555">
 <ele>81.0</ele>
 <time>2014-06-06T20:02:01Z</time>
 </trkpt>
 <trkpt lat="51.451285" lon="6.792719">
 <ele>83.0</ele>
 <time>2014-06-06T20:02:10Z</time>
 </trkpt>
 <trkpt lat="51.451515" lon="6.792816">
 <ele>80.0</ele>
 <time>2014-06-06T20:02:15Z</time>
 </trkpt>
 <trkpt lat="51.451854" lon="6.792958">
 <ele>79.0</ele>
 <time>2014-06-06T20:02:21Z</time>
 </trkpt>
 <trkpt lat="51.452156" lon="6.793103">
 <ele>77.0</ele>
 <time>2014-06-06T20:02:27Z</time>
 </trkpt>
 <trkpt lat="51.452558" lon="6.793068">
 <ele>78.0</ele>
 <time>2014-06-06T20:02:33Z</time>
 </trkpt>
 <trkpt lat="51.452873" lon="6.793167">
 <ele>74.0</ele>
 <time>2014-06-06T20:02:39Z</time>
 </trkpt>
 <trkpt lat="51.453127" lon="6.793235">
 <ele>68.0</ele>
 <time>2014-06-06T20:02:44Z</time>
 </trkpt>
 <trkpt lat="51.453535" lon="6.793321">
 <ele>70.0</ele>
 <time>2014-06-06T20:02:50Z</time>
 </trkpt>
 <trkpt lat="51.45392" lon="6.793384">
 <ele>71.0</ele>
 <time>2014-06-06T20:02:56Z</time>
 </trkpt>
 <trkpt lat="51.454291" lon="6.793601">
 <ele>73.0</ele>
 <time>2014-06-06T20:03:02Z</time>
 </trkpt>
 <trkpt lat="51.454621" lon="6.793784">
 <ele>74.0</ele>
 <time>2014-06-06T20:03:07Z</time>
 </trkpt>
 <trkpt lat="51.454952" lon="6.793961">
 <ele>78.0</ele>
 <time>2014-06-06T20:03:12Z</time>
 </trkpt>
 <trkpt lat="51.455132" lon="6.794077">
 <ele>78.0</ele>
 <time>2014-06-06T20:03:15Z</time>
 </trkpt>
 <trkpt lat="51.455406" lon="6.794269">
 <ele>77.0</ele>
 <time>2014-06-06T20:03:19Z</time>
 </trkpt>
 <trkpt lat="51.455728" lon="6.794422">
 <ele>76.0</ele>
 <time>2014-06-06T20:03:24Z</time>
 </trkpt>
 <trkpt lat="51.455904" lon="6.79454">
 <ele>75.0</ele>
 <time>2014-06-06T20:03:27Z</time>
 </trkpt>
 <trkpt lat="51.456057" lon="6.794687">
 <ele>73.0</ele>
 <time>2014-06-06T20:03:30Z</time>
 </trkpt>
 <trkpt lat="51.456365" lon="6.794963">
 <ele>74.0</ele>
 <time>2014-06-06T20:03:36Z</time>
 </trkpt>
 <trkpt lat="51.456583" lon="6.795173">
 <ele>74.0</ele>
 <time>2014-06-06T20:03:41Z</time>
 </trkpt>
 <trkpt lat="51.456711" lon="6.795324">
 <ele>72.0</ele>
 <time>2014-06-06T20:03:44Z</time>
 </trkpt>
 <trkpt lat="51.45692" lon="6.795564">
 <ele>70.0</ele>
 <time>2014-06-06T20:03:49Z</time>
 </trkpt>
 <trkpt lat="51.457132" lon="6.795907">
 <ele>67.0</ele>
 <time>2014-06-06T20:03:56Z</time>
 </trkpt>
 <trkpt lat="51.457235" lon="6.796136">
 <ele>64.0</ele>
 <time>2014-06-06T20:04:02Z</time>
 </trkpt>
 <trkpt lat="51.45728" lon="6.796167">
 <ele>66.0</ele>
 <time>2014-06-06T20:04:06Z</time>
 </trkpt>
 <trkpt lat="51.45728" lon="6.796167">
 <time>2014-06-06T20:04:12Z</time>
 </trkpt>
 </trkseg>
 <trkseg>
 <trkpt lat="51.45728" lon="6.796167">
 <time>2014-06-06T20:04:16Z</time>
 </trkpt>
 <trkpt lat="51.457392" lon="6.796177">
 <ele>67.0</ele>
 <time>2014-06-06T20:04:16Z</time>
 </trkpt>
 <trkpt lat="51.457603" lon="6.796127">
 <ele>66.0</ele>
 <time>2014-06-06T20:04:22Z</time>
 </trkpt>
 <trkpt lat="51.457759" lon="6.79584">
 <ele>64.0</ele>
 <time>2014-06-06T20:04:28Z</time>
 </trkpt>
 <trkpt lat="51.457942" lon="6.795554">
 <ele>65.0</ele>
 <time>2014-06-06T20:04:34Z</time>
 </trkpt>
 <trkpt lat="51.458094" lon="6.795312">
 <ele>65.0</ele>
 <time>2014-06-06T20:04:39Z</time>
 </trkpt>
 <trkpt lat="51.458321" lon="6.794964">
 <ele>67.0</ele>
 <time>2014-06-06T20:04:45Z</time>
 </trkpt>
 <trkpt lat="51.458536" lon="6.794713">
 <ele>70.0</ele>
 <time>2014-06-06T20:04:50Z</time>
 </trkpt>
 <trkpt lat="51.458799" lon="6.795085">
 <ele>68.0</ele>
 <time>2014-06-06T20:04:56Z</time>
 </trkpt>
 <trkpt lat="51.458979" lon="6.795389">
 <ele>67.0</ele>
 <time>2014-06-06T20:05:00Z</time>
 </trkpt>
 <trkpt lat="51.459214" lon="6.795889">
 <ele>65.0</ele>
 <time>2014-06-06T20:05:06Z</time>
 </trkpt>
 <trkpt lat="51.459535" lon="6.796467">
 <ele>63.0</ele>
 <time>2014-06-06T20:05:12Z</time>
 </trkpt>
 <trkpt lat="51.459825" lon="6.796995">
 <ele>61.0</ele>
 <time>2014-06-06T20:05:18Z</time>
 </trkpt>
 <trkpt lat="51.460248" lon="6.797509">
 <ele>63.0</ele>
 <time>2014-06-06T20:05:25Z</time>
 </trkpt>
 <trkpt lat="51.460741" lon="6.7974">
 <ele>68.0</ele>
 <time>2014-06-06T20:05:31Z</time>
 </trkpt>
 <trkpt lat="51.461304" lon="6.797334">
 <ele>70.0</ele>
 <time>2014-06-06T20:05:38Z</time>
 </trkpt>
 <trkpt lat="51.461683" lon="6.797282">
 <ele>71.0</ele>
 <time>2014-06-06T20:05:44Z</time>
 </trkpt>
 <trkpt lat="51.461966" lon="6.797015">
 <ele>73.0</ele>
 <time>2014-06-06T20:05:49Z</time>
 </trkpt>
 <trkpt lat="51.462319" lon="6.796916">
 <ele>73.0</ele>
 <time>2014-06-06T20:05:55Z</time>
 </trkpt>
 <trkpt lat="51.462632" lon="6.796823">
 <ele>64.0</ele>
 <time>2014-06-06T20:06:01Z</time>
 </trkpt>
 <trkpt lat="51.462951" lon="6.796602">
 <ele>63.0</ele>
 <time>2014-06-06T20:06:06Z</time>
 </trkpt>
 <trkpt lat="51.463283" lon="6.796248">
 <ele>67.0</ele>
 <time>2014-06-06T20:06:13Z</time>
 </trkpt>
 <trkpt lat="51.463585" lon="6.795873">
 <ele>69.0</ele>
 <time>2014-06-06T20:06:19Z</time>
 </trkpt>
 <trkpt lat="51.463908" lon="6.795526">
 <ele>64.0</ele>
 <time>2014-06-06T20:06:25Z</time>
 </trkpt>
 <trkpt lat="51.464214" lon="6.795247">
 <ele>58.0</ele>
 <time>2014-06-06T20:06:31Z</time>
 </trkpt>
 <trkpt lat="51.46447" lon="6.794949">
 <ele>63.0</ele>
 <time>2014-06-06T20:06:36Z</time>
 </trkpt>
 <trkpt lat="51.464735" lon="6.794611">
 <ele>58.0</ele>
 <time>2014-06-06T20:06:41Z</time>
 </trkpt>
 <trkpt lat="51.465018" lon="6.794124">
 <ele>60.0</ele>
 <time>2014-06-06T20:06:47Z</time>
 </trkpt>
 <trkpt lat="51.465325" lon="6.793721">
 <ele>61.0</ele>
 <time>2014-06-06T20:06:53Z</time>
 </trkpt>
 <trkpt lat="51.465516" lon="6.793298">
 <ele>57.0</ele>
 <time>2014-06-06T20:06:58Z</time>
 </trkpt>
 <trkpt lat="51.465735" lon="6.792899">
 <ele>58.0</ele>
 <time>2014-06-06T20:07:03Z</time>
 </trkpt>
 <trkpt lat="51.465956" lon="6.792433">
 <ele>60.0</ele>
 <time>2014-06-06T20:07:09Z</time>
 </trkpt>
 <trkpt lat="51.466215" lon="6.792064">
 <ele>65.0</ele>
 <time>2014-06-06T20:07:14Z</time>
 </trkpt>
 <trkpt lat="51.466632" lon="6.791951">
 <ele>66.0</ele>
 <time>2014-06-06T20:07:21Z</time>
 </trkpt>
 <trkpt lat="51.467027" lon="6.792018">
 <ele>58.0</ele>
 <time>2014-06-06T20:07:28Z</time>
 </trkpt>
 <trkpt lat="51.467369" lon="6.792084">
 <ele>61.0</ele>
 <time>2014-06-06T20:07:33Z</time>
 </trkpt>
 <trkpt lat="51.467571" lon="6.792072">
 <ele>63.0</ele>
 <time>2014-06-06T20:07:36Z</time>
 </trkpt>
 <trkpt lat="51.467905" lon="6.792114">
 <ele>62.0</ele>
 <time>2014-06-06T20:07:42Z</time>
 </trkpt>
 <trkpt lat="51.468177" lon="6.792059">
 <ele>65.0</ele>
 <time>2014-06-06T20:07:46Z</time>
 </trkpt>
 <trkpt lat="51.468409" lon="6.79206">
 <ele>67.0</ele>
 <time>2014-06-06T20:07:50Z</time>
 </trkpt>
 <trkpt lat="51.46863" lon="6.792093">
 <ele>67.0</ele>
 <time>2014-06-06T20:07:54Z</time>
 </trkpt>
 <trkpt lat="51.469092" lon="6.792129">
 <ele>66.0</ele>
 <time>2014-06-06T20:08:01Z</time>
 </trkpt>
 <trkpt lat="51.469514" lon="6.792074">
 <ele>72.0</ele>
 <time>2014-06-06T20:08:07Z</time>
 </trkpt>
 <trkpt lat="51.469923" lon="6.792294">
 <ele>69.0</ele>
 <time>2014-06-06T20:08:13Z</time>
 </trkpt>
 <trkpt lat="51.470377" lon="6.792523">
 <ele>69.0</ele>
 <time>2014-06-06T20:08:21Z</time>
 </trkpt>
 <trkpt lat="51.470669" lon="6.792591">
 <ele>71.0</ele>
 <time>2014-06-06T20:08:26Z</time>
 </trkpt>
 <trkpt lat="51.47095" lon="6.792649">
 <ele>72.0</ele>
 <time>2014-06-06T20:08:31Z</time>
 </trkpt>
 <trkpt lat="51.47128" lon="6.792739">
 <ele>68.0</ele>
 <time>2014-06-06T20:08:38Z</time>
 </trkpt>
 <trkpt lat="51.47154" lon="6.792858">
 <ele>70.0</ele>
 <time>2014-06-06T20:08:43Z</time>
 </trkpt>
 <trkpt lat="51.471777" lon="6.792509">
 <ele>70.0</ele>
 <time>2014-06-06T20:08:49Z</time>
 </trkpt>
 <trkpt lat="51.472065" lon="6.792142">
 <ele>69.0</ele>
 <time>2014-06-06T20:08:56Z</time>
 </trkpt>
 <trkpt lat="51.472194" lon="6.791738">
 <ele>66.0</ele>
 <time>2014-06-06T20:09:02Z</time>
 </trkpt>
 <trkpt lat="51.472286" lon="6.79126">
 <ele>60.0</ele>
 <time>2014-06-06T20:09:07Z</time>
 </trkpt>
 <trkpt lat="51.472431" lon="6.790746">
 <ele>58.0</ele>
 <time>2014-06-06T20:09:14Z</time>
 </trkpt>
 <trkpt lat="51.472541" lon="6.790166">
 <ele>52.0</ele>
 <time>2014-06-06T20:09:20Z</time>
 </trkpt>
 <trkpt lat="51.472742" lon="6.789664">
 <ele>50.0</ele>
 <time>2014-06-06T20:09:25Z</time>
 </trkpt>
 <trkpt lat="51.472934" lon="6.789226">
 <ele>54.0</ele>
 <time>2014-06-06T20:09:29Z</time>
 </trkpt>
 <trkpt lat="51.473207" lon="6.788969">
 <ele>54.0</ele>
 <time>2014-06-06T20:09:34Z</time>
 </trkpt>
 <trkpt lat="51.473439" lon="6.788871">
 <ele>58.0</ele>
 <time>2014-06-06T20:09:38Z</time>
 </trkpt>
 <trkpt lat="51.473746" lon="6.78883">
 <ele>58.0</ele>
 <time>2014-06-06T20:09:43Z</time>
 </trkpt>
 <trkpt lat="51.474247" lon="6.788646">
 <ele>66.0</ele>
 <time>2014-06-06T20:09:50Z</time>
 </trkpt>
 <trkpt lat="51.474542" lon="6.788699">
 <ele>65.0</ele>
 <time>2014-06-06T20:09:55Z</time>
 </trkpt>
 <trkpt lat="51.474836" lon="6.788823">
 <ele>64.0</ele>
 <time>2014-06-06T20:10:00Z</time>
 </trkpt>
 <trkpt lat="51.47513" lon="6.788848">
 <ele>71.0</ele>
 <time>2014-06-06T20:10:05Z</time>
 </trkpt>
 <trkpt lat="51.475602" lon="6.788958">
 <ele>72.0</ele>
 <time>2014-06-06T20:10:13Z</time>
 </trkpt>
 <trkpt lat="51.47588" lon="6.789199">
 <ele>68.0</ele>
 <time>2014-06-06T20:10:19Z</time>
 </trkpt>
 <trkpt lat="51.476104" lon="6.789372">
 <ele>67.0</ele>
 <time>2014-06-06T20:10:24Z</time>
 </trkpt>
 <trkpt lat="51.476394" lon="6.789609">
 <ele>71.0</ele>
 <time>2014-06-06T20:10:29Z</time>
 </trkpt>
 <trkpt lat="51.476686" lon="6.789816">
 <ele>72.0</ele>
 <time>2014-06-06T20:10:35Z</time>
 </trkpt>
 <trkpt lat="51.476907" lon="6.790006">
 <ele>71.0</ele>
 <time>2014-06-06T20:10:40Z</time>
 </trkpt>
 <trkpt lat="51.477101" lon="6.790268">
 <ele>73.0</ele>
 <time>2014-06-06T20:10:46Z</time>
 </trkpt>
 <trkpt lat="51.477275" lon="6.790366">
 <ele>74.0</ele>
 <time>2014-06-06T20:10:51Z</time>
 </trkpt>
 <trkpt lat="51.477464" lon="6.790466">
 <ele>76.0</ele>
 <time>2014-06-06T20:10:56Z</time>
 </trkpt>
 <trkpt lat="51.477807" lon="6.790726">
 <ele>76.0</ele>
 <time>2014-06-06T20:11:03Z</time>
 </trkpt>
 <trkpt lat="51.478218" lon="6.791053">
 <ele>78.0</ele>
 <time>2014-06-06T20:11:10Z</time>
 </trkpt>
 <trkpt lat="51.478458" lon="6.791327">
 <ele>77.0</ele>
 <time>2014-06-06T20:11:15Z</time>
 </trkpt>
 <trkpt lat="51.478692" lon="6.791544">
 <ele>77.0</ele>
 <time>2014-06-06T20:11:21Z</time>
 </trkpt>
 <trkpt lat="51.47893" lon="6.791625">
 <ele>78.0</ele>
 <time>2014-06-06T20:11:26Z</time>
 </trkpt>
 <trkpt lat="51.478895" lon="6.790928">
 <ele>75.0</ele>
 <time>2014-06-06T20:11:34Z</time>
 </trkpt>
 <trkpt lat="51.478819" lon="6.790312">
 <ele>68.0</ele>
 <time>2014-06-06T20:11:40Z</time>
 </trkpt>
 <trkpt lat="51.478835" lon="6.789712">
 <ele>67.0</ele>
 <time>2014-06-06T20:11:45Z</time>
 </trkpt>
 <trkpt lat="51.47887" lon="6.789272">
 <ele>68.0</ele>
 <time>2014-06-06T20:11:51Z</time>
 </trkpt>
 <trkpt lat="51.478878" lon="6.788863">
 <ele>69.0</ele>
 <time>2014-06-06T20:11:57Z</time>
 </trkpt>
 <trkpt lat="51.479004" lon="6.788622">
 <ele>70.0</ele>
 <time>2014-06-06T20:12:04Z</time>
 </trkpt>
 <trkpt lat="51.47932" lon="6.788646">
 <ele>68.0</ele>
 <time>2014-06-06T20:12:11Z</time>
 </trkpt>
 <trkpt lat="51.479515" lon="6.788801">
 <ele>65.0</ele>
 <time>2014-06-06T20:12:16Z</time>
 </trkpt>
 <trkpt lat="51.479758" lon="6.788735">
 <ele>69.0</ele>
 <time>2014-06-06T20:12:22Z</time>
 </trkpt>
 <trkpt lat="51.480063" lon="6.788481">
 <ele>70.0</ele>
 <time>2014-06-06T20:12:29Z</time>
 </trkpt>
 <trkpt lat="51.480314" lon="6.788546">
 <ele>66.0</ele>
 <time>2014-06-06T20:12:36Z</time>
 </trkpt>
 <trkpt lat="51.480531" lon="6.78866">
 <ele>66.0</ele>
 <time>2014-06-06T20:12:41Z</time>
 </trkpt>
 <trkpt lat="51.480744" lon="6.788785">
 <ele>65.0</ele>
 <time>2014-06-06T20:12:46Z</time>
 </trkpt>
 <trkpt lat="51.481029" lon="6.788919">
 <ele>66.0</ele>
 <time>2014-06-06T20:12:52Z</time>
 </trkpt>
 <trkpt lat="51.481258" lon="6.789101">
 <ele>63.0</ele>
 <time>2014-06-06T20:12:58Z</time>
 </trkpt>
 <trkpt lat="51.481488" lon="6.789225">
 <ele>65.0</ele>
 <time>2014-06-06T20:13:04Z</time>
 </trkpt>
 <trkpt lat="51.481728" lon="6.789394">
 <ele>64.0</ele>
 <time>2014-06-06T20:13:11Z</time>
 </trkpt>
 <trkpt lat="51.481962" lon="6.789425">
 <ele>63.0</ele>
 <time>2014-06-06T20:13:18Z</time>
 </trkpt>
 <trkpt lat="51.482092" lon="6.789112">
 <ele>68.0</ele>
 <time>2014-06-06T20:13:23Z</time>
 </trkpt>
 <trkpt lat="51.482271" lon="6.788829">
 <ele>69.0</ele>
 <time>2014-06-06T20:13:29Z</time>
 </trkpt>
 <trkpt lat="51.482459" lon="6.788692">
 <ele>65.0</ele>
 <time>2014-06-06T20:13:37Z</time>
 </trkpt>
 <trkpt lat="51.48258" lon="6.788564">
 <ele>68.0</ele>
 <time>2014-06-06T20:13:47Z</time>
 </trkpt>
 <trkpt lat="51.48258" lon="6.788564">
 <ele>68.0</ele>
 <time>2014-06-06T20:13:54Z</time>
 </trkpt>
 <trkpt lat="51.48258" lon="6.788564">
 <time>2014-06-06T20:13:54Z</time>
 </trkpt>
 </trkseg>
 <trkseg>
 <trkpt lat="51.48258" lon="6.788564">
 <time>2014-06-06T20:20:52Z</time>
 </trkpt>
 <trkpt lat="51.482775" lon="6.788736">
 <ele>66.0</ele>
 <time>2014-06-06T20:20:52Z</time>
 </trkpt>
 <trkpt lat="51.483037" lon="6.789195">
 <ele>67.0</ele>
 <time>2014-06-06T20:21:05Z</time>
 </trkpt>
 <trkpt lat="51.483244" lon="6.789166">
 <ele>65.0</ele>
 <time>2014-06-06T20:21:13Z</time>
 </trkpt>
 <trkpt lat="51.483472" lon="6.78921">
 <ele>65.0</ele>
 <time>2014-06-06T20:21:19Z</time>
 </trkpt>
 <trkpt lat="51.483641" lon="6.789226">
 <ele>67.0</ele>
 <time>2014-06-06T20:21:24Z</time>
 </trkpt>
 <trkpt lat="51.483889" lon="6.789322">
 <ele>67.0</ele>
 <time>2014-06-06T20:21:32Z</time>
 </trkpt>
 <trkpt lat="51.484083" lon="6.789368">
 <ele>69.0</ele>
 <time>2014-06-06T20:21:39Z</time>
 </trkpt>
 <trkpt lat="51.484274" lon="6.78938">
 <ele>71.0</ele>
 <time>2014-06-06T20:21:48Z</time>
 </trkpt>
 <trkpt lat="51.484386" lon="6.789393">
 <ele>75.0</ele>
 <time>2014-06-06T20:21:54Z</time>
 </trkpt>
 <trkpt lat="51.484549" lon="6.789403">
 <ele>77.0</ele>
 <time>2014-06-06T20:22:03Z</time>
 </trkpt>
 <trkpt lat="51.484647" lon="6.789397">
 <ele>80.0</ele>
 <time>2014-06-06T20:22:10Z</time>
 </trkpt>
 <trkpt lat="51.484647" lon="6.789397">
 <time>2014-06-06T20:22:15Z</time>
 </trkpt>
 </trkseg>
 <trkseg>
 <trkpt lat="51.484647" lon="6.789397">
 <time>2014-06-06T20:25:13Z</time>
 </trkpt>
 <trkpt lat="51.484751" lon="6.788999">
 <ele>74.0</ele>
 <time>2014-06-06T20:25:44Z</time>
 </trkpt>
 <trkpt lat="51.484836" lon="6.788514">
 <ele>69.0</ele>
 <time>2014-06-06T20:25:52Z</time>
 </trkpt>
 <trkpt lat="51.484874" lon="6.788285">
 <ele>66.0</ele>
 <time>2014-06-06T20:25:58Z</time>
 </trkpt>
 <trkpt lat="51.484977" lon="6.787822">
 <ele>71.0</ele>
 <time>2014-06-06T20:26:07Z</time>
 </trkpt>
 <trkpt lat="51.485021" lon="6.78747">
 <ele>71.0</ele>
 <time>2014-06-06T20:26:12Z</time>
 </trkpt>
 <trkpt lat="51.485038" lon="6.787">
 <ele>70.0</ele>
 <time>2014-06-06T20:26:18Z</time>
 </trkpt>
 <trkpt lat="51.485047" lon="6.786528">
 <ele>72.0</ele>
 <time>2014-06-06T20:26:23Z</time>
 </trkpt>
 <trkpt lat="51.485067" lon="6.785964">
 <ele>67.0</ele>
 <time>2014-06-06T20:26:29Z</time>
 </trkpt>
 <trkpt lat="51.485045" lon="6.785613">
 <ele>70.0</ele>
 <time>2014-06-06T20:26:35Z</time>
 </trkpt>
 <trkpt lat="51.48506" lon="6.785203">
 <ele>75.0</ele>
 <time>2014-06-06T20:26:41Z</time>
 </trkpt>
 <trkpt lat="51.485083" lon="6.784626">
 <ele>79.0</ele>
 <time>2014-06-06T20:26:48Z</time>
 </trkpt>
 <trkpt lat="51.485134" lon="6.784117">
 <ele>75.0</ele>
 <time>2014-06-06T20:26:54Z</time>
 </trkpt>
 <trkpt lat="51.485156" lon="6.783611">
 <ele>73.0</ele>
 <time>2014-06-06T20:27:00Z</time>
 </trkpt>
 <trkpt lat="51.485122" lon="6.783126">
 <ele>77.0</ele>
 <time>2014-06-06T20:27:06Z</time>
 </trkpt>
 <trkpt lat="51.485044" lon="6.782905">
 <ele>83.0</ele>
 <time>2014-06-06T20:27:13Z</time>
 </trkpt>
 <trkpt lat="51.484941" lon="6.782676">
 <ele>91.0</ele>
 <time>2014-06-06T20:27:24Z</time>
 </trkpt>
 <trkpt lat="51.484881" lon="6.782473">
 <ele>86.0</ele>
 <time>2014-06-06T20:27:32Z</time>
 </trkpt>
 <trkpt lat="51.484838" lon="6.782241">
 <ele>84.0</ele>
 <time>2014-06-06T20:27:38Z</time>
 </trkpt>
 <trkpt lat="51.484723" lon="6.782074">
 <ele>79.0</ele>
 <time>2014-06-06T20:27:44Z</time>
 </trkpt>
 <trkpt lat="51.484715" lon="6.782344">
 <ele>82.0</ele>
 <time>2014-06-06T20:27:52Z</time>
 </trkpt>
 <trkpt lat="51.484731" lon="6.782579">
 <ele>82.0</ele>
 <time>2014-06-06T20:27:59Z</time>
 </trkpt>
 <trkpt lat="51.484813" lon="6.782991">
 <ele>82.0</ele>
 <time>2014-06-06T20:28:07Z</time>
 </trkpt>
 <trkpt lat="51.484736" lon="6.783243">
 <ele>87.0</ele>
 <time>2014-06-06T20:28:12Z</time>
 </trkpt>
 <trkpt lat="51.484607" lon="6.783391">
 <ele>88.0</ele>
 <time>2014-06-06T20:28:19Z</time>
 </trkpt>
 <trkpt lat="51.484553" lon="6.783408">
 <ele>88.0</ele>
 <time>2014-06-06T20:28:22Z</time>
 </trkpt>
 <trkpt lat="51.484553" lon="6.783408">
 <time>2014-06-06T20:28:28Z</time>
 </trkpt>
 </trkseg>
 <trkseg>
 <trkpt lat="51.484553" lon="6.783408">
 <time>2014-06-06T20:33:54Z</time>
 </trkpt>
 <trkpt lat="51.484638" lon="6.783275">
 <ele>83.0</ele>
 <time>2014-06-06T20:33:54Z</time>
 </trkpt>
 <trkpt lat="51.484742" lon="6.782956">
 <ele>84.0</ele>
 <time>2014-06-06T20:34:01Z</time>
 </trkpt>
 <trkpt lat="51.484705" lon="6.782727">
 <ele>87.0</ele>
 <time>2014-06-06T20:34:07Z</time>
 </trkpt>
 <trkpt lat="51.484505" lon="6.782415">
 <ele>91.0</ele>
 <time>2014-06-06T20:34:16Z</time>
 </trkpt>
 <trkpt lat="51.484423" lon="6.782265">
 <ele>93.0</ele>
 <time>2014-06-06T20:34:22Z</time>
 </trkpt>
 <trkpt lat="51.484313" lon="6.782075">
 <ele>90.0</ele>
 <time>2014-06-06T20:34:29Z</time>
 </trkpt>
 <trkpt lat="51.484251" lon="6.781912">
 <ele>85.0</ele>
 <time>2014-06-06T20:34:34Z</time>
 </trkpt>
 <trkpt lat="51.484251" lon="6.781912">
 <ele>85.0</ele>
 <time>2014-06-06T20:34:42Z</time>
 </trkpt>
 <trkpt lat="51.484251" lon="6.781912">
 <time>2014-06-06T20:34:42Z</time>
 </trkpt>
 </trkseg>
 <trkseg>
 <trkpt lat="51.484251" lon="6.781912">
 <time>2014-06-06T20:34:50Z</time>
 </trkpt>
 <trkpt lat="51.48438" lon="6.782359">
 <ele>80.0</ele>
 <time>2014-06-06T20:34:50Z</time>
 </trkpt>
 <trkpt lat="51.484365" lon="6.782666">
 <ele>79.0</ele>
 <time>2014-06-06T20:34:55Z</time>
 </trkpt>
 <trkpt lat="51.484237" lon="6.78304">
 <ele>85.0</ele>
 <time>2014-06-06T20:35:02Z</time>
 </trkpt>
 <trkpt lat="51.484008" lon="6.783215">
 <ele>79.0</ele>
 <time>2014-06-06T20:35:07Z</time>
 </trkpt>
 <trkpt lat="51.483739" lon="6.783454">
 <ele>78.0</ele>
 <time>2014-06-06T20:35:14Z</time>
 </trkpt>
 <trkpt lat="51.48339" lon="6.783725">
 <ele>74.0</ele>
 <time>2014-06-06T20:35:20Z</time>
 </trkpt>
 <trkpt lat="51.483158" lon="6.783981">
 <ele>76.0</ele>
 <time>2014-06-06T20:35:25Z</time>
 </trkpt>
 <trkpt lat="51.482867" lon="6.784322">
 <ele>78.0</ele>
 <time>2014-06-06T20:35:32Z</time>
 </trkpt>
 <trkpt lat="51.482743" lon="6.784555">
 <ele>79.0</ele>
 <time>2014-06-06T20:35:37Z</time>
 </trkpt>
 <trkpt lat="51.482576" lon="6.784754">
 <ele>81.0</ele>
 <time>2014-06-06T20:35:42Z</time>
 </trkpt>
 <trkpt lat="51.482314" lon="6.784968">
 <ele>79.0</ele>
 <time>2014-06-06T20:35:48Z</time>
 </trkpt>
 <trkpt lat="51.482051" lon="6.785295">
 <ele>75.0</ele>
 <time>2014-06-06T20:35:56Z</time>
 </trkpt>
 <trkpt lat="51.481811" lon="6.78535">
 <ele>77.0</ele>
 <time>2014-06-06T20:36:05Z</time>
 </trkpt>
 <trkpt lat="51.481652" lon="6.785158">
 <ele>76.0</ele>
 <time>2014-06-06T20:36:13Z</time>
 </trkpt>
 <trkpt lat="51.48143" lon="6.785147">
 <ele>75.0</ele>
 <time>2014-06-06T20:36:19Z</time>
 </trkpt>
 <trkpt lat="51.481243" lon="6.784829">
 <ele>76.0</ele>
 <time>2014-06-06T20:36:25Z</time>
 </trkpt>
 <trkpt lat="51.481089" lon="6.784529">
 <ele>78.0</ele>
 <time>2014-06-06T20:36:30Z</time>
 </trkpt>
 <trkpt lat="51.480893" lon="6.784162">
 <ele>78.0</ele>
 <time>2014-06-06T20:36:36Z</time>
 </trkpt>
 <trkpt lat="51.480717" lon="6.783851">
 <ele>80.0</ele>
 <time>2014-06-06T20:36:42Z</time>
 </trkpt>
 <trkpt lat="51.480425" lon="6.78389">
 <ele>78.0</ele>
 <time>2014-06-06T20:36:49Z</time>
 </trkpt>
 <trkpt lat="51.480234" lon="6.783924">
 <ele>77.0</ele>
 <time>2014-06-06T20:36:54Z</time>
 </trkpt>
 <trkpt lat="51.479978" lon="6.784001">
 <ele>75.0</ele>
 <time>2014-06-06T20:37:01Z</time>
 </trkpt>
 <trkpt lat="51.479801" lon="6.783576">
 <ele>74.0</ele>
 <time>2014-06-06T20:37:07Z</time>
 </trkpt>
 <trkpt lat="51.47961" lon="6.783149">
 <ele>78.0</ele>
 <time>2014-06-06T20:37:13Z</time>
 </trkpt>
 <trkpt lat="51.479368" lon="6.782787">
 <ele>78.0</ele>
 <time>2014-06-06T20:37:19Z</time>
 </trkpt>
 <trkpt lat="51.479243" lon="6.782614">
 <ele>76.0</ele>
 <time>2014-06-06T20:37:24Z</time>
 </trkpt>
 <trkpt lat="51.479064" lon="6.782293">
 <ele>78.0</ele>
 <time>2014-06-06T20:37:30Z</time>
 </trkpt>
 <trkpt lat="51.478874" lon="6.781967">
 <ele>78.0</ele>
 <time>2014-06-06T20:37:36Z</time>
 </trkpt>
 <trkpt lat="51.478708" lon="6.781678">
 <ele>75.0</ele>
 <time>2014-06-06T20:37:41Z</time>
 </trkpt>
 <trkpt lat="51.478449" lon="6.781314">
 <ele>77.0</ele>
 <time>2014-06-06T20:37:48Z</time>
 </trkpt>
 <trkpt lat="51.478427" lon="6.781078">
 <ele>68.0</ele>
 <time>2014-06-06T20:37:53Z</time>
 </trkpt>
 <trkpt lat="51.478531" lon="6.78089">
 <ele>68.0</ele>
 <time>2014-06-06T20:37:58Z</time>
 </trkpt>
 <trkpt lat="51.478531" lon="6.78089">
 <ele>68.0</ele>
 <time>2014-06-06T20:38:04Z</time>
 </trkpt>
 <trkpt lat="51.478531" lon="6.78089">
 <time>2014-06-06T20:38:04Z</time>
 </trkpt>
 </trkseg>
 <trkseg>
 <trkpt lat="51.478531" lon="6.78089">
 <time>2014-06-06T20:38:12Z</time>
 </trkpt>
 <trkpt lat="51.478282" lon="6.780648">
 <ele>78.0</ele>
 <time>2014-06-06T20:38:12Z</time>
 </trkpt>
 <trkpt lat="51.478061" lon="6.780323">
 <ele>77.0</ele>
 <time>2014-06-06T20:38:21Z</time>
 </trkpt>
 <trkpt lat="51.477868" lon="6.77998">
 <ele>77.0</ele>
 <time>2014-06-06T20:38:28Z</time>
 </trkpt>
 <trkpt lat="51.477702" lon="6.779676">
 <ele>76.0</ele>
 <time>2014-06-06T20:38:34Z</time>
 </trkpt>
 <trkpt lat="51.477427" lon="6.779361">
 <ele>73.0</ele>
 <time>2014-06-06T20:38:41Z</time>
 </trkpt>
 <trkpt lat="51.477235" lon="6.778922">
 <ele>73.0</ele>
 <time>2014-06-06T20:38:48Z</time>
 </trkpt>
 <trkpt lat="51.477036" lon="6.778464">
 <ele>70.0</ele>
 <time>2014-06-06T20:38:54Z</time>
 </trkpt>
 <trkpt lat="51.476868" lon="6.778166">
 <ele>73.0</ele>
 <time>2014-06-06T20:38:59Z</time>
 </trkpt>
 <trkpt lat="51.476705" lon="6.777924">
 <ele>74.0</ele>
 <time>2014-06-06T20:39:04Z</time>
 </trkpt>
 <trkpt lat="51.47644" lon="6.777539">
 <ele>75.0</ele>
 <time>2014-06-06T20:39:11Z</time>
 </trkpt>
 <trkpt lat="51.476211" lon="6.777149">
 <ele>73.0</ele>
 <time>2014-06-06T20:39:17Z</time>
 </trkpt>
 <trkpt lat="51.475989" lon="6.776724">
 <ele>76.0</ele>
 <time>2014-06-06T20:39:23Z</time>
 </trkpt>
 <trkpt lat="51.475774" lon="6.776369">
 <ele>78.0</ele>
 <time>2014-06-06T20:39:28Z</time>
 </trkpt>
 <trkpt lat="51.475616" lon="6.776057">
 <ele>79.0</ele>
 <time>2014-06-06T20:39:32Z</time>
 </trkpt>
 <trkpt lat="51.475384" lon="6.775604">
 <ele>79.0</ele>
 <time>2014-06-06T20:39:38Z</time>
 </trkpt>
 <trkpt lat="51.47514" lon="6.775275">
 <ele>79.0</ele>
 <time>2014-06-06T20:39:43Z</time>
 </trkpt>
 <trkpt lat="51.474903" lon="6.774884">
 <ele>75.0</ele>
 <time>2014-06-06T20:39:49Z</time>
 </trkpt>
 <trkpt lat="51.474703" lon="6.774535">
 <ele>72.0</ele>
 <time>2014-06-06T20:39:54Z</time>
 </trkpt>
 <trkpt lat="51.474598" lon="6.774341">
 <ele>68.0</ele>
 <time>2014-06-06T20:39:57Z</time>
 </trkpt>
 <trkpt lat="51.474347" lon="6.773827">
 <ele>66.0</ele>
 <time>2014-06-06T20:40:04Z</time>
 </trkpt>
 <trkpt lat="51.47412" lon="6.773477">
 <ele>69.0</ele>
 <time>2014-06-06T20:40:09Z</time>
 </trkpt>
 <trkpt lat="51.473935" lon="6.773176">
 <ele>70.0</ele>
 <time>2014-06-06T20:40:14Z</time>
 </trkpt>
 <trkpt lat="51.473691" lon="6.77278">
 <ele>69.0</ele>
 <time>2014-06-06T20:40:20Z</time>
 </trkpt>
 <trkpt lat="51.473548" lon="6.772469">
 <ele>69.0</ele>
 <time>2014-06-06T20:40:25Z</time>
 </trkpt>
 <trkpt lat="51.473384" lon="6.772115">
 <ele>71.0</ele>
 <time>2014-06-06T20:40:30Z</time>
 </trkpt>
 <trkpt lat="51.473173" lon="6.77176">
 <ele>70.0</ele>
 <time>2014-06-06T20:40:36Z</time>
 </trkpt>
 <trkpt lat="51.473016" lon="6.771426">
 <ele>76.0</ele>
 <time>2014-06-06T20:40:41Z</time>
 </trkpt>
 <trkpt lat="51.472761" lon="6.77095">
 <ele>81.0</ele>
 <time>2014-06-06T20:40:48Z</time>
 </trkpt>
 <trkpt lat="51.472509" lon="6.770497">
 <ele>77.0</ele>
 <time>2014-06-06T20:40:54Z</time>
 </trkpt>
 <trkpt lat="51.472266" lon="6.770052">
 <ele>76.0</ele>
 <time>2014-06-06T20:41:00Z</time>
 </trkpt>
 <trkpt lat="51.472057" lon="6.769662">
 <ele>74.0</ele>
 <time>2014-06-06T20:41:05Z</time>
 </trkpt>
 <trkpt lat="51.471883" lon="6.769396">
 <ele>70.0</ele>
 <time>2014-06-06T20:41:09Z</time>
 </trkpt>
 <trkpt lat="51.471671" lon="6.768977">
 <ele>71.0</ele>
 <time>2014-06-06T20:41:14Z</time>
 </trkpt>
 <trkpt lat="51.47149" lon="6.768633">
 <ele>68.0</ele>
 <time>2014-06-06T20:41:19Z</time>
 </trkpt>
 <trkpt lat="51.471251" lon="6.768338">
 <ele>73.0</ele>
 <time>2014-06-06T20:41:25Z</time>
 </trkpt>
 <trkpt lat="51.471075" lon="6.768091">
 <ele>73.0</ele>
 <time>2014-06-06T20:41:31Z</time>
 </trkpt>
 <trkpt lat="51.470756" lon="6.767958">
 <ele>74.0</ele>
 <time>2014-06-06T20:41:38Z</time>
 </trkpt>
 <trkpt lat="51.470669" lon="6.7676">
 <ele>71.0</ele>
 <time>2014-06-06T20:41:43Z</time>
 </trkpt>
 <trkpt lat="51.47072" lon="6.767112">
 <ele>70.0</ele>
 <time>2014-06-06T20:41:50Z</time>
 </trkpt>
 <trkpt lat="51.47058" lon="6.766859">
 <ele>70.0</ele>
 <time>2014-06-06T20:41:55Z</time>
 </trkpt>
 <trkpt lat="51.470463" lon="6.766632">
 <ele>74.0</ele>
 <time>2014-06-06T20:41:59Z</time>
 </trkpt>
 <trkpt lat="51.470286" lon="6.76638">
 <ele>74.0</ele>
 <time>2014-06-06T20:42:04Z</time>
 </trkpt>
 <trkpt lat="51.470111" lon="6.766151">
 <ele>76.0</ele>
 <time>2014-06-06T20:42:09Z</time>
 </trkpt>
 <trkpt lat="51.469896" lon="6.765842">
 <ele>77.0</ele>
 <time>2014-06-06T20:42:15Z</time>
 </trkpt>
 <trkpt lat="51.469665" lon="6.765551">
 <ele>77.0</ele>
 <time>2014-06-06T20:42:21Z</time>
 </trkpt>
 <trkpt lat="51.469487" lon="6.765157">
 <ele>79.0</ele>
 <time>2014-06-06T20:42:27Z</time>
 </trkpt>
 <trkpt lat="51.46929" lon="6.764812">
 <ele>82.0</ele>
 <time>2014-06-06T20:42:33Z</time>
 </trkpt>
 <trkpt lat="51.469087" lon="6.764501">
 <ele>80.0</ele>
 <time>2014-06-06T20:42:39Z</time>
 </trkpt>
 <trkpt lat="51.468875" lon="6.764242">
 <ele>81.0</ele>
 <time>2014-06-06T20:42:45Z</time>
 </trkpt>
 <trkpt lat="51.468718" lon="6.763906">
 <ele>82.0</ele>
 <time>2014-06-06T20:42:51Z</time>
 </trkpt>
 <trkpt lat="51.468561" lon="6.763607">
 <ele>82.0</ele>
 <time>2014-06-06T20:42:57Z</time>
 </trkpt>
 <trkpt lat="51.468412" lon="6.763391">
 <ele>85.0</ele>
 <time>2014-06-06T20:43:02Z</time>
 </trkpt>
 <trkpt lat="51.468244" lon="6.763088">
 <ele>85.0</ele>
 <time>2014-06-06T20:43:09Z</time>
 </trkpt>
 <trkpt lat="51.468118" lon="6.762902">
 <ele>87.0</ele>
 <time>2014-06-06T20:43:17Z</time>
 </trkpt>
 <trkpt lat="51.467891" lon="6.762497">
 <ele>84.0</ele>
 <time>2014-06-06T20:43:24Z</time>
 </trkpt>
 <trkpt lat="51.467644" lon="6.761908">
 <ele>82.0</ele>
 <time>2014-06-06T20:43:30Z</time>
 </trkpt>
 <trkpt lat="51.467395" lon="6.761233">
 <ele>79.0</ele>
 <time>2014-06-06T20:43:36Z</time>
 </trkpt>
 <trkpt lat="51.467134" lon="6.760545">
 <ele>77.0</ele>
 <time>2014-06-06T20:43:43Z</time>
 </trkpt>
 <trkpt lat="51.466889" lon="6.759972">
 <ele>79.0</ele>
 <time>2014-06-06T20:43:49Z</time>
 </trkpt>
 <trkpt lat="51.466775" lon="6.759684">
 <ele>80.0</ele>
 <time>2014-06-06T20:43:52Z</time>
 </trkpt>
 <trkpt lat="51.466601" lon="6.759227">
 <ele>80.0</ele>
 <time>2014-06-06T20:43:57Z</time>
 </trkpt>
 <trkpt lat="51.466422" lon="6.758781">
 <ele>79.0</ele>
 <time>2014-06-06T20:44:02Z</time>
 </trkpt>
 <trkpt lat="51.466187" lon="6.758319">
 <ele>81.0</ele>
 <time>2014-06-06T20:44:08Z</time>
 </trkpt>
 <trkpt lat="51.466022" lon="6.757952">
 <ele>79.0</ele>
 <time>2014-06-06T20:44:13Z</time>
 </trkpt>
 <trkpt lat="51.465787" lon="6.757467">
 <ele>77.0</ele>
 <time>2014-06-06T20:44:19Z</time>
 </trkpt>
 <trkpt lat="51.465562" lon="6.757117">
 <ele>74.0</ele>
 <time>2014-06-06T20:44:24Z</time>
 </trkpt>
 <trkpt lat="51.465394" lon="6.756672">
 <ele>75.0</ele>
 <time>2014-06-06T20:44:29Z</time>
 </trkpt>
 <trkpt lat="51.465155" lon="6.756058">
 <ele>72.0</ele>
 <time>2014-06-06T20:44:35Z</time>
 </trkpt>
 <trkpt lat="51.464936" lon="6.755695">
 <ele>74.0</ele>
 <time>2014-06-06T20:44:40Z</time>
 </trkpt>
 <trkpt lat="51.464678" lon="6.755288">
 <ele>72.0</ele>
 <time>2014-06-06T20:44:46Z</time>
 </trkpt>
 <trkpt lat="51.464446" lon="6.754947">
 <ele>75.0</ele>
 <time>2014-06-06T20:44:51Z</time>
 </trkpt>
 <trkpt lat="51.464303" lon="6.754684">
 <ele>74.0</ele>
 <time>2014-06-06T20:44:54Z</time>
 </trkpt>
 <trkpt lat="51.4641" lon="6.754408">
 <ele>75.0</ele>
 <time>2014-06-06T20:44:58Z</time>
 </trkpt>
 <trkpt lat="51.463844" lon="6.753913">
 <ele>76.0</ele>
 <time>2014-06-06T20:45:04Z</time>
 </trkpt>
 <trkpt lat="51.463667" lon="6.753564">
 <ele>76.0</ele>
 <time>2014-06-06T20:45:09Z</time>
 </trkpt>
 <trkpt lat="51.463337" lon="6.753127">
 <ele>74.0</ele>
 <time>2014-06-06T20:45:15Z</time>
 </trkpt>
 <trkpt lat="51.463085" lon="6.752627">
 <ele>75.0</ele>
 <time>2014-06-06T20:45:21Z</time>
 </trkpt>
 <trkpt lat="51.462964" lon="6.75241">
 <ele>76.0</ele>
 <time>2014-06-06T20:45:24Z</time>
 </trkpt>
 <trkpt lat="51.462755" lon="6.752082">
 <ele>78.0</ele>
 <time>2014-06-06T20:45:29Z</time>
 </trkpt>
 <trkpt lat="51.462518" lon="6.751627">
 <ele>76.0</ele>
 <time>2014-06-06T20:45:35Z</time>
 </trkpt>
 <trkpt lat="51.462235" lon="6.751289">
 <ele>81.0</ele>
 <time>2014-06-06T20:45:41Z</time>
 </trkpt>
 <trkpt lat="51.462068" lon="6.750898">
 <ele>83.0</ele>
 <time>2014-06-06T20:45:46Z</time>
 </trkpt>
 <trkpt lat="51.461885" lon="6.750253">
 <ele>73.0</ele>
 <time>2014-06-06T20:45:52Z</time>
 </trkpt>
 <trkpt lat="51.461817" lon="6.749919">
 <ele>72.0</ele>
 <time>2014-06-06T20:45:55Z</time>
 </trkpt>
 <trkpt lat="51.461713" lon="6.749638">
 <ele>74.0</ele>
 <time>2014-06-06T20:45:58Z</time>
 </trkpt>
 <trkpt lat="51.461526" lon="6.749526">
 <ele>74.0</ele>
 <time>2014-06-06T20:46:01Z</time>
 </trkpt>
 <trkpt lat="51.461334" lon="6.749532">
 <ele>74.0</ele>
 <time>2014-06-06T20:46:04Z</time>
 </trkpt>
 <trkpt lat="51.460942" lon="6.749417">
 <ele>74.0</ele>
 <time>2014-06-06T20:46:10Z</time>
 </trkpt>
 <trkpt lat="51.460601" lon="6.749325">
 <ele>75.0</ele>
 <time>2014-06-06T20:46:16Z</time>
 </trkpt>
 <trkpt lat="51.460309" lon="6.749864">
 <ele>75.0</ele>
 <time>2014-06-06T20:46:24Z</time>
 </trkpt>
 <trkpt lat="51.460114" lon="6.750222">
 <ele>75.0</ele>
 <time>2014-06-06T20:46:29Z</time>
 </trkpt>
 <trkpt lat="51.459965" lon="6.750507">
 <ele>82.0</ele>
 <time>2014-06-06T20:46:36Z</time>
 </trkpt>
 <trkpt lat="51.459723" lon="6.75028">
 <ele>86.0</ele>
 <time>2014-06-06T20:46:44Z</time>
 </trkpt>
 <trkpt lat="51.459522" lon="6.750028">
 <ele>86.0</ele>
 <time>2014-06-06T20:46:49Z</time>
 </trkpt>
 <trkpt lat="51.459295" lon="6.749766">
 <ele>86.0</ele>
 <time>2014-06-06T20:46:55Z</time>
 </trkpt>
 <trkpt lat="51.459118" lon="6.749553">
 <ele>89.0</ele>
 <time>2014-06-06T20:47:00Z</time>
 </trkpt>
 <trkpt lat="51.458791" lon="6.749242">
 <ele>80.0</ele>
 <time>2014-06-06T20:47:06Z</time>
 </trkpt>
 <trkpt lat="51.45849" lon="6.748827">
 <ele>77.0</ele>
 <time>2014-06-06T20:47:13Z</time>
 </trkpt>
 <trkpt lat="51.458273" lon="6.748475">
 <ele>76.0</ele>
 <time>2014-06-06T20:47:18Z</time>
 </trkpt>
 <trkpt lat="51.458059" lon="6.748178">
 <ele>75.0</ele>
 <time>2014-06-06T20:47:23Z</time>
 </trkpt>
 <trkpt lat="51.457835" lon="6.747778">
 <ele>77.0</ele>
 <time>2014-06-06T20:47:29Z</time>
 </trkpt>
 <trkpt lat="51.457699" lon="6.747545">
 <ele>79.0</ele>
 <time>2014-06-06T20:47:32Z</time>
 </trkpt>
 <trkpt lat="51.457284" lon="6.747079">
 <ele>77.0</ele>
 <time>2014-06-06T20:47:39Z</time>
 </trkpt>
 <trkpt lat="51.456957" lon="6.746688">
 <ele>76.0</ele>
 <time>2014-06-06T20:47:45Z</time>
 </trkpt>
 <trkpt lat="51.45663" lon="6.746211">
 <ele>75.0</ele>
 <time>2014-06-06T20:47:51Z</time>
 </trkpt>
 <trkpt lat="51.456399" lon="6.745857">
 <ele>77.0</ele>
 <time>2014-06-06T20:47:56Z</time>
 </trkpt>
 <trkpt lat="51.456101" lon="6.745438">
 <ele>77.0</ele>
 <time>2014-06-06T20:48:02Z</time>
 </trkpt>
 <trkpt lat="51.455782" lon="6.745079">
 <ele>73.0</ele>
 <time>2014-06-06T20:48:08Z</time>
 </trkpt>
 <trkpt lat="51.455625" lon="6.744869">
 <ele>76.0</ele>
 <time>2014-06-06T20:48:11Z</time>
 </trkpt>
 <trkpt lat="51.45543" lon="6.74463">
 <ele>81.0</ele>
 <time>2014-06-06T20:48:15Z</time>
 </trkpt>
 <trkpt lat="51.455314" lon="6.744437">
 <ele>86.0</ele>
 <time>2014-06-06T20:48:18Z</time>
 </trkpt>
 <trkpt lat="51.455064" lon="6.744006">
 <ele>89.0</ele>
 <time>2014-06-06T20:48:24Z</time>
 </trkpt>
 <trkpt lat="51.454732" lon="6.743721">
 <ele>83.0</ele>
 <time>2014-06-06T20:48:30Z</time>
 </trkpt>
 <trkpt lat="51.454507" lon="6.743374">
 <ele>79.0</ele>
 <time>2014-06-06T20:48:36Z</time>
 </trkpt>
 <trkpt lat="51.454717" lon="6.742275">
 <ele>75.0</ele>
 <time>2014-06-06T20:48:42Z</time>
 </trkpt>
 <trkpt lat="51.454684" lon="6.741977">
 <ele>78.0</ele>
 <time>2014-06-06T20:48:45Z</time>
 </trkpt>
 <trkpt lat="51.454726" lon="6.74137">
 <ele>79.0</ele>
 <time>2014-06-06T20:48:51Z</time>
 </trkpt>
 <trkpt lat="51.454921" lon="6.740874">
 <ele>79.0</ele>
 <time>2014-06-06T20:48:57Z</time>
 </trkpt>
 <trkpt lat="51.455149" lon="6.740393">
 <ele>79.0</ele>
 <time>2014-06-06T20:49:03Z</time>
 </trkpt>
 <trkpt lat="51.455373" lon="6.73988">
 <ele>78.0</ele>
 <time>2014-06-06T20:49:08Z</time>
 </trkpt>
 <trkpt lat="51.455681" lon="6.739453">
 <ele>79.0</ele>
 <time>2014-06-06T20:49:13Z</time>
 </trkpt>
 <trkpt lat="51.456091" lon="6.738862">
 <ele>81.0</ele>
 <time>2014-06-06T20:49:20Z</time>
 </trkpt>
 <trkpt lat="51.456314" lon="6.738468">
 <ele>83.0</ele>
 <time>2014-06-06T20:49:25Z</time>
 </trkpt>
 <trkpt lat="51.456463" lon="6.737801">
 <ele>86.0</ele>
 <time>2014-06-06T20:49:31Z</time>
 </trkpt>
 <trkpt lat="51.456464" lon="6.737281">
 <ele>85.0</ele>
 <time>2014-06-06T20:49:36Z</time>
 </trkpt>
 <trkpt lat="51.45644" lon="6.736883">
 <ele>81.0</ele>
 <time>2014-06-06T20:49:41Z</time>
 </trkpt>
 <trkpt lat="51.456369" lon="6.736359">
 <ele>81.0</ele>
 <time>2014-06-06T20:49:47Z</time>
 </trkpt>
 <trkpt lat="51.456298" lon="6.735939">
 <ele>81.0</ele>
 <time>2014-06-06T20:49:52Z</time>
 </trkpt>
 <trkpt lat="51.456226" lon="6.735552">
 <ele>81.0</ele>
 <time>2014-06-06T20:49:57Z</time>
 </trkpt>
 <trkpt lat="51.456183" lon="6.735219">
 <ele>80.0</ele>
 <time>2014-06-06T20:50:03Z</time>
 </trkpt>
 <trkpt lat="51.456155" lon="6.735063">
 <ele>81.0</ele>
 <time>2014-06-06T20:50:09Z</time>
 </trkpt>
 <trkpt lat="51.456155" lon="6.735063">
 <time>2014-06-06T20:50:14Z</time>
 </trkpt>
 </trkseg>
 <trkseg>
 <trkpt lat="51.456155" lon="6.735063">
 <time>2014-06-06T20:51:28Z</time>
 </trkpt>
 <trkpt lat="51.456212" lon="6.735276">
 <ele>81.0</ele>
 <time>2014-06-06T20:51:28Z</time>
 </trkpt>
 <trkpt lat="51.456234" lon="6.735477">
 <ele>79.0</ele>
 <time>2014-06-06T20:51:36Z</time>
 </trkpt>
 <trkpt lat="51.456251" lon="6.735815">
 <ele>78.0</ele>
 <time>2014-06-06T20:51:47Z</time>
 </trkpt>
 <trkpt lat="51.456293" lon="6.736132">
 <ele>80.0</ele>
 <time>2014-06-06T20:51:53Z</time>
 </trkpt>
 <trkpt lat="51.456338" lon="6.736511">
 <ele>82.0</ele>
 <time>2014-06-06T20:51:59Z</time>
 </trkpt>
 <trkpt lat="51.456429" lon="6.73685">
 <ele>74.0</ele>
 <time>2014-06-06T20:52:05Z</time>
 </trkpt>
 <trkpt lat="51.456508" lon="6.737168">
 <ele>76.0</ele>
 <time>2014-06-06T20:52:11Z</time>
 </trkpt>
 <trkpt lat="51.456454" lon="6.73774">
 <ele>81.0</ele>
 <time>2014-06-06T20:52:18Z</time>
 </trkpt>
 <trkpt lat="51.456394" lon="6.738261">
 <ele>83.0</ele>
 <time>2014-06-06T20:52:24Z</time>
 </trkpt>
 <trkpt lat="51.456187" lon="6.738764">
 <ele>83.0</ele>
 <time>2014-06-06T20:52:30Z</time>
 </trkpt>
 <trkpt lat="51.45592" lon="6.739147">
 <ele>83.0</ele>
 <time>2014-06-06T20:52:36Z</time>
 </trkpt>
 <trkpt lat="51.455669" lon="6.739421">
 <ele>83.0</ele>
 <time>2014-06-06T20:52:41Z</time>
 </trkpt>
 <trkpt lat="51.455356" lon="6.739688">
 <ele>77.0</ele>
 <time>2014-06-06T20:52:47Z</time>
 </trkpt>
 <trkpt lat="51.455178" lon="6.740153">
 <ele>75.0</ele>
 <time>2014-06-06T20:52:53Z</time>
 </trkpt>
 <trkpt lat="51.455069" lon="6.740511">
 <ele>76.0</ele>
 <time>2014-06-06T20:52:58Z</time>
 </trkpt>
 <trkpt lat="51.45478" lon="6.740704">
 <ele>73.0</ele>
 <time>2014-06-06T20:53:04Z</time>
 </trkpt>
 <trkpt lat="51.45451" lon="6.740605">
 <ele>73.0</ele>
 <time>2014-06-06T20:53:10Z</time>
 </trkpt>
 <trkpt lat="51.454229" lon="6.740545">
 <ele>72.0</ele>
 <time>2014-06-06T20:53:15Z</time>
 </trkpt>
 <trkpt lat="51.45391" lon="6.740286">
 <ele>70.0</ele>
 <time>2014-06-06T20:53:21Z</time>
 </trkpt>
 <trkpt lat="51.453651" lon="6.740054">
 <ele>72.0</ele>
 <time>2014-06-06T20:53:26Z</time>
 </trkpt>
 <trkpt lat="51.453329" lon="6.739813">
 <ele>69.0</ele>
 <time>2014-06-06T20:53:32Z</time>
 </trkpt>
 <trkpt lat="51.453101" lon="6.739705">
 <ele>71.0</ele>
 <time>2014-06-06T20:53:37Z</time>
 </trkpt>
 <trkpt lat="51.453035" lon="6.739565">
 <ele>72.0</ele>
 <time>2014-06-06T20:53:43Z</time>
 </trkpt>
 <trkpt lat="51.452769" lon="6.739114">
 <ele>73.0</ele>
 <time>2014-06-06T20:53:54Z</time>
 </trkpt>
 <trkpt lat="51.452559" lon="6.738691">
 <ele>76.0</ele>
 <time>2014-06-06T20:54:00Z</time>
 </trkpt>
 <trkpt lat="51.452326" lon="6.738425">
 <ele>75.0</ele>
 <time>2014-06-06T20:54:05Z</time>
 </trkpt>
 <trkpt lat="51.452043" lon="6.738288">
 <ele>78.0</ele>
 <time>2014-06-06T20:54:10Z</time>
 </trkpt>
 <trkpt lat="51.451714" lon="6.738281">
 <ele>78.0</ele>
 <time>2014-06-06T20:54:16Z</time>
 </trkpt>
 <trkpt lat="51.451517" lon="6.738311">
 <ele>81.0</ele>
 <time>2014-06-06T20:54:20Z</time>
 </trkpt>
 <trkpt lat="51.451309" lon="6.738366">
 <ele>81.0</ele>
 <time>2014-06-06T20:54:25Z</time>
 </trkpt>
 <trkpt lat="51.451153" lon="6.738577">
 <ele>81.0</ele>
 <time>2014-06-06T20:54:29Z</time>
 </trkpt>
 <trkpt lat="51.45096" lon="6.738909">
 <ele>86.0</ele>
 <time>2014-06-06T20:54:34Z</time>
 </trkpt>
 <trkpt lat="51.450788" lon="6.7392">
 <ele>84.0</ele>
 <time>2014-06-06T20:54:39Z</time>
 </trkpt>
 <trkpt lat="51.450572" lon="6.739445">
 <ele>85.0</ele>
 <time>2014-06-06T20:54:44Z</time>
 </trkpt>
 <trkpt lat="51.450364" lon="6.739628">
 <ele>84.0</ele>
 <time>2014-06-06T20:54:51Z</time>
 </trkpt>
 <trkpt lat="51.45011" lon="6.739759">
 <ele>80.0</ele>
 <time>2014-06-06T20:55:00Z</time>
 </trkpt>
 <trkpt lat="51.450036" lon="6.739772">
 <ele>79.0</ele>
 <time>2014-06-06T20:55:02Z</time>
 </trkpt>
 <trkpt lat="51.450036" lon="6.739772">
 <time>2014-06-06T20:55:08Z</time>
 </trkpt>
 </trkseg>
 <trkseg>
 <trkpt lat="51.450036" lon="6.739772">
 <time>2014-06-06T20:55:31Z</time>
 </trkpt>
 <trkpt lat="51.450375" lon="6.73964">
 <ele>82.0</ele>
 <time>2014-06-06T20:55:31Z</time>
 </trkpt>
 <trkpt lat="51.450297" lon="6.740026">
 <ele>81.0</ele>
 <time>2014-06-06T20:55:51Z</time>
 </trkpt>
 <trkpt lat="51.450156" lon="6.740497">
 <ele>82.0</ele>
 <time>2014-06-06T20:55:58Z</time>
 </trkpt>
 <trkpt lat="51.44995" lon="6.740874">
 <ele>83.0</ele>
 <time>2014-06-06T20:56:05Z</time>
 </trkpt>
 <trkpt lat="51.449745" lon="6.741162">
 <ele>80.0</ele>
 <time>2014-06-06T20:56:11Z</time>
 </trkpt>
 <trkpt lat="51.449621" lon="6.741334">
 <ele>80.0</ele>
 <time>2014-06-06T20:56:14Z</time>
 </trkpt>
 <trkpt lat="51.449379" lon="6.741666">
 <ele>81.0</ele>
 <time>2014-06-06T20:56:19Z</time>
 </trkpt>
 <trkpt lat="51.449055" lon="6.742162">
 <ele>85.0</ele>
 <time>2014-06-06T20:56:26Z</time>
 </trkpt>
 <trkpt lat="51.448752" lon="6.742599">
 <ele>89.0</ele>
 <time>2014-06-06T20:56:32Z</time>
 </trkpt>
 <trkpt lat="51.448509" lon="6.742836">
 <ele>85.0</ele>
 <time>2014-06-06T20:56:37Z</time>
 </trkpt>
 <trkpt lat="51.448176" lon="6.74297">
 <ele>84.0</ele>
 <time>2014-06-06T20:56:43Z</time>
 </trkpt>
 <trkpt lat="51.447828" lon="6.743083">
 <ele>86.0</ele>
 <time>2014-06-06T20:56:49Z</time>
 </trkpt>
 <trkpt lat="51.447538" lon="6.743035">
 <ele>87.0</ele>
 <time>2014-06-06T20:56:54Z</time>
 </trkpt>
 <trkpt lat="51.44728" lon="6.743155">
 <ele>85.0</ele>
 <time>2014-06-06T20:56:58Z</time>
 </trkpt>
 <trkpt lat="51.447088" lon="6.743364">
 <ele>87.0</ele>
 <time>2014-06-06T20:57:02Z</time>
 </trkpt>
 <trkpt lat="51.446692" lon="6.743768">
 <ele>88.0</ele>
 <time>2014-06-06T20:57:09Z</time>
 </trkpt>
 <trkpt lat="51.446413" lon="6.743968">
 <ele>87.0</ele>
 <time>2014-06-06T20:57:14Z</time>
 </trkpt>
 <trkpt lat="51.446265" lon="6.744035">
 <ele>85.0</ele>
 <time>2014-06-06T20:57:17Z</time>
 </trkpt>
 <trkpt lat="51.445985" lon="6.74424">
 <ele>85.0</ele>
 <time>2014-06-06T20:57:22Z</time>
 </trkpt>
 <trkpt lat="51.445708" lon="6.744511">
 <ele>88.0</ele>
 <time>2014-06-06T20:57:27Z</time>
 </trkpt>
 <trkpt lat="51.445337" lon="6.744749">
 <ele>84.0</ele>
 <time>2014-06-06T20:57:34Z</time>
 </trkpt>
 <trkpt lat="51.444998" lon="6.745009">
 <ele>84.0</ele>
 <time>2014-06-06T20:57:40Z</time>
 </trkpt>
 <trkpt lat="51.444697" lon="6.745237">
 <ele>89.0</ele>
 <time>2014-06-06T20:57:45Z</time>
 </trkpt>
 <trkpt lat="51.444398" lon="6.745454">
 <ele>88.0</ele>
 <time>2014-06-06T20:57:50Z</time>
 </trkpt>
 <trkpt lat="51.444022" lon="6.745732">
 <ele>85.0</ele>
 <time>2014-06-06T20:57:56Z</time>
 </trkpt>
 <trkpt lat="51.443596" lon="6.746174">
 <ele>86.0</ele>
 <time>2014-06-06T20:58:03Z</time>
 </trkpt>
 <trkpt lat="51.443293" lon="6.746133">
 <ele>84.0</ele>
 <time>2014-06-06T20:58:08Z</time>
 </trkpt>
 <trkpt lat="51.442894" lon="6.74635">
 <ele>84.0</ele>
 <time>2014-06-06T20:58:15Z</time>
 </trkpt>
 <trkpt lat="51.442849" lon="6.746997">
 <ele>85.0</ele>
 <time>2014-06-06T20:58:21Z</time>
 </trkpt>
 <trkpt lat="51.442657" lon="6.747736">
 <ele>92.0</ele>
 <time>2014-06-06T20:58:28Z</time>
 </trkpt>
 <trkpt lat="51.442437" lon="6.748343">
 <ele>88.0</ele>
 <time>2014-06-06T20:58:34Z</time>
 </trkpt>
 <trkpt lat="51.44223" lon="6.748851">
 <ele>90.0</ele>
 <time>2014-06-06T20:58:40Z</time>
 </trkpt>
 <trkpt lat="51.442026" lon="6.749232">
 <ele>86.0</ele>
 <time>2014-06-06T20:58:45Z</time>
 </trkpt>
 <trkpt lat="51.441872" lon="6.749735">
 <ele>85.0</ele>
 <time>2014-06-06T20:58:50Z</time>
 </trkpt>
 <trkpt lat="51.441778" lon="6.750055">
 <ele>84.0</ele>
 <time>2014-06-06T20:58:53Z</time>
 </trkpt>
 <trkpt lat="51.441642" lon="6.750604">
 <ele>83.0</ele>
 <time>2014-06-06T20:58:58Z</time>
 </trkpt>
 <trkpt lat="51.441548" lon="6.75102">
 <ele>80.0</ele>
 <time>2014-06-06T20:59:02Z</time>
 </trkpt>
 <trkpt lat="51.441389" lon="6.751336">
 <ele>81.0</ele>
 <time>2014-06-06T20:59:07Z</time>
 </trkpt>
 <trkpt lat="51.441142" lon="6.751732">
 <ele>78.0</ele>
 <time>2014-06-06T20:59:15Z</time>
 </trkpt>
 <trkpt lat="51.44104" lon="6.751774">
 <ele>75.0</ele>
 <time>2014-06-06T20:59:22Z</time>
 </trkpt>
 <trkpt lat="51.441001" lon="6.751676">
 <ele>73.0</ele>
 <time>2014-06-06T20:59:31Z</time>
 </trkpt>
 <trkpt lat="51.441001" lon="6.751676">
 <time>2014-06-06T20:59:38Z</time>
 </trkpt>
 </trkseg>
 <trkseg>
 <trkpt lat="51.441001" lon="6.751676">
 <time>2014-06-06T20:59:40Z</time>
 </trkpt>
 <trkpt lat="51.440874" lon="6.751907">
 <ele>73.0</ele>
 <time>2014-06-06T20:59:40Z</time>
 </trkpt>
 <trkpt lat="51.440722" lon="6.752034">
 <ele>68.0</ele>
 <time>2014-06-06T20:59:45Z</time>
 </trkpt>
 <trkpt lat="51.440483" lon="6.752279">
 <ele>64.0</ele>
 <time>2014-06-06T20:59:51Z</time>
 </trkpt>
 <trkpt lat="51.440227" lon="6.752519">
 <ele>62.0</ele>
 <time>2014-06-06T20:59:56Z</time>
 </trkpt>
 <trkpt lat="51.440078" lon="6.752642">
 <ele>60.0</ele>
 <time>2014-06-06T20:59:59Z</time>
 </trkpt>
 <trkpt lat="51.439926" lon="6.752801">
 <ele>57.0</ele>
 <time>2014-06-06T21:00:02Z</time>
 </trkpt>
 <trkpt lat="51.439771" lon="6.752961">
 <ele>58.0</ele>
 <time>2014-06-06T21:00:05Z</time>
 </trkpt>
 <trkpt lat="51.439501" lon="6.753205">
 <ele>55.0</ele>
 <time>2014-06-06T21:00:10Z</time>
 </trkpt>
 <trkpt lat="51.43911" lon="6.753809">
 <ele>58.0</ele>
 <time>2014-06-06T21:00:18Z</time>
 </trkpt>
 <trkpt lat="51.438886" lon="6.754386">
 <ele>70.0</ele>
 <time>2014-06-06T21:00:24Z</time>
 </trkpt>
 <trkpt lat="51.438655" lon="6.754683">
 <ele>77.0</ele>
 <time>2014-06-06T21:00:29Z</time>
 </trkpt>
 <trkpt lat="51.438377" lon="6.755364">
 <ele>93.0</ele>
 <time>2014-06-06T21:00:34Z</time>
 </trkpt>
 <trkpt lat="51.438099" lon="6.755861">
 <ele>99.0</ele>
 <time>2014-06-06T21:00:41Z</time>
 </trkpt>
 <trkpt lat="51.437738" lon="6.756226">
 <ele>100.0</ele>
 <time>2014-06-06T21:00:47Z</time>
 </trkpt>
 <trkpt lat="51.437441" lon="6.756454">
 <ele>95.0</ele>
 <time>2014-06-06T21:00:54Z</time>
 </trkpt>
 <trkpt lat="51.437016" lon="6.756803">
 <ele>95.0</ele>
 <time>2014-06-06T21:01:00Z</time>
 </trkpt>
 <trkpt lat="51.437036" lon="6.756917">
 <ele>89.0</ele>
 <time>2014-06-06T21:01:05Z</time>
 </trkpt>
 <trkpt lat="51.437036" lon="6.756917">
 <time>2014-06-06T21:01:10Z</time>
 </trkpt>
 </trkseg>
 <trkseg>
 <trkpt lat="51.437036" lon="6.756917">
 <time>2014-06-06T21:01:17Z</time>
 </trkpt>
 <trkpt lat="51.436866" lon="6.756794">
 <ele>80.0</ele>
 <time>2014-06-06T21:01:17Z</time>
 </trkpt>
 <trkpt lat="51.436624" lon="6.757222">
 <ele>82.0</ele>
 <time>2014-06-06T21:01:24Z</time>
 </trkpt>
 <trkpt lat="51.436432" lon="6.757409">
 <ele>79.0</ele>
 <time>2014-06-06T21:01:29Z</time>
 </trkpt>
 <trkpt lat="51.436255" lon="6.757665">
 <ele>80.0</ele>
 <time>2014-06-06T21:01:34Z</time>
 </trkpt>
 <trkpt lat="51.435951" lon="6.75803">
 <ele>82.0</ele>
 <time>2014-06-06T21:01:43Z</time>
 </trkpt>
 <trkpt lat="51.435734" lon="6.758307">
 <ele>79.0</ele>
 <time>2014-06-06T21:01:49Z</time>
 </trkpt>
 <trkpt lat="51.435589" lon="6.758671">
 <ele>84.0</ele>
 <time>2014-06-06T21:01:55Z</time>
 </trkpt>
 <trkpt lat="51.43547" lon="6.759144">
 <ele>87.0</ele>
 <time>2014-06-06T21:02:00Z</time>
 </trkpt>
 <trkpt lat="51.435332" lon="6.759546">
 <ele>91.0</ele>
 <time>2014-06-06T21:02:05Z</time>
 </trkpt>
 <trkpt lat="51.435149" lon="6.760171">
 <ele>96.0</ele>
 <time>2014-06-06T21:02:12Z</time>
 </trkpt>
 <trkpt lat="51.435015" lon="6.760569">
 <ele>98.0</ele>
 <time>2014-06-06T21:02:17Z</time>
 </trkpt>
 <trkpt lat="51.434972" lon="6.760917">
 <ele>95.0</ele>
 <time>2014-06-06T21:02:25Z</time>
 </trkpt>
 <trkpt lat="51.434558" lon="6.761425">
 <ele>83.0</ele>
 <time>2014-06-06T21:02:37Z</time>
 </trkpt>
 <trkpt lat="51.434445" lon="6.761683">
 <ele>81.0</ele>
 <time>2014-06-06T21:02:44Z</time>
 </trkpt>
 <trkpt lat="51.434392" lon="6.761925">
 <ele>86.0</ele>
 <time>2014-06-06T21:02:51Z</time>
 </trkpt>
 <trkpt lat="51.434299" lon="6.76207">
 <ele>89.0</ele>
 <time>2014-06-06T21:03:02Z</time>
 </trkpt>
 <trkpt lat="51.434314" lon="6.762519">
 <ele>87.0</ele>
 <time>2014-06-06T21:03:17Z</time>
 </trkpt>
 <trkpt lat="51.434461" lon="6.762692">
 <ele>84.0</ele>
 <time>2014-06-06T21:03:26Z</time>
 </trkpt>
 <trkpt lat="51.434607" lon="6.762715">
 <ele>81.0</ele>
 <time>2014-06-06T21:03:35Z</time>
 </trkpt>
 <trkpt lat="51.434771" lon="6.762706">
 <ele>81.0</ele>
 <time>2014-06-06T21:03:42Z</time>
 </trkpt>
 <trkpt lat="51.434903" lon="6.762667">
 <ele>82.0</ele>
 <time>2014-06-06T21:03:47Z</time>
 </trkpt>
 <trkpt lat="51.435052" lon="6.763013">
 <ele>79.0</ele>
 <time>2014-06-06T21:03:56Z</time>
 </trkpt>
 <trkpt lat="51.435104" lon="6.763542">
 <ele>82.0</ele>
 <time>2014-06-06T21:04:03Z</time>
 </trkpt>
 <trkpt lat="51.435201" lon="6.763929">
 <ele>81.0</ele>
 <time>2014-06-06T21:04:08Z</time>
 </trkpt>
 <trkpt lat="51.435201" lon="6.764183">
 <ele>83.0</ele>
 <time>2014-06-06T21:04:11Z</time>
 </trkpt>
 <trkpt lat="51.435209" lon="6.764624">
 <ele>85.0</ele>
 <time>2014-06-06T21:04:16Z</time>
 </trkpt>
 <trkpt lat="51.435229" lon="6.765058">
 <ele>86.0</ele>
 <time>2014-06-06T21:04:21Z</time>
 </trkpt>
 <trkpt lat="51.435273" lon="6.765465">
 <ele>87.0</ele>
 <time>2014-06-06T21:04:26Z</time>
 </trkpt>
 <trkpt lat="51.435293" lon="6.765959">
 <ele>87.0</ele>
 <time>2014-06-06T21:04:32Z</time>
 </trkpt>
 <trkpt lat="51.435265" lon="6.766338">
 <ele>88.0</ele>
 <time>2014-06-06T21:04:37Z</time>
 </trkpt>
 <trkpt lat="51.435172" lon="6.766956">
 <ele>89.0</ele>
 <time>2014-06-06T21:04:44Z</time>
 </trkpt>
 <trkpt lat="51.4351" lon="6.767422">
 <ele>90.0</ele>
 <time>2014-06-06T21:04:49Z</time>
 </trkpt>
 <trkpt lat="51.435021" lon="6.768061">
 <ele>89.0</ele>
 <time>2014-06-06T21:04:55Z</time>
 </trkpt>
 <trkpt lat="51.434971" lon="6.768544">
 <ele>90.0</ele>
 <time>2014-06-06T21:05:00Z</time>
 </trkpt>
 <trkpt lat="51.434806" lon="6.769091">
 <ele>90.0</ele>
 <time>2014-06-06T21:05:06Z</time>
 </trkpt>
 <trkpt lat="51.434684" lon="6.769566">
 <ele>88.0</ele>
 <time>2014-06-06T21:05:11Z</time>
 </trkpt>
 <trkpt lat="51.434549" lon="6.770138">
 <ele>87.0</ele>
 <time>2014-06-06T21:05:17Z</time>
 </trkpt>
 <trkpt lat="51.434455" lon="6.770503">
 <ele>87.0</ele>
 <time>2014-06-06T21:05:21Z</time>
 </trkpt>
 <trkpt lat="51.434325" lon="6.770838">
 <ele>86.0</ele>
 <time>2014-06-06T21:05:25Z</time>
 </trkpt>
 <trkpt lat="51.434153" lon="6.771234">
 <ele>85.0</ele>
 <time>2014-06-06T21:05:30Z</time>
 </trkpt>
 <trkpt lat="51.434028" lon="6.77182">
 <ele>88.0</ele>
 <time>2014-06-06T21:05:37Z</time>
 </trkpt>
 <trkpt lat="51.433943" lon="6.772236">
 <ele>88.0</ele>
 <time>2014-06-06T21:05:42Z</time>
 </trkpt>
 <trkpt lat="51.433772" lon="6.772703">
 <ele>88.0</ele>
 <time>2014-06-06T21:05:49Z</time>
 </trkpt>
 <trkpt lat="51.433663" lon="6.773027">
 <ele>89.0</ele>
 <time>2014-06-06T21:05:54Z</time>
 </trkpt>
 <trkpt lat="51.433608" lon="6.773178">
 <ele>89.0</ele>
 <time>2014-06-06T21:06:00Z</time>
 </trkpt>
 <trkpt lat="51.433492" lon="6.773746">
 <ele>87.0</ele>
 <time>2014-06-06T21:06:10Z</time>
 </trkpt>
 <trkpt lat="51.433495" lon="6.7742">
 <ele>88.0</ele>
 <time>2014-06-06T21:06:16Z</time>
 </trkpt>
 <trkpt lat="51.433574" lon="6.774575">
 <ele>91.0</ele>
 <time>2014-06-06T21:06:21Z</time>
 </trkpt>
 <trkpt lat="51.433288" lon="6.774848">
 <ele>87.0</ele>
 <time>2014-06-06T21:06:27Z</time>
 </trkpt>
 <trkpt lat="51.433224" lon="6.774809">
 <ele>87.0</ele>
 <time>2014-06-06T21:06:29Z</time>
 </trkpt>
 <trkpt lat="51.433224" lon="6.774809">
 <time>2014-06-06T21:06:35Z</time>
 </trkpt>
 </trkseg>
 <trkseg>
 <trkpt lat="51.433224" lon="6.774809">
 <time>2014-06-06T21:06:43Z</time>
 </trkpt>
 <trkpt lat="51.433248" lon="6.775313">
 <ele>85.0</ele>
 <time>2014-06-06T21:06:43Z</time>
 </trkpt>
 <trkpt lat="51.433114" lon="6.775494">
 <ele>83.0</ele>
 <time>2014-06-06T21:06:50Z</time>
 </trkpt>
 <trkpt lat="51.433114" lon="6.775494">
 <ele>83.0</ele>
 <time>2014-06-06T21:06:57Z</time>
 </trkpt>
 <trkpt lat="51.433114" lon="6.775494">
 <time>2014-06-06T21:06:57Z</time>
 </trkpt>
 </trkseg>
 <trkseg>
 <trkpt lat="51.433114" lon="6.775494">
 <time>2014-06-06T21:07:41Z</time>
 </trkpt>
 <trkpt lat="51.43303" lon="6.775701">
 <ele>86.0</ele>
 <time>2014-06-06T21:07:41Z</time>
 </trkpt>
 <trkpt lat="51.432899" lon="6.776062">
 <ele>83.0</ele>
 <time>2014-06-06T21:07:48Z</time>
 </trkpt>
 <trkpt lat="51.432731" lon="6.776533">
 <ele>84.0</ele>
 <time>2014-06-06T21:07:54Z</time>
 </trkpt>
 <trkpt lat="51.432603" lon="6.776933">
 <ele>88.0</ele>
 <time>2014-06-06T21:07:59Z</time>
 </trkpt>
 <trkpt lat="51.432397" lon="6.77759">
 <ele>91.0</ele>
 <time>2014-06-06T21:08:17Z</time>
 </trkpt>
 <trkpt lat="51.432145" lon="6.778039">
 <ele>90.0</ele>
 <time>2014-06-06T21:08:31Z</time>
 </trkpt>
 <trkpt lat="51.432002" lon="6.77822">
 <ele>87.0</ele>
 <time>2014-06-06T21:08:38Z</time>
 </trkpt>
 <trkpt lat="51.43186" lon="6.778274">
 <ele>85.0</ele>
 <time>2014-06-06T21:08:49Z</time>
 </trkpt>
 <trkpt lat="51.43186" lon="6.778274">
 <ele>85.0</ele>
 <time>2014-06-06T21:08:57Z</time>
 </trkpt>
 <trkpt lat="51.43186" lon="6.778274">
 <time>2014-06-06T21:08:57Z</time>
 </trkpt>
 </trkseg>
 <trkseg>
 <trkpt lat="51.43186" lon="6.778274">
 <time>2014-06-06T21:09:55Z</time>
 </trkpt>
 <trkpt lat="51.43186" lon="6.778274">
 <time>2014-06-06T21:09:57Z</time>
 </trkpt>
 </trkseg>
 <trkseg>
 <trkpt lat="51.43186" lon="6.778274">
 <time>2014-06-06T21:09:58Z</time>
 </trkpt>
 </trkseg>
 </trk>
</gpx>